<?xml version="1.0" encoding="UTF-8" standalone="no" ?>
<gpx xmlns="http://www.topografix.com/GPX/1/1" xmlns:xsi="http://www.w3.org/2001/XMLSchema-instance" xsi:schemaLocation="http://www.topografix.com/GPX/1/1 http://www.topografix.com/GPX/1/1/gpx.xsd" version="1.1" creator="VisuGPX - https://www.visugpx.com">
  <metadata>
    <name>13550591-demandolx , la Garde, Eoulx, castellane</name>
  </metadata>
  <trk>
    <name><![CDATA[13550591-demandolx , la Garde, Eoulx, castellane]]></name>
    <extensions>
      <line xmlns="http://www.topografix.com/GPX/gpx_style/0/2">
        <color>0000FF</color>
        <width>4</width>
      </line>
    </extensions>
    <trkseg>
      <trkpt lat="43.85173" lon="6.50803">
        <ele>747</ele>
        <time>2021-08-13T18:16:00.000Z</time>
      </trkpt>
      <trkpt lat="43.85175" lon="6.50806">
        <ele>747</ele>
        <time>2021-08-13T18:16:00.686Z</time>
      </trkpt>
      <trkpt lat="43.85171" lon="6.50817">
        <ele>747</ele>
        <time>2021-08-13T18:16:02.753Z</time>
      </trkpt>
      <trkpt lat="43.85166" lon="6.50815">
        <ele>747</ele>
        <time>2021-08-13T18:16:03.964Z</time>
      </trkpt>
      <trkpt lat="43.85152" lon="6.5082">
        <ele>747</ele>
        <time>2021-08-13T18:16:07.328Z</time>
      </trkpt>
      <trkpt lat="43.85147" lon="6.50826">
        <ele>747</ele>
        <time>2021-08-13T18:16:08.867Z</time>
      </trkpt>
      <trkpt lat="43.85139" lon="6.5082">
        <ele>747</ele>
        <time>2021-08-13T18:16:10.984Z</time>
      </trkpt>
      <trkpt lat="43.85117" lon="6.50808">
        <ele>746</ele>
        <time>2021-08-13T18:16:13.691Z</time>
      </trkpt>
      <trkpt lat="43.85115" lon="6.50803">
        <ele>746</ele>
        <time>2021-08-13T18:16:14.651Z</time>
      </trkpt>
      <trkpt lat="43.85019" lon="6.50852">
        <ele>744</ele>
        <time>2021-08-13T18:16:29.510Z</time>
      </trkpt>
      <trkpt lat="43.85018" lon="6.5086">
        <ele>745</ele>
        <time>2021-08-13T18:16:34.766Z</time>
      </trkpt>
      <trkpt lat="43.85012" lon="6.50871">
        <ele>746</ele>
        <time>2021-08-13T18:16:40.817Z</time>
      </trkpt>
      <trkpt lat="43.84983" lon="6.50891">
        <ele>744</ele>
        <time>2021-08-13T18:16:43.959Z</time>
      </trkpt>
      <trkpt lat="43.84978" lon="6.5089">
        <ele>744</ele>
        <time>2021-08-13T18:16:45.134Z</time>
      </trkpt>
      <trkpt lat="43.84952" lon="6.50905">
        <ele>742</ele>
        <time>2021-08-13T18:16:48.005Z</time>
      </trkpt>
      <trkpt lat="43.84949" lon="6.50898">
        <ele>741</ele>
        <time>2021-08-13T18:16:48.603Z</time>
      </trkpt>
      <trkpt lat="43.8494" lon="6.50899">
        <ele>740</ele>
        <time>2021-08-13T18:16:49.524Z</time>
      </trkpt>
      <trkpt lat="43.84938" lon="6.50894">
        <ele>740</ele>
        <time>2021-08-13T18:16:50.483Z</time>
      </trkpt>
      <trkpt lat="43.84907" lon="6.50912">
        <ele>737</ele>
        <time>2021-08-13T18:16:53.909Z</time>
      </trkpt>
      <trkpt lat="43.84894" lon="6.50923">
        <ele>737</ele>
        <time>2021-08-13T18:16:57.453Z</time>
      </trkpt>
      <trkpt lat="43.84882" lon="6.50937">
        <ele>736</ele>
        <time>2021-08-13T18:16:58.951Z</time>
      </trkpt>
      <trkpt lat="43.84801" lon="6.51096">
        <ele>732</ele>
        <time>2021-08-13T18:17:17.398Z</time>
      </trkpt>
      <trkpt lat="43.84772" lon="6.51194">
        <ele>734</ele>
        <time>2021-08-13T18:17:40.784Z</time>
      </trkpt>
      <trkpt lat="43.8477" lon="6.51197">
        <ele>734</ele>
        <time>2021-08-13T18:17:41.470Z</time>
      </trkpt>
      <trkpt lat="43.8476" lon="6.51199">
        <ele>732</ele>
        <time>2021-08-13T18:17:42.500Z</time>
      </trkpt>
      <trkpt lat="43.8476" lon="6.51214">
        <ele>733</ele>
        <time>2021-08-13T18:17:48.597Z</time>
      </trkpt>
      <trkpt lat="43.8474" lon="6.51259">
        <ele>732</ele>
        <time>2021-08-13T18:17:53.730Z</time>
      </trkpt>
      <trkpt lat="43.84707" lon="6.51316">
        <ele>731</ele>
        <time>2021-08-13T18:18:01.440Z</time>
      </trkpt>
      <trkpt lat="43.84689" lon="6.51335">
        <ele>729</ele>
        <time>2021-08-13T18:18:03.746Z</time>
      </trkpt>
      <trkpt lat="43.84683" lon="6.51343">
        <ele>729</ele>
        <time>2021-08-13T18:18:05.683Z</time>
      </trkpt>
      <trkpt lat="43.84673" lon="6.51363">
        <ele>728</ele>
        <time>2021-08-13T18:18:07.452Z</time>
      </trkpt>
      <trkpt lat="43.84669" lon="6.51377">
        <ele>728</ele>
        <time>2021-08-13T18:18:09.980Z</time>
      </trkpt>
      <trkpt lat="43.84637" lon="6.51353">
        <ele>726</ele>
        <time>2021-08-13T18:18:13.707Z</time>
      </trkpt>
      <trkpt lat="43.84636" lon="6.51346">
        <ele>726</ele>
        <time>2021-08-13T18:18:14.905Z</time>
      </trkpt>
      <trkpt lat="43.84623" lon="6.51344">
        <ele>725</ele>
        <time>2021-08-13T18:18:16.238Z</time>
      </trkpt>
      <trkpt lat="43.84618" lon="6.51332">
        <ele>725</ele>
        <time>2021-08-13T18:18:18.564Z</time>
      </trkpt>
      <trkpt lat="43.84613" lon="6.51329">
        <ele>724</ele>
        <time>2021-08-13T18:18:19.120Z</time>
      </trkpt>
      <trkpt lat="43.8459" lon="6.51325">
        <ele>724</ele>
        <time>2021-08-13T18:18:24.514Z</time>
      </trkpt>
      <trkpt lat="43.84587" lon="6.51341">
        <ele>723</ele>
        <time>2021-08-13T18:18:25.729Z</time>
      </trkpt>
      <trkpt lat="43.84585" lon="6.51357">
        <ele>723</ele>
        <time>2021-08-13T18:18:28.455Z</time>
      </trkpt>
      <trkpt lat="43.8458" lon="6.51379">
        <ele>724</ele>
        <time>2021-08-13T18:18:35.704Z</time>
      </trkpt>
      <trkpt lat="43.84579" lon="6.51389">
        <ele>724</ele>
        <time>2021-08-13T18:18:37.399Z</time>
      </trkpt>
      <trkpt lat="43.84577" lon="6.51397">
        <ele>724</ele>
        <time>2021-08-13T18:18:38.820Z</time>
      </trkpt>
      <trkpt lat="43.84575" lon="6.51403">
        <ele>724</ele>
        <time>2021-08-13T18:18:39.929Z</time>
      </trkpt>
      <trkpt lat="43.84574" lon="6.51406">
        <ele>724</ele>
        <time>2021-08-13T18:18:40.484Z</time>
      </trkpt>
      <trkpt lat="43.84571" lon="6.5141">
        <ele>725</ele>
        <time>2021-08-13T18:18:44.220Z</time>
      </trkpt>
      <trkpt lat="43.84541" lon="6.51445">
        <ele>727</ele>
        <time>2021-08-13T18:19:00.280Z</time>
      </trkpt>
      <trkpt lat="43.84536" lon="6.5145">
        <ele>728</ele>
        <time>2021-08-13T18:19:05.814Z</time>
      </trkpt>
      <trkpt lat="43.84529" lon="6.51458">
        <ele>728</ele>
        <time>2021-08-13T18:19:07.925Z</time>
      </trkpt>
      <trkpt lat="43.84517" lon="6.51477">
        <ele>730</ele>
        <time>2021-08-13T18:19:20.112Z</time>
      </trkpt>
      <trkpt lat="43.84514" lon="6.51487">
        <ele>731</ele>
        <time>2021-08-13T18:19:26.614Z</time>
      </trkpt>
      <trkpt lat="43.84512" lon="6.51493">
        <ele>731</ele>
        <time>2021-08-13T18:19:27.724Z</time>
      </trkpt>
      <trkpt lat="43.84515" lon="6.51508">
        <ele>732</ele>
        <time>2021-08-13T18:19:33.864Z</time>
      </trkpt>
      <trkpt lat="43.84518" lon="6.51556">
        <ele>737</ele>
        <time>2021-08-13T18:20:05.054Z</time>
      </trkpt>
      <trkpt lat="43.8452" lon="6.51562">
        <ele>737</ele>
        <time>2021-08-13T18:20:06.164Z</time>
      </trkpt>
      <trkpt lat="43.84516" lon="6.516">
        <ele>742</ele>
        <time>2021-08-13T18:20:31.024Z</time>
      </trkpt>
      <trkpt lat="43.84513" lon="6.51606">
        <ele>743</ele>
        <time>2021-08-13T18:20:35.751Z</time>
      </trkpt>
      <trkpt lat="43.84513" lon="6.51629">
        <ele>746</ele>
        <time>2021-08-13T18:20:50.640Z</time>
      </trkpt>
      <trkpt lat="43.84503" lon="6.51628">
        <ele>749</ele>
        <time>2021-08-13T18:20:59.640Z</time>
      </trkpt>
      <trkpt lat="43.84499" lon="6.5165">
        <ele>753</ele>
        <time>2021-08-13T18:21:14.328Z</time>
      </trkpt>
      <trkpt lat="43.84495" lon="6.51681">
        <ele>757</ele>
        <time>2021-08-13T18:21:34.715Z</time>
      </trkpt>
      <trkpt lat="43.84498" lon="6.51692">
        <ele>756</ele>
        <time>2021-08-13T18:21:35.580Z</time>
      </trkpt>
      <trkpt lat="43.84493" lon="6.51743">
        <ele>760</ele>
        <time>2021-08-13T18:21:59.881Z</time>
      </trkpt>
      <trkpt lat="43.84482" lon="6.51783">
        <ele>758</ele>
        <time>2021-08-13T18:22:02.806Z</time>
      </trkpt>
      <trkpt lat="43.84487" lon="6.51794">
        <ele>754</ele>
        <time>2021-08-13T18:22:03.762Z</time>
      </trkpt>
      <trkpt lat="43.8447" lon="6.51851">
        <ele>752</ele>
        <time>2021-08-13T18:22:08.734Z</time>
      </trkpt>
      <trkpt lat="43.84421" lon="6.52042">
        <ele>747</ele>
        <time>2021-08-13T18:22:26.844Z</time>
      </trkpt>
      <trkpt lat="43.84402" lon="6.52086">
        <ele>749</ele>
        <time>2021-08-13T18:22:42.308Z</time>
      </trkpt>
      <trkpt lat="43.84345" lon="6.52186">
        <ele>754</ele>
        <time>2021-08-13T18:23:20.822Z</time>
      </trkpt>
      <trkpt lat="43.84326" lon="6.52233">
        <ele>750</ele>
        <time>2021-08-13T18:23:24.784Z</time>
      </trkpt>
      <trkpt lat="43.84277" lon="6.52408">
        <ele>756</ele>
        <time>2021-08-13T18:24:17.820Z</time>
      </trkpt>
      <trkpt lat="43.84254" lon="6.52498">
        <ele>748</ele>
        <time>2021-08-13T18:24:24.840Z</time>
      </trkpt>
      <trkpt lat="43.84247" lon="6.52517">
        <ele>747</ele>
        <time>2021-08-13T18:24:26.295Z</time>
      </trkpt>
      <trkpt lat="43.84218" lon="6.52585">
        <ele>742</ele>
        <time>2021-08-13T18:24:32.103Z</time>
      </trkpt>
      <trkpt lat="43.84207" lon="6.5262">
        <ele>740</ele>
        <time>2021-08-13T18:24:34.910Z</time>
      </trkpt>
      <trkpt lat="43.84205" lon="6.52633">
        <ele>739</ele>
        <time>2021-08-13T18:24:35.888Z</time>
      </trkpt>
      <trkpt lat="43.84203" lon="6.5265">
        <ele>737</ele>
        <time>2021-08-13T18:24:37.154Z</time>
      </trkpt>
      <trkpt lat="43.84201" lon="6.52673">
        <ele>735</ele>
        <time>2021-08-13T18:24:38.857Z</time>
      </trkpt>
      <trkpt lat="43.84203" lon="6.52696">
        <ele>734</ele>
        <time>2021-08-13T18:24:40.503Z</time>
      </trkpt>
      <trkpt lat="43.84212" lon="6.52744">
        <ele>733</ele>
        <time>2021-08-13T18:24:45.230Z</time>
      </trkpt>
      <trkpt lat="43.84216" lon="6.52757">
        <ele>732</ele>
        <time>2021-08-13T18:24:46.269Z</time>
      </trkpt>
      <trkpt lat="43.84252" lon="6.52896">
        <ele>731</ele>
        <time>2021-08-13T18:25:03.848Z</time>
      </trkpt>
      <trkpt lat="43.8431" lon="6.5313">
        <ele>735</ele>
        <time>2021-08-13T18:25:56.108Z</time>
      </trkpt>
      <trkpt lat="43.84327" lon="6.53201">
        <ele>738</ele>
        <time>2021-08-13T18:26:18.899Z</time>
      </trkpt>
      <trkpt lat="43.84329" lon="6.53208">
        <ele>738</ele>
        <time>2021-08-13T18:26:20.163Z</time>
      </trkpt>
      <trkpt lat="43.84336" lon="6.53235">
        <ele>739</ele>
        <time>2021-08-13T18:26:28.492Z</time>
      </trkpt>
      <trkpt lat="43.84341" lon="6.53257">
        <ele>739</ele>
        <time>2021-08-13T18:26:32.364Z</time>
      </trkpt>
      <trkpt lat="43.84358" lon="6.5332">
        <ele>737</ele>
        <time>2021-08-13T18:26:37.976Z</time>
      </trkpt>
      <trkpt lat="43.84371" lon="6.53384">
        <ele>737</ele>
        <time>2021-08-13T18:26:49.136Z</time>
      </trkpt>
      <trkpt lat="43.84374" lon="6.53403">
        <ele>737</ele>
        <time>2021-08-13T18:26:52.401Z</time>
      </trkpt>
      <trkpt lat="43.84373" lon="6.53419">
        <ele>738</ele>
        <time>2021-08-13T18:26:58.586Z</time>
      </trkpt>
      <trkpt lat="43.84371" lon="6.53426">
        <ele>738</ele>
        <time>2021-08-13T18:26:59.850Z</time>
      </trkpt>
      <trkpt lat="43.8437" lon="6.5345">
        <ele>740</ele>
        <time>2021-08-13T18:27:12.189Z</time>
      </trkpt>
      <trkpt lat="43.8436" lon="6.53482">
        <ele>744</ele>
        <time>2021-08-13T18:27:34.766Z</time>
      </trkpt>
      <trkpt lat="43.84349" lon="6.53506">
        <ele>747</ele>
        <time>2021-08-13T18:27:53.175Z</time>
      </trkpt>
      <trkpt lat="43.84337" lon="6.53527">
        <ele>752</ele>
        <time>2021-08-13T18:28:10.520Z</time>
      </trkpt>
      <trkpt lat="43.84327" lon="6.53551">
        <ele>756</ele>
        <time>2021-08-13T18:28:28.464Z</time>
      </trkpt>
      <trkpt lat="43.84326" lon="6.53578">
        <ele>761</ele>
        <time>2021-08-13T18:28:45.967Z</time>
      </trkpt>
      <trkpt lat="43.84322" lon="6.53609">
        <ele>763</ele>
        <time>2021-08-13T18:28:58.279Z</time>
      </trkpt>
      <trkpt lat="43.84317" lon="6.53618">
        <ele>763</ele>
        <time>2021-08-13T18:29:00.186Z</time>
      </trkpt>
      <trkpt lat="43.84298" lon="6.53669">
        <ele>765</ele>
        <time>2021-08-13T18:29:16.848Z</time>
      </trkpt>
      <trkpt lat="43.84289" lon="6.53698">
        <ele>768</ele>
        <time>2021-08-13T18:29:36.801Z</time>
      </trkpt>
      <trkpt lat="43.84285" lon="6.53726">
        <ele>771</ele>
        <time>2021-08-13T18:29:55.280Z</time>
      </trkpt>
      <trkpt lat="43.84271" lon="6.53776">
        <ele>775</ele>
        <time>2021-08-13T18:30:19.494Z</time>
      </trkpt>
      <trkpt lat="43.84272" lon="6.53792">
        <ele>776</ele>
        <time>2021-08-13T18:30:25.680Z</time>
      </trkpt>
      <trkpt lat="43.84313" lon="6.53773">
        <ele>778</ele>
        <time>2021-08-13T18:30:42.850Z</time>
      </trkpt>
      <trkpt lat="43.84318" lon="6.53773">
        <ele>779</ele>
        <time>2021-08-13T18:30:47.338Z</time>
      </trkpt>
      <trkpt lat="43.84326" lon="6.53778">
        <ele>780</ele>
        <time>2021-08-13T18:30:53.485Z</time>
      </trkpt>
      <trkpt lat="43.84331" lon="6.53785">
        <ele>781</ele>
        <time>2021-08-13T18:30:59.863Z</time>
      </trkpt>
      <trkpt lat="43.8434" lon="6.53793">
        <ele>780</ele>
        <time>2021-08-13T18:31:00.952Z</time>
      </trkpt>
      <trkpt lat="43.84347" lon="6.53799">
        <ele>779</ele>
        <time>2021-08-13T18:31:01.791Z</time>
      </trkpt>
      <trkpt lat="43.84371" lon="6.53864">
        <ele>779</ele>
        <time>2021-08-13T18:31:14.048Z</time>
      </trkpt>
      <trkpt lat="43.84378" lon="6.53878">
        <ele>779</ele>
        <time>2021-08-13T18:31:16.907Z</time>
      </trkpt>
      <trkpt lat="43.84377" lon="6.53885">
        <ele>779</ele>
        <time>2021-08-13T18:31:18.105Z</time>
      </trkpt>
      <trkpt lat="43.84401" lon="6.53948">
        <ele>782</ele>
        <time>2021-08-13T18:31:40.229Z</time>
      </trkpt>
      <trkpt lat="43.84407" lon="6.53952">
        <ele>782</ele>
        <time>2021-08-13T18:31:41.779Z</time>
      </trkpt>
      <trkpt lat="43.84416" lon="6.53973">
        <ele>785</ele>
        <time>2021-08-13T18:31:57.593Z</time>
      </trkpt>
      <trkpt lat="43.84424" lon="6.54">
        <ele>788</ele>
        <time>2021-08-13T18:32:16.490Z</time>
      </trkpt>
      <trkpt lat="43.84435" lon="6.53999">
        <ele>787</ele>
        <time>2021-08-13T18:32:17.613Z</time>
      </trkpt>
      <trkpt lat="43.84449" lon="6.54008">
        <ele>788</ele>
        <time>2021-08-13T18:32:24.567Z</time>
      </trkpt>
      <trkpt lat="43.84462" lon="6.5401">
        <ele>789</ele>
        <time>2021-08-13T18:32:31.005Z</time>
      </trkpt>
      <trkpt lat="43.84468" lon="6.54014">
        <ele>789</ele>
        <time>2021-08-13T18:32:32.555Z</time>
      </trkpt>
      <trkpt lat="43.84483" lon="6.5402">
        <ele>791</ele>
        <time>2021-08-13T18:32:45.567Z</time>
      </trkpt>
      <trkpt lat="43.84537" lon="6.54026">
        <ele>785</ele>
        <time>2021-08-13T18:32:51.089Z</time>
      </trkpt>
      <trkpt lat="43.84564" lon="6.54032">
        <ele>782</ele>
        <time>2021-08-13T18:32:53.876Z</time>
      </trkpt>
      <trkpt lat="43.84578" lon="6.54042">
        <ele>783</ele>
        <time>2021-08-13T18:33:00.906Z</time>
      </trkpt>
      <trkpt lat="43.84583" lon="6.5405">
        <ele>785</ele>
        <time>2021-08-13T18:33:07.759Z</time>
      </trkpt>
      <trkpt lat="43.84593" lon="6.54081">
        <ele>791</ele>
        <time>2021-08-13T18:33:29.743Z</time>
      </trkpt>
      <trkpt lat="43.8461" lon="6.54181">
        <ele>800</ele>
        <time>2021-08-13T18:34:26.443Z</time>
      </trkpt>
      <trkpt lat="43.84611" lon="6.54209">
        <ele>805</ele>
        <time>2021-08-13T18:34:44.591Z</time>
      </trkpt>
      <trkpt lat="43.84607" lon="6.54248">
        <ele>817</ele>
        <time>2021-08-13T18:35:10.093Z</time>
      </trkpt>
      <trkpt lat="43.84608" lon="6.54268">
        <ele>819</ele>
        <time>2021-08-13T18:35:23.071Z</time>
      </trkpt>
      <trkpt lat="43.84618" lon="6.5432">
        <ele>818</ele>
        <time>2021-08-13T18:35:28.324Z</time>
      </trkpt>
      <trkpt lat="43.84632" lon="6.54363">
        <ele>814</ele>
        <time>2021-08-13T18:35:31.792Z</time>
      </trkpt>
      <trkpt lat="43.84668" lon="6.54454">
        <ele>814</ele>
        <time>2021-08-13T18:35:49.212Z</time>
      </trkpt>
      <trkpt lat="43.8469" lon="6.54494">
        <ele>819</ele>
        <time>2021-08-13T18:36:21.777Z</time>
      </trkpt>
      <trkpt lat="43.84699" lon="6.54503">
        <ele>818</ele>
        <time>2021-08-13T18:36:22.908Z</time>
      </trkpt>
      <trkpt lat="43.84742" lon="6.5453">
        <ele>802</ele>
        <time>2021-08-13T18:36:27.720Z</time>
      </trkpt>
      <trkpt lat="43.8476" lon="6.54538">
        <ele>801</ele>
        <time>2021-08-13T18:36:29.690Z</time>
      </trkpt>
      <trkpt lat="43.84783" lon="6.5454">
        <ele>803</ele>
        <time>2021-08-13T18:36:42.046Z</time>
      </trkpt>
      <trkpt lat="43.848" lon="6.54541">
        <ele>804</ele>
        <time>2021-08-13T18:36:49.392Z</time>
      </trkpt>
      <trkpt lat="43.84873" lon="6.54549">
        <ele>802</ele>
        <time>2021-08-13T18:36:59.137Z</time>
      </trkpt>
      <trkpt lat="43.84878" lon="6.54552">
        <ele>802</ele>
        <time>2021-08-13T18:37:00.404Z</time>
      </trkpt>
      <trkpt lat="43.84894" lon="6.54573">
        <ele>804</ele>
        <time>2021-08-13T18:37:12.638Z</time>
      </trkpt>
      <trkpt lat="43.84896" lon="6.54583">
        <ele>806</ele>
        <time>2021-08-13T18:37:19.356Z</time>
      </trkpt>
      <trkpt lat="43.84899" lon="6.54604">
        <ele>813</ele>
        <time>2021-08-13T18:37:33.214Z</time>
      </trkpt>
      <trkpt lat="43.84906" lon="6.54623">
        <ele>819</ele>
        <time>2021-08-13T18:37:47.025Z</time>
      </trkpt>
      <trkpt lat="43.84927" lon="6.54652">
        <ele>824</ele>
        <time>2021-08-13T18:38:13.628Z</time>
      </trkpt>
      <trkpt lat="43.84934" lon="6.54658">
        <ele>824</ele>
        <time>2021-08-13T18:38:15.543Z</time>
      </trkpt>
      <trkpt lat="43.84941" lon="6.5466">
        <ele>821</ele>
        <time>2021-08-13T18:38:16.272Z</time>
      </trkpt>
      <trkpt lat="43.84965" lon="6.5466">
        <ele>812</ele>
        <time>2021-08-13T18:38:18.718Z</time>
      </trkpt>
      <trkpt lat="43.84983" lon="6.54668">
        <ele>806</ele>
        <time>2021-08-13T18:38:20.645Z</time>
      </trkpt>
      <trkpt lat="43.84989" lon="6.54675">
        <ele>806</ele>
        <time>2021-08-13T18:38:22.470Z</time>
      </trkpt>
      <trkpt lat="43.8501" lon="6.54712">
        <ele>810</ele>
        <time>2021-08-13T18:38:47.331Z</time>
      </trkpt>
      <trkpt lat="43.85027" lon="6.54732">
        <ele>812</ele>
        <time>2021-08-13T18:38:59.594Z</time>
      </trkpt>
      <trkpt lat="43.85071" lon="6.54762">
        <ele>806</ele>
        <time>2021-08-13T18:39:04.591Z</time>
      </trkpt>
      <trkpt lat="43.85128" lon="6.54813">
        <ele>805</ele>
        <time>2021-08-13T18:39:15.037Z</time>
      </trkpt>
      <trkpt lat="43.85205" lon="6.54864">
        <ele>801</ele>
        <time>2021-08-13T18:39:24.412Z</time>
      </trkpt>
      <trkpt lat="43.8526" lon="6.54908">
        <ele>801</ele>
        <time>2021-08-13T18:39:39.189Z</time>
      </trkpt>
      <trkpt lat="43.85271" lon="6.54913">
        <ele>801</ele>
        <time>2021-08-13T18:39:41.882Z</time>
      </trkpt>
      <trkpt lat="43.85282" lon="6.54914">
        <ele>800</ele>
        <time>2021-08-13T18:39:43.006Z</time>
      </trkpt>
      <trkpt lat="43.85312" lon="6.5491">
        <ele>798</ele>
        <time>2021-08-13T18:39:45.827Z</time>
      </trkpt>
      <trkpt lat="43.8533" lon="6.54914">
        <ele>798</ele>
        <time>2021-08-13T18:39:50.069Z</time>
      </trkpt>
      <trkpt lat="43.85349" lon="6.54922">
        <ele>798</ele>
        <time>2021-08-13T18:39:54.690Z</time>
      </trkpt>
      <trkpt lat="43.85366" lon="6.54933">
        <ele>799</ele>
        <time>2021-08-13T18:40:02.493Z</time>
      </trkpt>
      <trkpt lat="43.85377" lon="6.54949">
        <ele>802</ele>
        <time>2021-08-13T18:40:16.802Z</time>
      </trkpt>
      <trkpt lat="43.85384" lon="6.5498">
        <ele>807</ele>
        <time>2021-08-13T18:40:37.828Z</time>
      </trkpt>
      <trkpt lat="43.85388" lon="6.5499">
        <ele>808</ele>
        <time>2021-08-13T18:40:44.123Z</time>
      </trkpt>
      <trkpt lat="43.85395" lon="6.54998">
        <ele>808</ele>
        <time>2021-08-13T18:40:46.234Z</time>
      </trkpt>
      <trkpt lat="43.85402" lon="6.55003">
        <ele>808</ele>
        <time>2021-08-13T18:40:48.066Z</time>
      </trkpt>
      <trkpt lat="43.85411" lon="6.55006">
        <ele>807</ele>
        <time>2021-08-13T18:40:49.010Z</time>
      </trkpt>
      <trkpt lat="43.85421" lon="6.55006">
        <ele>806</ele>
        <time>2021-08-13T18:40:50.029Z</time>
      </trkpt>
      <trkpt lat="43.85447" lon="6.54998">
        <ele>800</ele>
        <time>2021-08-13T18:40:52.744Z</time>
      </trkpt>
      <trkpt lat="43.8546" lon="6.54995">
        <ele>798</ele>
        <time>2021-08-13T18:40:54.087Z</time>
      </trkpt>
      <trkpt lat="43.85467" lon="6.54996">
        <ele>798</ele>
        <time>2021-08-13T18:40:55.725Z</time>
      </trkpt>
      <trkpt lat="43.85473" lon="6.54999">
        <ele>797</ele>
        <time>2021-08-13T18:40:56.375Z</time>
      </trkpt>
      <trkpt lat="43.85496" lon="6.55018">
        <ele>800</ele>
        <time>2021-08-13T18:41:14.734Z</time>
      </trkpt>
      <trkpt lat="43.85511" lon="6.55037">
        <ele>802</ele>
        <time>2021-08-13T18:41:26.845Z</time>
      </trkpt>
      <trkpt lat="43.85517" lon="6.55047">
        <ele>804</ele>
        <time>2021-08-13T18:41:35.265Z</time>
      </trkpt>
      <trkpt lat="43.85528" lon="6.55085">
        <ele>809</ele>
        <time>2021-08-13T18:42:01.769Z</time>
      </trkpt>
      <trkpt lat="43.85535" lon="6.55098">
        <ele>810</ele>
        <time>2021-08-13T18:42:07.972Z</time>
      </trkpt>
      <trkpt lat="43.85568" lon="6.55146">
        <ele>807</ele>
        <time>2021-08-13T18:42:12.575Z</time>
      </trkpt>
      <trkpt lat="43.8558" lon="6.55168">
        <ele>805</ele>
        <time>2021-08-13T18:42:14.602Z</time>
      </trkpt>
      <trkpt lat="43.85587" lon="6.55175">
        <ele>806</ele>
        <time>2021-08-13T18:42:20.781Z</time>
      </trkpt>
      <trkpt lat="43.85613" lon="6.55189">
        <ele>807</ele>
        <time>2021-08-13T18:42:30.445Z</time>
      </trkpt>
      <trkpt lat="43.85632" lon="6.55208">
        <ele>808</ele>
        <time>2021-08-13T18:42:39.397Z</time>
      </trkpt>
      <trkpt lat="43.85649" lon="6.55233">
        <ele>809</ele>
        <time>2021-08-13T18:42:48.545Z</time>
      </trkpt>
      <trkpt lat="43.85674" lon="6.55274">
        <ele>811</ele>
        <time>2021-08-13T18:43:04.472Z</time>
      </trkpt>
      <trkpt lat="43.8571" lon="6.55349">
        <ele>815</ele>
        <time>2021-08-13T18:43:33.077Z</time>
      </trkpt>
      <trkpt lat="43.85739" lon="6.55396">
        <ele>813</ele>
        <time>2021-08-13T18:43:38.068Z</time>
      </trkpt>
      <trkpt lat="43.85747" lon="6.55405">
        <ele>810</ele>
        <time>2021-08-13T18:43:39.118Z</time>
      </trkpt>
      <trkpt lat="43.85771" lon="6.55427">
        <ele>808</ele>
        <time>2021-08-13T18:43:42.050Z</time>
      </trkpt>
      <trkpt lat="43.85782" lon="6.5545">
        <ele>809</ele>
        <time>2021-08-13T18:43:50.162Z</time>
      </trkpt>
      <trkpt lat="43.85786" lon="6.55464">
        <ele>810</ele>
        <time>2021-08-13T18:43:56.263Z</time>
      </trkpt>
      <trkpt lat="43.85788" lon="6.55479">
        <ele>812</ele>
        <time>2021-08-13T18:44:06.136Z</time>
      </trkpt>
      <trkpt lat="43.85789" lon="6.55521">
        <ele>819</ele>
        <time>2021-08-13T18:44:33.334Z</time>
      </trkpt>
      <trkpt lat="43.85791" lon="6.55547">
        <ele>823</ele>
        <time>2021-08-13T18:44:50.258Z</time>
      </trkpt>
      <trkpt lat="43.85795" lon="6.55557">
        <ele>823</ele>
        <time>2021-08-13T18:44:52.177Z</time>
      </trkpt>
      <trkpt lat="43.85802" lon="6.55565">
        <ele>821</ele>
        <time>2021-08-13T18:44:53.102Z</time>
      </trkpt>
      <trkpt lat="43.8581" lon="6.55569">
        <ele>818</ele>
        <time>2021-08-13T18:44:53.968Z</time>
      </trkpt>
      <trkpt lat="43.85819" lon="6.55569">
        <ele>814</ele>
        <time>2021-08-13T18:44:54.886Z</time>
      </trkpt>
      <trkpt lat="43.85863" lon="6.55553">
        <ele>802</ele>
        <time>2021-08-13T18:44:59.523Z</time>
      </trkpt>
      <trkpt lat="43.85882" lon="6.5555">
        <ele>800</ele>
        <time>2021-08-13T18:45:01.472Z</time>
      </trkpt>
      <trkpt lat="43.85901" lon="6.55554">
        <ele>800</ele>
        <time>2021-08-13T18:45:05.944Z</time>
      </trkpt>
      <trkpt lat="43.85951" lon="6.55573">
        <ele>798</ele>
        <time>2021-08-13T18:45:12.095Z</time>
      </trkpt>
      <trkpt lat="43.85969" lon="6.55585">
        <ele>797</ele>
        <time>2021-08-13T18:45:14.228Z</time>
      </trkpt>
      <trkpt lat="43.85982" lon="6.55602">
        <ele>799</ele>
        <time>2021-08-13T18:45:26.464Z</time>
      </trkpt>
      <trkpt lat="43.86007" lon="6.55651">
        <ele>805</ele>
        <time>2021-08-13T18:46:05.314Z</time>
      </trkpt>
      <trkpt lat="43.86027" lon="6.55677">
        <ele>806</ele>
        <time>2021-08-13T18:46:14.894Z</time>
      </trkpt>
      <trkpt lat="43.86043" lon="6.55689">
        <ele>804</ele>
        <time>2021-08-13T18:46:16.749Z</time>
      </trkpt>
      <trkpt lat="43.86067" lon="6.55698">
        <ele>800</ele>
        <time>2021-08-13T18:46:19.283Z</time>
      </trkpt>
      <trkpt lat="43.86075" lon="6.55704">
        <ele>799</ele>
        <time>2021-08-13T18:46:20.210Z</time>
      </trkpt>
      <trkpt lat="43.86081" lon="6.55711">
        <ele>799</ele>
        <time>2021-08-13T18:46:22.035Z</time>
      </trkpt>
      <trkpt lat="43.86095" lon="6.55737">
        <ele>802</ele>
        <time>2021-08-13T18:46:41.564Z</time>
      </trkpt>
      <trkpt lat="43.86102" lon="6.55743">
        <ele>802</ele>
        <time>2021-08-13T18:46:43.479Z</time>
      </trkpt>
      <trkpt lat="43.86109" lon="6.55746">
        <ele>803</ele>
        <time>2021-08-13T18:46:50.056Z</time>
      </trkpt>
      <trkpt lat="43.86124" lon="6.55744">
        <ele>802</ele>
        <time>2021-08-13T18:46:51.466Z</time>
      </trkpt>
      <trkpt lat="43.86154" lon="6.55726">
        <ele>798</ele>
        <time>2021-08-13T18:46:54.798Z</time>
      </trkpt>
      <trkpt lat="43.8617" lon="6.55722">
        <ele>798</ele>
        <time>2021-08-13T18:46:58.582Z</time>
      </trkpt>
      <trkpt lat="43.86216" lon="6.55732">
        <ele>800</ele>
        <time>2021-08-13T18:47:16.446Z</time>
      </trkpt>
      <trkpt lat="43.86235" lon="6.55734">
        <ele>801</ele>
        <time>2021-08-13T18:47:24.328Z</time>
      </trkpt>
      <trkpt lat="43.86284" lon="6.55728">
        <ele>797</ele>
        <time>2021-08-13T18:47:29.342Z</time>
      </trkpt>
      <trkpt lat="43.86291" lon="6.55728">
        <ele>796</ele>
        <time>2021-08-13T18:47:30.055Z</time>
      </trkpt>
      <trkpt lat="43.86298" lon="6.5573">
        <ele>796</ele>
        <time>2021-08-13T18:47:31.719Z</time>
      </trkpt>
      <trkpt lat="43.8631" lon="6.55739">
        <ele>795</ele>
        <time>2021-08-13T18:47:33.109Z</time>
      </trkpt>
      <trkpt lat="43.8632" lon="6.55753">
        <ele>794</ele>
        <time>2021-08-13T18:47:34.558Z</time>
      </trkpt>
      <trkpt lat="43.86327" lon="6.55769">
        <ele>794</ele>
        <time>2021-08-13T18:47:37.698Z</time>
      </trkpt>
      <trkpt lat="43.86328" lon="6.55778">
        <ele>794</ele>
        <time>2021-08-13T18:47:39.226Z</time>
      </trkpt>
      <trkpt lat="43.86321" lon="6.55861">
        <ele>801</ele>
        <time>2021-08-13T18:48:22.513Z</time>
      </trkpt>
      <trkpt lat="43.86325" lon="6.55956">
        <ele>809</ele>
        <time>2021-08-13T18:49:12.047Z</time>
      </trkpt>
      <trkpt lat="43.86318" lon="6.56023">
        <ele>819</ele>
        <time>2021-08-13T18:49:55.861Z</time>
      </trkpt>
      <trkpt lat="43.86321" lon="6.56115">
        <ele>823</ele>
        <time>2021-08-13T18:50:24.823Z</time>
      </trkpt>
      <trkpt lat="43.86332" lon="6.56201">
        <ele>825</ele>
        <time>2021-08-13T18:50:45.490Z</time>
      </trkpt>
      <trkpt lat="43.86347" lon="6.56244">
        <ele>828</ele>
        <time>2021-08-13T18:51:04.006Z</time>
      </trkpt>
      <trkpt lat="43.86358" lon="6.56281">
        <ele>829</ele>
        <time>2021-08-13T18:51:13.844Z</time>
      </trkpt>
      <trkpt lat="43.86369" lon="6.56351">
        <ele>832</ele>
        <time>2021-08-13T18:51:36.038Z</time>
      </trkpt>
      <trkpt lat="43.86368" lon="6.5636">
        <ele>833</ele>
        <time>2021-08-13T18:51:41.931Z</time>
      </trkpt>
      <trkpt lat="43.86365" lon="6.56368">
        <ele>834</ele>
        <time>2021-08-13T18:51:47.767Z</time>
      </trkpt>
      <trkpt lat="43.86344" lon="6.56399">
        <ele>838</ele>
        <time>2021-08-13T18:52:14.149Z</time>
      </trkpt>
      <trkpt lat="43.86337" lon="6.5642">
        <ele>839</ele>
        <time>2021-08-13T18:52:21.410Z</time>
      </trkpt>
      <trkpt lat="43.86334" lon="6.56443">
        <ele>839</ele>
        <time>2021-08-13T18:52:25.332Z</time>
      </trkpt>
      <trkpt lat="43.86337" lon="6.56491">
        <ele>838</ele>
        <time>2021-08-13T18:52:29.882Z</time>
      </trkpt>
      <trkpt lat="43.86337" lon="6.56514">
        <ele>839</ele>
        <time>2021-08-13T18:52:37.118Z</time>
      </trkpt>
      <trkpt lat="43.86336" lon="6.56524">
        <ele>839</ele>
        <time>2021-08-13T18:52:38.812Z</time>
      </trkpt>
      <trkpt lat="43.86329" lon="6.56543">
        <ele>842</ele>
        <time>2021-08-13T18:52:52.621Z</time>
      </trkpt>
      <trkpt lat="43.86316" lon="6.56568">
        <ele>849</ele>
        <time>2021-08-13T18:53:12.569Z</time>
      </trkpt>
      <trkpt lat="43.86313" lon="6.56575">
        <ele>850</ele>
        <time>2021-08-13T18:53:17.839Z</time>
      </trkpt>
      <trkpt lat="43.86314" lon="6.56583">
        <ele>850</ele>
        <time>2021-08-13T18:53:19.202Z</time>
      </trkpt>
      <trkpt lat="43.86316" lon="6.5659">
        <ele>850</ele>
        <time>2021-08-13T18:53:20.465Z</time>
      </trkpt>
      <trkpt lat="43.86339" lon="6.56613">
        <ele>846</ele>
        <time>2021-08-13T18:53:23.355Z</time>
      </trkpt>
      <trkpt lat="43.86346" lon="6.56618">
        <ele>848</ele>
        <time>2021-08-13T18:53:30.423Z</time>
      </trkpt>
      <trkpt lat="43.86367" lon="6.56623">
        <ele>852</ele>
        <time>2021-08-13T18:53:49.549Z</time>
      </trkpt>
      <trkpt lat="43.86373" lon="6.56622">
        <ele>853</ele>
        <time>2021-08-13T18:53:54.973Z</time>
      </trkpt>
      <trkpt lat="43.86379" lon="6.56618">
        <ele>853</ele>
        <time>2021-08-13T18:53:56.522Z</time>
      </trkpt>
      <trkpt lat="43.86405" lon="6.56567">
        <ele>851</ele>
        <time>2021-08-13T18:54:01.581Z</time>
      </trkpt>
      <trkpt lat="43.86416" lon="6.56554">
        <ele>852</ele>
        <time>2021-08-13T18:54:08.308Z</time>
      </trkpt>
      <trkpt lat="43.86436" lon="6.56538">
        <ele>858</ele>
        <time>2021-08-13T18:54:29.032Z</time>
      </trkpt>
      <trkpt lat="43.8644" lon="6.5653">
        <ele>859</ele>
        <time>2021-08-13T18:54:35.332Z</time>
      </trkpt>
      <trkpt lat="43.86443" lon="6.56521">
        <ele>860</ele>
        <time>2021-08-13T18:54:41.749Z</time>
      </trkpt>
      <trkpt lat="43.86443" lon="6.56512">
        <ele>859</ele>
        <time>2021-08-13T18:54:42.411Z</time>
      </trkpt>
      <trkpt lat="43.86439" lon="6.56482">
        <ele>854</ele>
        <time>2021-08-13T18:54:44.653Z</time>
      </trkpt>
      <trkpt lat="43.86438" lon="6.56473">
        <ele>852</ele>
        <time>2021-08-13T18:54:45.322Z</time>
      </trkpt>
      <trkpt lat="43.8644" lon="6.56464">
        <ele>851</ele>
        <time>2021-08-13T18:54:46.014Z</time>
      </trkpt>
      <trkpt lat="43.86444" lon="6.56456">
        <ele>852</ele>
        <time>2021-08-13T18:54:52.315Z</time>
      </trkpt>
      <trkpt lat="43.86449" lon="6.56451">
        <ele>854</ele>
        <time>2021-08-13T18:54:57.848Z</time>
      </trkpt>
      <trkpt lat="43.86455" lon="6.56448">
        <ele>856</ele>
        <time>2021-08-13T18:55:03.573Z</time>
      </trkpt>
      <trkpt lat="43.86472" lon="6.56444">
        <ele>864</ele>
        <time>2021-08-13T18:55:19.050Z</time>
      </trkpt>
      <trkpt lat="43.86476" lon="6.56439">
        <ele>866</ele>
        <time>2021-08-13T18:55:23.883Z</time>
      </trkpt>
      <trkpt lat="43.86482" lon="6.56413">
        <ele>865</ele>
        <time>2021-08-13T18:55:25.973Z</time>
      </trkpt>
      <trkpt lat="43.86495" lon="6.56388">
        <ele>868</ele>
        <time>2021-08-13T18:55:45.921Z</time>
      </trkpt>
      <trkpt lat="43.86498" lon="6.56377">
        <ele>868</ele>
        <time>2021-08-13T18:55:47.894Z</time>
      </trkpt>
      <trkpt lat="43.86502" lon="6.56345">
        <ele>865</ele>
        <time>2021-08-13T18:55:50.281Z</time>
      </trkpt>
      <trkpt lat="43.865" lon="6.56315">
        <ele>861</ele>
        <time>2021-08-13T18:55:52.495Z</time>
      </trkpt>
      <trkpt lat="43.86504" lon="6.56297">
        <ele>862</ele>
        <time>2021-08-13T18:55:59.033Z</time>
      </trkpt>
      <trkpt lat="43.86513" lon="6.56279">
        <ele>865</ele>
        <time>2021-08-13T18:56:13.209Z</time>
      </trkpt>
      <trkpt lat="43.86517" lon="6.56258">
        <ele>866</ele>
        <time>2021-08-13T18:56:20.218Z</time>
      </trkpt>
      <trkpt lat="43.86516" lon="6.56236">
        <ele>864</ele>
        <time>2021-08-13T18:56:21.838Z</time>
      </trkpt>
      <trkpt lat="43.86513" lon="6.56214">
        <ele>862</ele>
        <time>2021-08-13T18:56:23.483Z</time>
      </trkpt>
      <trkpt lat="43.86513" lon="6.56192">
        <ele>861</ele>
        <time>2021-08-13T18:56:25.006Z</time>
      </trkpt>
      <trkpt lat="43.86515" lon="6.56183">
        <ele>862</ele>
        <time>2021-08-13T18:56:31.101Z</time>
      </trkpt>
      <trkpt lat="43.8653" lon="6.56157">
        <ele>863</ele>
        <time>2021-08-13T18:56:40.135Z</time>
      </trkpt>
      <trkpt lat="43.86542" lon="6.56144">
        <ele>864</ele>
        <time>2021-08-13T18:56:47.040Z</time>
      </trkpt>
      <trkpt lat="43.86549" lon="6.56141">
        <ele>866</ele>
        <time>2021-08-13T18:56:53.616Z</time>
      </trkpt>
      <trkpt lat="43.86563" lon="6.5614">
        <ele>869</ele>
        <time>2021-08-13T18:57:06.199Z</time>
      </trkpt>
      <trkpt lat="43.86595" lon="6.56143">
        <ele>877</ele>
        <time>2021-08-13T18:57:34.989Z</time>
      </trkpt>
      <trkpt lat="43.86603" lon="6.56146">
        <ele>879</ele>
        <time>2021-08-13T18:57:42.427Z</time>
      </trkpt>
      <trkpt lat="43.86616" lon="6.56155">
        <ele>884</ele>
        <time>2021-08-13T18:57:55.469Z</time>
      </trkpt>
      <trkpt lat="43.86623" lon="6.56157">
        <ele>885</ele>
        <time>2021-08-13T18:58:01.884Z</time>
      </trkpt>
      <trkpt lat="43.86629" lon="6.56157">
        <ele>886</ele>
        <time>2021-08-13T18:58:07.270Z</time>
      </trkpt>
      <trkpt lat="43.86634" lon="6.56153">
        <ele>887</ele>
        <time>2021-08-13T18:58:12.451Z</time>
      </trkpt>
      <trkpt lat="43.86637" lon="6.56146">
        <ele>887</ele>
        <time>2021-08-13T18:58:13.817Z</time>
      </trkpt>
      <trkpt lat="43.86639" lon="6.56128">
        <ele>885</ele>
        <time>2021-08-13T18:58:15.156Z</time>
      </trkpt>
      <trkpt lat="43.86638" lon="6.56089">
        <ele>879</ele>
        <time>2021-08-13T18:58:18.024Z</time>
      </trkpt>
      <trkpt lat="43.86641" lon="6.56082">
        <ele>879</ele>
        <time>2021-08-13T18:58:19.390Z</time>
      </trkpt>
      <trkpt lat="43.86645" lon="6.56075">
        <ele>879</ele>
        <time>2021-08-13T18:58:20.889Z</time>
      </trkpt>
      <trkpt lat="43.86688" lon="6.56037">
        <ele>885</ele>
        <time>2021-08-13T18:58:58.166Z</time>
      </trkpt>
      <trkpt lat="43.86701" lon="6.5603">
        <ele>887</ele>
        <time>2021-08-13T18:59:10.683Z</time>
      </trkpt>
      <trkpt lat="43.8672" lon="6.56024">
        <ele>889</ele>
        <time>2021-08-13T18:59:22.787Z</time>
      </trkpt>
      <trkpt lat="43.86738" lon="6.56012">
        <ele>891</ele>
        <time>2021-08-13T18:59:34.890Z</time>
      </trkpt>
      <trkpt lat="43.86746" lon="6.55998">
        <ele>891</ele>
        <time>2021-08-13T18:59:37.887Z</time>
      </trkpt>
      <trkpt lat="43.86759" lon="6.55948">
        <ele>889</ele>
        <time>2021-08-13T18:59:41.907Z</time>
      </trkpt>
      <trkpt lat="43.86762" lon="6.55941">
        <ele>889</ele>
        <time>2021-08-13T18:59:43.273Z</time>
      </trkpt>
      <trkpt lat="43.8677" lon="6.55931">
        <ele>890</ele>
        <time>2021-08-13T18:59:49.366Z</time>
      </trkpt>
      <trkpt lat="43.8681" lon="6.55915">
        <ele>896</ele>
        <time>2021-08-13T19:00:26.734Z</time>
      </trkpt>
      <trkpt lat="43.86822" lon="6.55903">
        <ele>897</ele>
        <time>2021-08-13T19:00:33.538Z</time>
      </trkpt>
      <trkpt lat="43.86837" lon="6.55881">
        <ele>898</ele>
        <time>2021-08-13T19:00:42.183Z</time>
      </trkpt>
      <trkpt lat="43.86854" lon="6.55863">
        <ele>897</ele>
        <time>2021-08-13T19:00:44.535Z</time>
      </trkpt>
      <trkpt lat="43.86873" lon="6.55853">
        <ele>896</ele>
        <time>2021-08-13T19:00:46.723Z</time>
      </trkpt>
      <trkpt lat="43.86883" lon="6.55853">
        <ele>896</ele>
        <time>2021-08-13T19:00:49.050Z</time>
      </trkpt>
      <trkpt lat="43.86885" lon="6.55857">
        <ele>897</ele>
        <time>2021-08-13T19:00:52.200Z</time>
      </trkpt>
      <trkpt lat="43.86885" lon="6.55861">
        <ele>898</ele>
        <time>2021-08-13T19:00:54.788Z</time>
      </trkpt>
      <trkpt lat="43.8688" lon="6.5587">
        <ele>899</ele>
        <time>2021-08-13T19:01:01.104Z</time>
      </trkpt>
      <trkpt lat="43.86871" lon="6.5588">
        <ele>900</ele>
        <time>2021-08-13T19:01:07.283Z</time>
      </trkpt>
      <trkpt lat="43.86864" lon="6.55896">
        <ele>902</ele>
        <time>2021-08-13T19:01:19.395Z</time>
      </trkpt>
      <trkpt lat="43.86844" lon="6.5596">
        <ele>907</ele>
        <time>2021-08-13T19:01:49.659Z</time>
      </trkpt>
      <trkpt lat="43.86807" lon="6.56071">
        <ele>914</ele>
        <time>2021-08-13T19:02:34.092Z</time>
      </trkpt>
      <trkpt lat="43.86781" lon="6.56143">
        <ele>919</ele>
        <time>2021-08-13T19:03:05.041Z</time>
      </trkpt>
      <trkpt lat="43.86777" lon="6.56168">
        <ele>922</ele>
        <time>2021-08-13T19:03:21.613Z</time>
      </trkpt>
      <trkpt lat="43.8678" lon="6.56229">
        <ele>928</ele>
        <time>2021-08-13T19:04:01.180Z</time>
      </trkpt>
      <trkpt lat="43.86778" lon="6.56266">
        <ele>931</ele>
        <time>2021-08-13T19:04:19.542Z</time>
      </trkpt>
      <trkpt lat="43.86775" lon="6.56289">
        <ele>933</ele>
        <time>2021-08-13T19:04:32.010Z</time>
      </trkpt>
      <trkpt lat="43.86767" lon="6.56322">
        <ele>934</ele>
        <time>2021-08-13T19:04:41.208Z</time>
      </trkpt>
      <trkpt lat="43.86762" lon="6.56373">
        <ele>940</ele>
        <time>2021-08-13T19:05:14.515Z</time>
      </trkpt>
      <trkpt lat="43.8676" lon="6.56382">
        <ele>940</ele>
        <time>2021-08-13T19:05:16.095Z</time>
      </trkpt>
      <trkpt lat="43.86753" lon="6.564">
        <ele>941</ele>
        <time>2021-08-13T19:05:22.888Z</time>
      </trkpt>
      <trkpt lat="43.86743" lon="6.56415">
        <ele>942</ele>
        <time>2021-08-13T19:05:29.678Z</time>
      </trkpt>
      <trkpt lat="43.86737" lon="6.56421">
        <ele>943</ele>
        <time>2021-08-13T19:05:36.317Z</time>
      </trkpt>
      <trkpt lat="43.86701" lon="6.56433">
        <ele>944</ele>
        <time>2021-08-13T19:05:47.766Z</time>
      </trkpt>
      <trkpt lat="43.8668" lon="6.56444">
        <ele>945</ele>
        <time>2021-08-13T19:05:56.585Z</time>
      </trkpt>
      <trkpt lat="43.86666" lon="6.56447">
        <ele>945</ele>
        <time>2021-08-13T19:05:59.882Z</time>
      </trkpt>
      <trkpt lat="43.86626" lon="6.56438">
        <ele>934</ele>
        <time>2021-08-13T19:06:04.012Z</time>
      </trkpt>
      <trkpt lat="43.86616" lon="6.56444">
        <ele>933</ele>
        <time>2021-08-13T19:06:05.123Z</time>
      </trkpt>
      <trkpt lat="43.86612" lon="6.5645">
        <ele>933</ele>
        <time>2021-08-13T19:06:06.494Z</time>
      </trkpt>
      <trkpt lat="43.86611" lon="6.56456">
        <ele>933</ele>
        <time>2021-08-13T19:06:07.527Z</time>
      </trkpt>
      <trkpt lat="43.86613" lon="6.56461">
        <ele>934</ele>
        <time>2021-08-13T19:06:11.227Z</time>
      </trkpt>
      <trkpt lat="43.86616" lon="6.56463">
        <ele>936</ele>
        <time>2021-08-13T19:06:14.215Z</time>
      </trkpt>
      <trkpt lat="43.86637" lon="6.56464">
        <ele>942</ele>
        <time>2021-08-13T19:06:33.076Z</time>
      </trkpt>
      <trkpt lat="43.86684" lon="6.5648">
        <ele>956</ele>
        <time>2021-08-13T19:07:16.516Z</time>
      </trkpt>
      <trkpt lat="43.86709" lon="6.56481">
        <ele>957</ele>
        <time>2021-08-13T19:07:25.700Z</time>
      </trkpt>
      <trkpt lat="43.86733" lon="6.56487">
        <ele>961</ele>
        <time>2021-08-13T19:07:47.590Z</time>
      </trkpt>
      <trkpt lat="43.86756" lon="6.56484">
        <ele>962</ele>
        <time>2021-08-13T19:07:56.498Z</time>
      </trkpt>
      <trkpt lat="43.86764" lon="6.56485">
        <ele>963</ele>
        <time>2021-08-13T19:08:02.883Z</time>
      </trkpt>
      <trkpt lat="43.86801" lon="6.56496">
        <ele>972</ele>
        <time>2021-08-13T19:08:36.849Z</time>
      </trkpt>
      <trkpt lat="43.86808" lon="6.56497">
        <ele>973</ele>
        <time>2021-08-13T19:08:43.165Z</time>
      </trkpt>
      <trkpt lat="43.86814" lon="6.56494">
        <ele>974</ele>
        <time>2021-08-13T19:08:48.890Z</time>
      </trkpt>
      <trkpt lat="43.86819" lon="6.56489">
        <ele>974</ele>
        <time>2021-08-13T19:08:50.325Z</time>
      </trkpt>
      <trkpt lat="43.86838" lon="6.56459">
        <ele>972</ele>
        <time>2021-08-13T19:08:53.259Z</time>
      </trkpt>
      <trkpt lat="43.86848" lon="6.56432">
        <ele>970</ele>
        <time>2021-08-13T19:08:55.490Z</time>
      </trkpt>
      <trkpt lat="43.86856" lon="6.56415">
        <ele>969</ele>
        <time>2021-08-13T19:08:56.982Z</time>
      </trkpt>
      <trkpt lat="43.86878" lon="6.56393">
        <ele>974</ele>
        <time>2021-08-13T19:09:21.326Z</time>
      </trkpt>
      <trkpt lat="43.86883" lon="6.56385">
        <ele>975</ele>
        <time>2021-08-13T19:09:27.946Z</time>
      </trkpt>
      <trkpt lat="43.86889" lon="6.56368">
        <ele>975</ele>
        <time>2021-08-13T19:09:31.121Z</time>
      </trkpt>
      <trkpt lat="43.86901" lon="6.56323">
        <ele>975</ele>
        <time>2021-08-13T19:09:39.171Z</time>
      </trkpt>
      <trkpt lat="43.86911" lon="6.56302">
        <ele>976</ele>
        <time>2021-08-13T19:09:46.810Z</time>
      </trkpt>
      <trkpt lat="43.86922" lon="6.56289">
        <ele>977</ele>
        <time>2021-08-13T19:09:53.536Z</time>
      </trkpt>
      <trkpt lat="43.86941" lon="6.56273">
        <ele>977</ele>
        <time>2021-08-13T19:09:58.709Z</time>
      </trkpt>
      <trkpt lat="43.86955" lon="6.56267">
        <ele>978</ele>
        <time>2021-08-13T19:10:05.481Z</time>
      </trkpt>
      <trkpt lat="43.86983" lon="6.56258">
        <ele>981</ele>
        <time>2021-08-13T19:10:23.650Z</time>
      </trkpt>
      <trkpt lat="43.86994" lon="6.5625">
        <ele>981</ele>
        <time>2021-08-13T19:10:26.540Z</time>
      </trkpt>
      <trkpt lat="43.87002" lon="6.5624">
        <ele>980</ele>
        <time>2021-08-13T19:10:27.638Z</time>
      </trkpt>
      <trkpt lat="43.87007" lon="6.56237">
        <ele>979</ele>
        <time>2021-08-13T19:10:28.193Z</time>
      </trkpt>
      <trkpt lat="43.87011" lon="6.56237">
        <ele>978</ele>
        <time>2021-08-13T19:10:28.601Z</time>
      </trkpt>
      <trkpt lat="43.87014" lon="6.5624">
        <ele>979</ele>
        <time>2021-08-13T19:10:31.921Z</time>
      </trkpt>
      <trkpt lat="43.87013" lon="6.56249">
        <ele>981</ele>
        <time>2021-08-13T19:10:37.813Z</time>
      </trkpt>
      <trkpt lat="43.8701" lon="6.56254">
        <ele>982</ele>
        <time>2021-08-13T19:10:42.023Z</time>
      </trkpt>
      <trkpt lat="43.86976" lon="6.56284">
        <ele>985</ele>
        <time>2021-08-13T19:11:01.548Z</time>
      </trkpt>
      <trkpt lat="43.86962" lon="6.56301">
        <ele>986</ele>
        <time>2021-08-13T19:11:09.309Z</time>
      </trkpt>
      <trkpt lat="43.86948" lon="6.56332">
        <ele>988</ele>
        <time>2021-08-13T19:11:22.227Z</time>
      </trkpt>
      <trkpt lat="43.86935" lon="6.56364">
        <ele>990</ele>
        <time>2021-08-13T19:11:35.167Z</time>
      </trkpt>
      <trkpt lat="43.86931" lon="6.56386">
        <ele>991</ele>
        <time>2021-08-13T19:11:42.346Z</time>
      </trkpt>
      <trkpt lat="43.86918" lon="6.56471">
        <ele>998</ele>
        <time>2021-08-13T19:12:25.156Z</time>
      </trkpt>
      <trkpt lat="43.86918" lon="6.56483">
        <ele>999</ele>
        <time>2021-08-13T19:12:31.329Z</time>
      </trkpt>
      <trkpt lat="43.86923" lon="6.56527">
        <ele>1009</ele>
        <time>2021-08-13T19:13:00.153Z</time>
      </trkpt>
      <trkpt lat="43.86922" lon="6.56536">
        <ele>1011</ele>
        <time>2021-08-13T19:13:06.046Z</time>
      </trkpt>
      <trkpt lat="43.86918" lon="6.56544">
        <ele>1011</ele>
        <time>2021-08-13T19:13:07.680Z</time>
      </trkpt>
      <trkpt lat="43.86908" lon="6.56558">
        <ele>1012</ele>
        <time>2021-08-13T19:13:14.352Z</time>
      </trkpt>
      <trkpt lat="43.86893" lon="6.56571">
        <ele>1011</ele>
        <time>2021-08-13T19:13:16.141Z</time>
      </trkpt>
      <trkpt lat="43.86846" lon="6.56603">
        <ele>1011</ele>
        <time>2021-08-13T19:13:28.325Z</time>
      </trkpt>
      <trkpt lat="43.86785" lon="6.56647">
        <ele>1010</ele>
        <time>2021-08-13T19:13:38.939Z</time>
      </trkpt>
      <trkpt lat="43.86772" lon="6.56661">
        <ele>1010</ele>
        <time>2021-08-13T19:13:42.769Z</time>
      </trkpt>
      <trkpt lat="43.86771" lon="6.56663">
        <ele>1010</ele>
        <time>2021-08-13T19:13:43.177Z</time>
      </trkpt>
      <trkpt lat="43.86766" lon="6.56677">
        <ele>1011</ele>
        <time>2021-08-13T19:13:49.322Z</time>
      </trkpt>
      <trkpt lat="43.86766" lon="6.56706">
        <ele>1015</ele>
        <time>2021-08-13T19:14:08.089Z</time>
      </trkpt>
      <trkpt lat="43.8676" lon="6.56791">
        <ele>1024</ele>
        <time>2021-08-13T19:15:03.358Z</time>
      </trkpt>
      <trkpt lat="43.86759" lon="6.56834">
        <ele>1030</ele>
        <time>2021-08-13T19:15:31.199Z</time>
      </trkpt>
      <trkpt lat="43.86762" lon="6.56858">
        <ele>1031</ele>
        <time>2021-08-13T19:15:38.685Z</time>
      </trkpt>
      <trkpt lat="43.86771" lon="6.56889">
        <ele>1034</ele>
        <time>2021-08-13T19:15:57.842Z</time>
      </trkpt>
      <trkpt lat="43.86772" lon="6.56898">
        <ele>1035</ele>
        <time>2021-08-13T19:16:03.735Z</time>
      </trkpt>
      <trkpt lat="43.8677" lon="6.56905">
        <ele>1034</ele>
        <time>2021-08-13T19:16:04.288Z</time>
      </trkpt>
      <trkpt lat="43.86765" lon="6.5691">
        <ele>1033</ele>
        <time>2021-08-13T19:16:04.917Z</time>
      </trkpt>
      <trkpt lat="43.86753" lon="6.56916">
        <ele>1030</ele>
        <time>2021-08-13T19:16:06.217Z</time>
      </trkpt>
      <trkpt lat="43.86747" lon="6.56921">
        <ele>1028</ele>
        <time>2021-08-13T19:16:06.931Z</time>
      </trkpt>
      <trkpt lat="43.86744" lon="6.56929">
        <ele>1027</ele>
        <time>2021-08-13T19:16:07.593Z</time>
      </trkpt>
      <trkpt lat="43.86742" lon="6.56938">
        <ele>1026</ele>
        <time>2021-08-13T19:16:08.285Z</time>
      </trkpt>
      <trkpt lat="43.86743" lon="6.56949">
        <ele>1026</ele>
        <time>2021-08-13T19:16:10.145Z</time>
      </trkpt>
      <trkpt lat="43.86747" lon="6.56975">
        <ele>1028</ele>
        <time>2021-08-13T19:16:22.258Z</time>
      </trkpt>
      <trkpt lat="43.86764" lon="6.57032">
        <ele>1035</ele>
        <time>2021-08-13T19:17:02.176Z</time>
      </trkpt>
      <trkpt lat="43.86799" lon="6.57173">
        <ele>1054</ele>
        <time>2021-08-13T19:18:38.678Z</time>
      </trkpt>
      <trkpt lat="43.86809" lon="6.57209">
        <ele>1060</ele>
        <time>2021-08-13T19:19:03.644Z</time>
      </trkpt>
      <trkpt lat="43.86812" lon="6.57231">
        <ele>1062</ele>
        <time>2021-08-13T19:19:16.378Z</time>
      </trkpt>
      <trkpt lat="43.86811" lon="6.57249">
        <ele>1063</ele>
        <time>2021-08-13T19:19:22.804Z</time>
      </trkpt>
      <trkpt lat="43.86807" lon="6.57262">
        <ele>1064</ele>
        <time>2021-08-13T19:19:28.861Z</time>
      </trkpt>
      <trkpt lat="43.86808" lon="6.57268">
        <ele>1065</ele>
        <time>2021-08-13T19:19:32.846Z</time>
      </trkpt>
      <trkpt lat="43.8681" lon="6.57271">
        <ele>1066</ele>
        <time>2021-08-13T19:19:35.490Z</time>
      </trkpt>
      <trkpt lat="43.86816" lon="6.57271">
        <ele>1067</ele>
        <time>2021-08-13T19:19:40.876Z</time>
      </trkpt>
      <trkpt lat="43.86819" lon="6.57263">
        <ele>1066</ele>
        <time>2021-08-13T19:19:41.538Z</time>
      </trkpt>
      <trkpt lat="43.8682" lon="6.57253">
        <ele>1065</ele>
        <time>2021-08-13T19:19:42.280Z</time>
      </trkpt>
      <trkpt lat="43.86819" lon="6.57204">
        <ele>1063</ele>
        <time>2021-08-13T19:19:45.853Z</time>
      </trkpt>
      <trkpt lat="43.86812" lon="6.57148">
        <ele>1058</ele>
        <time>2021-08-13T19:19:50.030Z</time>
      </trkpt>
      <trkpt lat="43.86807" lon="6.5705">
        <ele>1053</ele>
        <time>2021-08-13T19:19:57.250Z</time>
      </trkpt>
      <trkpt lat="43.86809" lon="6.57032">
        <ele>1053</ele>
        <time>2021-08-13T19:20:00.305Z</time>
      </trkpt>
      <trkpt lat="43.86818" lon="6.57012">
        <ele>1056</ele>
        <time>2021-08-13T19:20:15.562Z</time>
      </trkpt>
      <trkpt lat="43.86827" lon="6.57001">
        <ele>1059</ele>
        <time>2021-08-13T19:20:26.329Z</time>
      </trkpt>
      <trkpt lat="43.86838" lon="6.56995">
        <ele>1062</ele>
        <time>2021-08-13T19:20:36.939Z</time>
      </trkpt>
      <trkpt lat="43.86857" lon="6.56988">
        <ele>1066</ele>
        <time>2021-08-13T19:20:54.585Z</time>
      </trkpt>
      <trkpt lat="43.86862" lon="6.56983">
        <ele>1067</ele>
        <time>2021-08-13T19:21:00.118Z</time>
      </trkpt>
      <trkpt lat="43.86867" lon="6.56977">
        <ele>1068</ele>
        <time>2021-08-13T19:21:06.052Z</time>
      </trkpt>
      <trkpt lat="43.86897" lon="6.56893">
        <ele>1071</ele>
        <time>2021-08-13T19:21:32.556Z</time>
      </trkpt>
      <trkpt lat="43.869" lon="6.56888">
        <ele>1072</ele>
        <time>2021-08-13T19:21:36.766Z</time>
      </trkpt>
      <trkpt lat="43.86903" lon="6.56887">
        <ele>1073</ele>
        <time>2021-08-13T19:21:39.535Z</time>
      </trkpt>
      <trkpt lat="43.86907" lon="6.56889">
        <ele>1074</ele>
        <time>2021-08-13T19:21:43.352Z</time>
      </trkpt>
      <trkpt lat="43.86908" lon="6.56892">
        <ele>1074</ele>
        <time>2021-08-13T19:21:43.907Z</time>
      </trkpt>
      <trkpt lat="43.86897" lon="6.5695">
        <ele>1075</ele>
        <time>2021-08-13T19:21:56.673Z</time>
      </trkpt>
      <trkpt lat="43.86894" lon="6.56994">
        <ele>1077</ele>
        <time>2021-08-13T19:22:10.822Z</time>
      </trkpt>
      <trkpt lat="43.86892" lon="6.57001">
        <ele>1077</ele>
        <time>2021-08-13T19:22:12.085Z</time>
      </trkpt>
      <trkpt lat="43.86888" lon="6.57007">
        <ele>1077</ele>
        <time>2021-08-13T19:22:13.456Z</time>
      </trkpt>
      <trkpt lat="43.86865" lon="6.57029">
        <ele>1073</ele>
        <time>2021-08-13T19:22:16.304Z</time>
      </trkpt>
      <trkpt lat="43.86856" lon="6.57046">
        <ele>1072</ele>
        <time>2021-08-13T19:22:17.734Z</time>
      </trkpt>
      <trkpt lat="43.86852" lon="6.57067">
        <ele>1073</ele>
        <time>2021-08-13T19:22:24.742Z</time>
      </trkpt>
      <trkpt lat="43.86853" lon="6.57089">
        <ele>1075</ele>
        <time>2021-08-13T19:22:37.598Z</time>
      </trkpt>
      <trkpt lat="43.86894" lon="6.57325">
        <ele>1098</ele>
        <time>2021-08-13T19:25:10.248Z</time>
      </trkpt>
      <trkpt lat="43.86899" lon="6.57349">
        <ele>1100</ele>
        <time>2021-08-13T19:25:22.463Z</time>
      </trkpt>
      <trkpt lat="43.86913" lon="6.5739">
        <ele>1104</ele>
        <time>2021-08-13T19:25:47.751Z</time>
      </trkpt>
      <trkpt lat="43.8692" lon="6.57421">
        <ele>1107</ele>
        <time>2021-08-13T19:26:07.268Z</time>
      </trkpt>
      <trkpt lat="43.8692" lon="6.57429">
        <ele>1108</ele>
        <time>2021-08-13T19:26:12.445Z</time>
      </trkpt>
      <trkpt lat="43.86917" lon="6.57444">
        <ele>1108</ele>
        <time>2021-08-13T19:26:15.056Z</time>
      </trkpt>
      <trkpt lat="43.86899" lon="6.57467">
        <ele>1107</ele>
        <time>2021-08-13T19:26:17.898Z</time>
      </trkpt>
      <trkpt lat="43.86898" lon="6.57476">
        <ele>1108</ele>
        <time>2021-08-13T19:26:23.790Z</time>
      </trkpt>
      <trkpt lat="43.86899" lon="6.5748">
        <ele>1108</ele>
        <time>2021-08-13T19:26:24.501Z</time>
      </trkpt>
      <trkpt lat="43.86902" lon="6.57485">
        <ele>1109</ele>
        <time>2021-08-13T19:26:28.710Z</time>
      </trkpt>
      <trkpt lat="43.86906" lon="6.57486">
        <ele>1110</ele>
        <time>2021-08-13T19:26:32.358Z</time>
      </trkpt>
      <trkpt lat="43.86911" lon="6.57483">
        <ele>1110</ele>
        <time>2021-08-13T19:26:33.626Z</time>
      </trkpt>
      <trkpt lat="43.8694" lon="6.57445">
        <ele>1118</ele>
        <time>2021-08-13T19:27:09.435Z</time>
      </trkpt>
      <trkpt lat="43.86945" lon="6.57422">
        <ele>1119</ele>
        <time>2021-08-13T19:27:16.859Z</time>
      </trkpt>
      <trkpt lat="43.86945" lon="6.57416">
        <ele>1119</ele>
        <time>2021-08-13T19:27:17.866Z</time>
      </trkpt>
      <trkpt lat="43.86941" lon="6.57399">
        <ele>1117</ele>
        <time>2021-08-13T19:27:19.180Z</time>
      </trkpt>
      <trkpt lat="43.86933" lon="6.57373">
        <ele>1114</ele>
        <time>2021-08-13T19:27:21.257Z</time>
      </trkpt>
      <trkpt lat="43.86928" lon="6.57346">
        <ele>1112</ele>
        <time>2021-08-13T19:27:23.306Z</time>
      </trkpt>
      <trkpt lat="43.86923" lon="6.57236">
        <ele>1113</ele>
        <time>2021-08-13T19:27:44.206Z</time>
      </trkpt>
      <trkpt lat="43.86932" lon="6.57204">
        <ele>1116</ele>
        <time>2021-08-13T19:28:03.082Z</time>
      </trkpt>
      <trkpt lat="43.86939" lon="6.57174">
        <ele>1118</ele>
        <time>2021-08-13T19:28:15.397Z</time>
      </trkpt>
      <trkpt lat="43.86945" lon="6.57155">
        <ele>1118</ele>
        <time>2021-08-13T19:28:18.877Z</time>
      </trkpt>
      <trkpt lat="43.86968" lon="6.57106">
        <ele>1120</ele>
        <time>2021-08-13T19:28:35.747Z</time>
      </trkpt>
      <trkpt lat="43.86978" lon="6.57094">
        <ele>1122</ele>
        <time>2021-08-13T19:28:47.616Z</time>
      </trkpt>
      <trkpt lat="43.86984" lon="6.57092">
        <ele>1123</ele>
        <time>2021-08-13T19:28:53.155Z</time>
      </trkpt>
      <trkpt lat="43.8699" lon="6.57094">
        <ele>1126</ele>
        <time>2021-08-13T19:28:58.694Z</time>
      </trkpt>
      <trkpt lat="43.86965" lon="6.57151">
        <ele>1126</ele>
        <time>2021-08-13T19:29:09.887Z</time>
      </trkpt>
      <trkpt lat="43.86957" lon="6.57188">
        <ele>1127</ele>
        <time>2021-08-13T19:29:19.544Z</time>
      </trkpt>
      <trkpt lat="43.86958" lon="6.57288">
        <ele>1131</ele>
        <time>2021-08-13T19:29:49.975Z</time>
      </trkpt>
      <trkpt lat="43.86986" lon="6.57363">
        <ele>1142</ele>
        <time>2021-08-13T19:30:44.630Z</time>
      </trkpt>
      <trkpt lat="43.87001" lon="6.57391">
        <ele>1148</ele>
        <time>2021-08-13T19:31:07.203Z</time>
      </trkpt>
      <trkpt lat="43.87007" lon="6.57419">
        <ele>1150</ele>
        <time>2021-08-13T19:31:19.352Z</time>
      </trkpt>
      <trkpt lat="43.87016" lon="6.57487">
        <ele>1150</ele>
        <time>2021-08-13T19:31:30.951Z</time>
      </trkpt>
      <trkpt lat="43.87024" lon="6.57505">
        <ele>1153</ele>
        <time>2021-08-13T19:31:44.635Z</time>
      </trkpt>
      <trkpt lat="43.87034" lon="6.57518">
        <ele>1158</ele>
        <time>2021-08-13T19:31:56.937Z</time>
      </trkpt>
      <trkpt lat="43.87049" lon="6.57565">
        <ele>1163</ele>
        <time>2021-08-13T19:32:30.197Z</time>
      </trkpt>
      <trkpt lat="43.87044" lon="6.57622">
        <ele>1161</ele>
        <time>2021-08-13T19:32:34.687Z</time>
      </trkpt>
      <trkpt lat="43.87032" lon="6.57657">
        <ele>1158</ele>
        <time>2021-08-13T19:32:37.535Z</time>
      </trkpt>
      <trkpt lat="43.87035" lon="6.57715">
        <ele>1162</ele>
        <time>2021-08-13T19:33:01.820Z</time>
      </trkpt>
      <trkpt lat="43.87012" lon="6.57787">
        <ele>1166</ele>
        <time>2021-08-13T19:33:28.498Z</time>
      </trkpt>
      <trkpt lat="43.86963" lon="6.57858">
        <ele>1165</ele>
        <time>2021-08-13T19:33:39.496Z</time>
      </trkpt>
      <trkpt lat="43.8696" lon="6.57869">
        <ele>1165</ele>
        <time>2021-08-13T19:33:41.469Z</time>
      </trkpt>
      <trkpt lat="43.86952" lon="6.57967">
        <ele>1170</ele>
        <time>2021-08-13T19:34:14.845Z</time>
      </trkpt>
      <trkpt lat="43.86954" lon="6.57968">
        <ele>1171</ele>
        <time>2021-08-13T19:34:16.753Z</time>
      </trkpt>
      <trkpt lat="43.86956" lon="6.57981">
        <ele>1171</ele>
        <time>2021-08-13T19:34:18.983Z</time>
      </trkpt>
      <trkpt lat="43.86947" lon="6.58037">
        <ele>1172</ele>
        <time>2021-08-13T19:34:31.347Z</time>
      </trkpt>
      <trkpt lat="43.86954" lon="6.58051">
        <ele>1174</ele>
        <time>2021-08-13T19:34:42.372Z</time>
      </trkpt>
      <trkpt lat="43.8696" lon="6.58066">
        <ele>1177</ele>
        <time>2021-08-13T19:34:53.473Z</time>
      </trkpt>
      <trkpt lat="43.8696" lon="6.58075">
        <ele>1177</ele>
        <time>2021-08-13T19:34:54.983Z</time>
      </trkpt>
      <trkpt lat="43.8694" lon="6.58116">
        <ele>1176</ele>
        <time>2021-08-13T19:34:59.696Z</time>
      </trkpt>
      <trkpt lat="43.86932" lon="6.58121">
        <ele>1174</ele>
        <time>2021-08-13T19:35:00.590Z</time>
      </trkpt>
      <trkpt lat="43.8693" lon="6.5813">
        <ele>1175</ele>
        <time>2021-08-13T19:35:06.685Z</time>
      </trkpt>
      <trkpt lat="43.86915" lon="6.58152">
        <ele>1174</ele>
        <time>2021-08-13T19:35:09.106Z</time>
      </trkpt>
      <trkpt lat="43.86879" lon="6.58191">
        <ele>1172</ele>
        <time>2021-08-13T19:35:14.267Z</time>
      </trkpt>
      <trkpt lat="43.86861" lon="6.58232">
        <ele>1174</ele>
        <time>2021-08-13T19:35:29.107Z</time>
      </trkpt>
      <trkpt lat="43.86855" lon="6.58252">
        <ele>1176</ele>
        <time>2021-08-13T19:35:42.115Z</time>
      </trkpt>
      <trkpt lat="43.86852" lon="6.58271">
        <ele>1176</ele>
        <time>2021-08-13T19:35:45.378Z</time>
      </trkpt>
      <trkpt lat="43.86854" lon="6.58317">
        <ele>1179</ele>
        <time>2021-08-13T19:36:03.748Z</time>
      </trkpt>
      <trkpt lat="43.86875" lon="6.58454">
        <ele>1190</ele>
        <time>2021-08-13T19:37:10.685Z</time>
      </trkpt>
      <trkpt lat="43.8689" lon="6.58608">
        <ele>1197</ele>
        <time>2021-08-13T19:38:00.333Z</time>
      </trkpt>
      <trkpt lat="43.86895" lon="6.58617">
        <ele>1199</ele>
        <time>2021-08-13T19:38:07.685Z</time>
      </trkpt>
      <trkpt lat="43.86915" lon="6.58638">
        <ele>1204</ele>
        <time>2021-08-13T19:38:30.201Z</time>
      </trkpt>
      <trkpt lat="43.86917" lon="6.58651">
        <ele>1204</ele>
        <time>2021-08-13T19:38:32.431Z</time>
      </trkpt>
      <trkpt lat="43.86908" lon="6.587">
        <ele>1205</ele>
        <time>2021-08-13T19:38:43.761Z</time>
      </trkpt>
      <trkpt lat="43.8688" lon="6.5877">
        <ele>1206</ele>
        <time>2021-08-13T19:38:59.726Z</time>
      </trkpt>
      <trkpt lat="43.86856" lon="6.58796">
        <ele>1204</ele>
        <time>2021-08-13T19:39:02.591Z</time>
      </trkpt>
      <trkpt lat="43.86845" lon="6.58819">
        <ele>1205</ele>
        <time>2021-08-13T19:39:10.701Z</time>
      </trkpt>
      <trkpt lat="43.8684" lon="6.58841">
        <ele>1206</ele>
        <time>2021-08-13T19:39:17.950Z</time>
      </trkpt>
      <trkpt lat="43.86845" lon="6.58913">
        <ele>1214</ele>
        <time>2021-08-13T19:40:04.758Z</time>
      </trkpt>
      <trkpt lat="43.86815" lon="6.5909">
        <ele>1220</ele>
        <time>2021-08-13T19:40:56.660Z</time>
      </trkpt>
      <trkpt lat="43.86816" lon="6.59138">
        <ele>1220</ele>
        <time>2021-08-13T19:41:04.717Z</time>
      </trkpt>
      <trkpt lat="43.86821" lon="6.59184">
        <ele>1221</ele>
        <time>2021-08-13T19:41:15.454Z</time>
      </trkpt>
      <trkpt lat="43.86869" lon="6.59236">
        <ele>1231</ele>
        <time>2021-08-13T19:42:10.123Z</time>
      </trkpt>
      <trkpt lat="43.86875" lon="6.5925">
        <ele>1232</ele>
        <time>2021-08-13T19:42:16.331Z</time>
      </trkpt>
      <trkpt lat="43.86876" lon="6.59263">
        <ele>1233</ele>
        <time>2021-08-13T19:42:22.395Z</time>
      </trkpt>
      <trkpt lat="43.86842" lon="6.59322">
        <ele>1232</ele>
        <time>2021-08-13T19:42:30.417Z</time>
      </trkpt>
      <trkpt lat="43.86819" lon="6.59399">
        <ele>1234</ele>
        <time>2021-08-13T19:42:50.534Z</time>
      </trkpt>
      <trkpt lat="43.86818" lon="6.59427">
        <ele>1236</ele>
        <time>2021-08-13T19:43:02.642Z</time>
      </trkpt>
      <trkpt lat="43.86876" lon="6.59584">
        <ele>1246</ele>
        <time>2021-08-13T19:44:06.342Z</time>
      </trkpt>
      <trkpt lat="43.86874" lon="6.59604">
        <ele>1247</ele>
        <time>2021-08-13T19:44:13.093Z</time>
      </trkpt>
      <trkpt lat="43.8686" lon="6.5962">
        <ele>1245</ele>
        <time>2021-08-13T19:44:14.942Z</time>
      </trkpt>
      <trkpt lat="43.86849" lon="6.5964">
        <ele>1245</ele>
        <time>2021-08-13T19:44:19.162Z</time>
      </trkpt>
      <trkpt lat="43.86841" lon="6.59702">
        <ele>1248</ele>
        <time>2021-08-13T19:44:39.813Z</time>
      </trkpt>
      <trkpt lat="43.86831" lon="6.59749">
        <ele>1251</ele>
        <time>2021-08-13T19:44:58.454Z</time>
      </trkpt>
      <trkpt lat="43.86804" lon="6.59847">
        <ele>1254</ele>
        <time>2021-08-13T19:45:26.099Z</time>
      </trkpt>
      <trkpt lat="43.86793" lon="6.59901">
        <ele>1256</ele>
        <time>2021-08-13T19:45:42.500Z</time>
      </trkpt>
      <trkpt lat="43.86788" lon="6.59931">
        <ele>1256</ele>
        <time>2021-08-13T19:45:47.666Z</time>
      </trkpt>
      <trkpt lat="43.86786" lon="6.59961">
        <ele>1256</ele>
        <time>2021-08-13T19:45:52.721Z</time>
      </trkpt>
      <trkpt lat="43.86792" lon="6.59978">
        <ele>1256</ele>
        <time>2021-08-13T19:45:55.896Z</time>
      </trkpt>
      <trkpt lat="43.86829" lon="6.60024">
        <ele>1261</ele>
        <time>2021-08-13T19:46:26.151Z</time>
      </trkpt>
      <trkpt lat="43.86834" lon="6.60043">
        <ele>1262</ele>
        <time>2021-08-13T19:46:32.907Z</time>
      </trkpt>
      <trkpt lat="43.86826" lon="6.60068">
        <ele>1260</ele>
        <time>2021-08-13T19:46:34.917Z</time>
      </trkpt>
      <trkpt lat="43.86814" lon="6.60088">
        <ele>1259</ele>
        <time>2021-08-13T19:46:36.866Z</time>
      </trkpt>
      <trkpt lat="43.86814" lon="6.60104">
        <ele>1259</ele>
        <time>2021-08-13T19:46:39.551Z</time>
      </trkpt>
      <trkpt lat="43.86821" lon="6.60121">
        <ele>1260</ele>
        <time>2021-08-13T19:46:46.203Z</time>
      </trkpt>
      <trkpt lat="43.86847" lon="6.60162">
        <ele>1265</ele>
        <time>2021-08-13T19:47:18.538Z</time>
      </trkpt>
      <trkpt lat="43.86851" lon="6.60178">
        <ele>1266</ele>
        <time>2021-08-13T19:47:24.819Z</time>
      </trkpt>
      <trkpt lat="43.86859" lon="6.60246">
        <ele>1269</ele>
        <time>2021-08-13T19:47:46.508Z</time>
      </trkpt>
      <trkpt lat="43.86877" lon="6.60336">
        <ele>1276</ele>
        <time>2021-08-13T19:48:28.892Z</time>
      </trkpt>
      <trkpt lat="43.86876" lon="6.60363">
        <ele>1277</ele>
        <time>2021-08-13T19:48:36.892Z</time>
      </trkpt>
      <trkpt lat="43.86872" lon="6.60386">
        <ele>1277</ele>
        <time>2021-08-13T19:48:40.861Z</time>
      </trkpt>
      <trkpt lat="43.86801" lon="6.60595">
        <ele>1282</ele>
        <time>2021-08-13T19:49:34.323Z</time>
      </trkpt>
      <trkpt lat="43.86798" lon="6.60609">
        <ele>1282</ele>
        <time>2021-08-13T19:49:36.774Z</time>
      </trkpt>
      <trkpt lat="43.86796" lon="6.60633">
        <ele>1284</ele>
        <time>2021-08-13T19:49:49.094Z</time>
      </trkpt>
      <trkpt lat="43.86791" lon="6.60807">
        <ele>1293</ele>
        <time>2021-08-13T19:50:48.642Z</time>
      </trkpt>
      <trkpt lat="43.86785" lon="6.60936">
        <ele>1298</ele>
        <time>2021-08-13T19:51:27.493Z</time>
      </trkpt>
      <trkpt lat="43.86783" lon="6.60958">
        <ele>1299</ele>
        <time>2021-08-13T19:51:34.581Z</time>
      </trkpt>
      <trkpt lat="43.86763" lon="6.61057">
        <ele>1300</ele>
        <time>2021-08-13T19:51:54.263Z</time>
      </trkpt>
      <trkpt lat="43.8676" lon="6.6108">
        <ele>1300</ele>
        <time>2021-08-13T19:51:58.184Z</time>
      </trkpt>
      <trkpt lat="43.86759" lon="6.61145">
        <ele>1304</ele>
        <time>2021-08-13T19:52:23.004Z</time>
      </trkpt>
      <trkpt lat="43.86758" lon="6.61175">
        <ele>1306</ele>
        <time>2021-08-13T19:52:35.201Z</time>
      </trkpt>
      <trkpt lat="43.8674" lon="6.61308">
        <ele>1312</ele>
        <time>2021-08-13T19:53:18.135Z</time>
      </trkpt>
      <trkpt lat="43.8674" lon="6.61341">
        <ele>1314</ele>
        <time>2021-08-13T19:53:30.597Z</time>
      </trkpt>
      <trkpt lat="43.86742" lon="6.61427">
        <ele>1318</ele>
        <time>2021-08-13T19:53:58.486Z</time>
      </trkpt>
      <trkpt lat="43.86736" lon="6.61481">
        <ele>1320</ele>
        <time>2021-08-13T19:54:14.596Z</time>
      </trkpt>
      <trkpt lat="43.86733" lon="6.61552">
        <ele>1322</ele>
        <time>2021-08-13T19:54:33.161Z</time>
      </trkpt>
      <trkpt lat="43.86734" lon="6.61603">
        <ele>1323</ele>
        <time>2021-08-13T19:54:44.560Z</time>
      </trkpt>
      <trkpt lat="43.86745" lon="6.61704">
        <ele>1325</ele>
        <time>2021-08-13T19:55:07.372Z</time>
      </trkpt>
      <trkpt lat="43.86753" lon="6.61745">
        <ele>1326</ele>
        <time>2021-08-13T19:55:17.540Z</time>
      </trkpt>
      <trkpt lat="43.86773" lon="6.61799">
        <ele>1331</ele>
        <time>2021-08-13T19:55:48.294Z</time>
      </trkpt>
      <trkpt lat="43.86787" lon="6.61887">
        <ele>1332</ele>
        <time>2021-08-13T19:56:05.895Z</time>
      </trkpt>
      <trkpt lat="43.86791" lon="6.61944">
        <ele>1332</ele>
        <time>2021-08-13T19:56:15.503Z</time>
      </trkpt>
      <trkpt lat="43.86789" lon="6.61958">
        <ele>1331</ele>
        <time>2021-08-13T19:56:16.552Z</time>
      </trkpt>
      <trkpt lat="43.86787" lon="6.61969">
        <ele>1331</ele>
        <time>2021-08-13T19:56:18.455Z</time>
      </trkpt>
      <trkpt lat="43.86744" lon="6.62091">
        <ele>1331</ele>
        <time>2021-08-13T19:56:41.239Z</time>
      </trkpt>
      <trkpt lat="43.8669" lon="6.62296">
        <ele>1342</ele>
        <time>2021-08-13T19:57:54.871Z</time>
      </trkpt>
      <trkpt lat="43.86686" lon="6.62293">
        <ele>1342</ele>
        <time>2021-08-13T19:57:55.930Z</time>
      </trkpt>
      <trkpt lat="43.86682" lon="6.62287">
        <ele>1342</ele>
        <time>2021-08-13T19:57:57.301Z</time>
      </trkpt>
      <trkpt lat="43.86681" lon="6.62278">
        <ele>1342</ele>
        <time>2021-08-13T19:57:58.829Z</time>
      </trkpt>
      <trkpt lat="43.86685" lon="6.62194">
        <ele>1340</ele>
        <time>2021-08-13T19:58:06.441Z</time>
      </trkpt>
      <trkpt lat="43.86661" lon="6.6208">
        <ele>1339</ele>
        <time>2021-08-13T19:58:20.151Z</time>
      </trkpt>
      <trkpt lat="43.86629" lon="6.61795">
        <ele>1324</ele>
        <time>2021-08-13T19:58:41.348Z</time>
      </trkpt>
      <trkpt lat="43.86613" lon="6.61721">
        <ele>1321</ele>
        <time>2021-08-13T19:58:47.108Z</time>
      </trkpt>
      <trkpt lat="43.86587" lon="6.6161">
        <ele>1315</ele>
        <time>2021-08-13T19:58:55.685Z</time>
      </trkpt>
      <trkpt lat="43.86557" lon="6.61408">
        <ele>1307</ele>
        <time>2021-08-13T19:59:11.071Z</time>
      </trkpt>
      <trkpt lat="43.86545" lon="6.61346">
        <ele>1306</ele>
        <time>2021-08-13T19:59:17.635Z</time>
      </trkpt>
      <trkpt lat="43.86532" lon="6.61149">
        <ele>1304</ele>
        <time>2021-08-13T19:59:39.796Z</time>
      </trkpt>
      <trkpt lat="43.86524" lon="6.60851">
        <ele>1303</ele>
        <time>2021-08-13T20:00:26.501Z</time>
      </trkpt>
      <trkpt lat="43.86507" lon="6.60622">
        <ele>1298</ele>
        <time>2021-08-13T20:00:47.937Z</time>
      </trkpt>
      <trkpt lat="43.86487" lon="6.60377">
        <ele>1295</ele>
        <time>2021-08-13T20:01:14.600Z</time>
      </trkpt>
      <trkpt lat="43.86472" lon="6.60166">
        <ele>1296</ele>
        <time>2021-08-13T20:01:52.441Z</time>
      </trkpt>
      <trkpt lat="43.86463" lon="6.60052">
        <ele>1295</ele>
        <time>2021-08-13T20:02:05.609Z</time>
      </trkpt>
      <trkpt lat="43.8645" lon="6.59962">
        <ele>1296</ele>
        <time>2021-08-13T20:02:23.483Z</time>
      </trkpt>
      <trkpt lat="43.86445" lon="6.59803">
        <ele>1296</ele>
        <time>2021-08-13T20:02:50.186Z</time>
      </trkpt>
      <trkpt lat="43.86438" lon="6.59739">
        <ele>1297</ele>
        <time>2021-08-13T20:03:03.699Z</time>
      </trkpt>
      <trkpt lat="43.86421" lon="6.59627">
        <ele>1298</ele>
        <time>2021-08-13T20:03:25.301Z</time>
      </trkpt>
      <trkpt lat="43.86397" lon="6.59544">
        <ele>1299</ele>
        <time>2021-08-13T20:03:42.790Z</time>
      </trkpt>
      <trkpt lat="43.8636" lon="6.59473">
        <ele>1301</ele>
        <time>2021-08-13T20:04:03.493Z</time>
      </trkpt>
      <trkpt lat="43.86348" lon="6.59459">
        <ele>1303</ele>
        <time>2021-08-13T20:04:16.464Z</time>
      </trkpt>
      <trkpt lat="43.86333" lon="6.59397">
        <ele>1300</ele>
        <time>2021-08-13T20:04:20.971Z</time>
      </trkpt>
      <trkpt lat="43.86334" lon="6.59373">
        <ele>1297</ele>
        <time>2021-08-13T20:04:22.738Z</time>
      </trkpt>
      <trkpt lat="43.86331" lon="6.59357">
        <ele>1295</ele>
        <time>2021-08-13T20:04:23.953Z</time>
      </trkpt>
      <trkpt lat="43.86295" lon="6.59331">
        <ele>1293</ele>
        <time>2021-08-13T20:04:28.319Z</time>
      </trkpt>
      <trkpt lat="43.86266" lon="6.5933">
        <ele>1295</ele>
        <time>2021-08-13T20:04:41.796Z</time>
      </trkpt>
      <trkpt lat="43.86237" lon="6.5937">
        <ele>1308</ele>
        <time>2021-08-13T20:05:18.508Z</time>
      </trkpt>
      <trkpt lat="43.8623" lon="6.59371">
        <ele>1310</ele>
        <time>2021-08-13T20:05:24.824Z</time>
      </trkpt>
      <trkpt lat="43.86218" lon="6.5936">
        <ele>1310</ele>
        <time>2021-08-13T20:05:28.172Z</time>
      </trkpt>
      <trkpt lat="43.86206" lon="6.59316">
        <ele>1302</ele>
        <time>2021-08-13T20:05:31.629Z</time>
      </trkpt>
      <trkpt lat="43.86169" lon="6.59261">
        <ele>1300</ele>
        <time>2021-08-13T20:05:38.171Z</time>
      </trkpt>
      <trkpt lat="43.86152" lon="6.59248">
        <ele>1302</ele>
        <time>2021-08-13T20:05:50.276Z</time>
      </trkpt>
      <trkpt lat="43.86085" lon="6.59165">
        <ele>1299</ele>
        <time>2021-08-13T20:06:01.494Z</time>
      </trkpt>
      <trkpt lat="43.86073" lon="6.59137">
        <ele>1298</ele>
        <time>2021-08-13T20:06:04.177Z</time>
      </trkpt>
      <trkpt lat="43.86067" lon="6.59134">
        <ele>1298</ele>
        <time>2021-08-13T20:06:05.661Z</time>
      </trkpt>
      <trkpt lat="43.86052" lon="6.59133">
        <ele>1300</ele>
        <time>2021-08-13T20:06:19.092Z</time>
      </trkpt>
      <trkpt lat="43.86025" lon="6.59113">
        <ele>1299</ele>
        <time>2021-08-13T20:06:22.942Z</time>
      </trkpt>
      <trkpt lat="43.85986" lon="6.59094">
        <ele>1300</ele>
        <time>2021-08-13T20:06:35.300Z</time>
      </trkpt>
      <trkpt lat="43.85954" lon="6.5905">
        <ele>1293</ele>
        <time>2021-08-13T20:06:39.894Z</time>
      </trkpt>
      <trkpt lat="43.85822" lon="6.59002">
        <ele>1282</ele>
        <time>2021-08-13T20:06:53.804Z</time>
      </trkpt>
      <trkpt lat="43.85766" lon="6.58982">
        <ele>1275</ele>
        <time>2021-08-13T20:06:59.698Z</time>
      </trkpt>
      <trkpt lat="43.85696" lon="6.59005">
        <ele>1275</ele>
        <time>2021-08-13T20:07:16.439Z</time>
      </trkpt>
      <trkpt lat="43.85689" lon="6.59019">
        <ele>1279</ele>
        <time>2021-08-13T20:07:27.466Z</time>
      </trkpt>
      <trkpt lat="43.85667" lon="6.59019">
        <ele>1276</ele>
        <time>2021-08-13T20:07:29.709Z</time>
      </trkpt>
      <trkpt lat="43.85656" lon="6.59029">
        <ele>1277</ele>
        <time>2021-08-13T20:07:36.161Z</time>
      </trkpt>
      <trkpt lat="43.85609" lon="6.59028">
        <ele>1266</ele>
        <time>2021-08-13T20:07:40.953Z</time>
      </trkpt>
      <trkpt lat="43.85595" lon="6.59043">
        <ele>1267</ele>
        <time>2021-08-13T20:07:48.473Z</time>
      </trkpt>
      <trkpt lat="43.85575" lon="6.59042">
        <ele>1263</ele>
        <time>2021-08-13T20:07:50.513Z</time>
      </trkpt>
      <trkpt lat="43.85558" lon="6.59062">
        <ele>1266</ele>
        <time>2021-08-13T20:08:10.524Z</time>
      </trkpt>
      <trkpt lat="43.85534" lon="6.59075">
        <ele>1264</ele>
        <time>2021-08-13T20:08:13.150Z</time>
      </trkpt>
      <trkpt lat="43.85509" lon="6.5907">
        <ele>1258</ele>
        <time>2021-08-13T20:08:15.725Z</time>
      </trkpt>
      <trkpt lat="43.85476" lon="6.59071">
        <ele>1259</ele>
        <time>2021-08-13T20:08:26.357Z</time>
      </trkpt>
      <trkpt lat="43.85462" lon="6.5907">
        <ele>1260</ele>
        <time>2021-08-13T20:08:32.988Z</time>
      </trkpt>
      <trkpt lat="43.85441" lon="6.59059">
        <ele>1261</ele>
        <time>2021-08-13T20:08:41.807Z</time>
      </trkpt>
      <trkpt lat="43.85432" lon="6.59046">
        <ele>1261</ele>
        <time>2021-08-13T20:08:44.832Z</time>
      </trkpt>
      <trkpt lat="43.85431" lon="6.59017">
        <ele>1258</ele>
        <time>2021-08-13T20:08:46.966Z</time>
      </trkpt>
      <trkpt lat="43.85423" lon="6.58992">
        <ele>1258</ele>
        <time>2021-08-13T20:08:51.555Z</time>
      </trkpt>
      <trkpt lat="43.85387" lon="6.58952">
        <ele>1264</ele>
        <time>2021-08-13T20:09:31.041Z</time>
      </trkpt>
      <trkpt lat="43.8538" lon="6.58907">
        <ele>1262</ele>
        <time>2021-08-13T20:09:34.299Z</time>
      </trkpt>
      <trkpt lat="43.85374" lon="6.58883">
        <ele>1261</ele>
        <time>2021-08-13T20:09:36.182Z</time>
      </trkpt>
      <trkpt lat="43.85339" lon="6.58844">
        <ele>1263</ele>
        <time>2021-08-13T20:09:53.822Z</time>
      </trkpt>
      <trkpt lat="43.85296" lon="6.58792">
        <ele>1266</ele>
        <time>2021-08-13T20:10:17.437Z</time>
      </trkpt>
      <trkpt lat="43.85284" lon="6.58772">
        <ele>1266</ele>
        <time>2021-08-13T20:10:21.803Z</time>
      </trkpt>
      <trkpt lat="43.85282" lon="6.58746">
        <ele>1264</ele>
        <time>2021-08-13T20:10:23.725Z</time>
      </trkpt>
      <trkpt lat="43.85266" lon="6.58734">
        <ele>1267</ele>
        <time>2021-08-13T20:10:40.053Z</time>
      </trkpt>
      <trkpt lat="43.85222" lon="6.58651">
        <ele>1269</ele>
        <time>2021-08-13T20:11:02.999Z</time>
      </trkpt>
      <trkpt lat="43.85189" lon="6.58578">
        <ele>1272</ele>
        <time>2021-08-13T20:11:28.000Z</time>
      </trkpt>
      <trkpt lat="43.85176" lon="6.58521">
        <ele>1272</ele>
        <time>2021-08-13T20:11:38.033Z</time>
      </trkpt>
      <trkpt lat="43.85138" lon="6.58393">
        <ele>1280</ele>
        <time>2021-08-13T20:12:28.648Z</time>
      </trkpt>
      <trkpt lat="43.85041" lon="6.58187">
        <ele>1282</ele>
        <time>2021-08-13T20:13:14.691Z</time>
      </trkpt>
      <trkpt lat="43.84966" lon="6.58043">
        <ele>1288</ele>
        <time>2021-08-13T20:14:05.758Z</time>
      </trkpt>
      <trkpt lat="43.84957" lon="6.58011">
        <ele>1287</ele>
        <time>2021-08-13T20:14:08.647Z</time>
      </trkpt>
      <trkpt lat="43.84949" lon="6.57998">
        <ele>1286</ele>
        <time>2021-08-13T20:14:09.903Z</time>
      </trkpt>
      <trkpt lat="43.84938" lon="6.57993">
        <ele>1286</ele>
        <time>2021-08-13T20:14:12.597Z</time>
      </trkpt>
      <trkpt lat="43.84931" lon="6.5798">
        <ele>1285</ele>
        <time>2021-08-13T20:14:13.790Z</time>
      </trkpt>
      <trkpt lat="43.84904" lon="6.57946">
        <ele>1282</ele>
        <time>2021-08-13T20:14:17.507Z</time>
      </trkpt>
      <trkpt lat="43.84883" lon="6.57917">
        <ele>1279</ele>
        <time>2021-08-13T20:14:20.528Z</time>
      </trkpt>
      <trkpt lat="43.84858" lon="6.57891">
        <ele>1278</ele>
        <time>2021-08-13T20:14:24.487Z</time>
      </trkpt>
      <trkpt lat="43.84811" lon="6.57812">
        <ele>1269</ele>
        <time>2021-08-13T20:14:32.015Z</time>
      </trkpt>
      <trkpt lat="43.84782" lon="6.57746">
        <ele>1261</ele>
        <time>2021-08-13T20:14:37.697Z</time>
      </trkpt>
      <trkpt lat="43.84744" lon="6.57684">
        <ele>1252</ele>
        <time>2021-08-13T20:14:43.678Z</time>
      </trkpt>
      <trkpt lat="43.84731" lon="6.577">
        <ele>1256</ele>
        <time>2021-08-13T20:14:59.281Z</time>
      </trkpt>
      <trkpt lat="43.84677" lon="6.57601">
        <ele>1247</ele>
        <time>2021-08-13T20:15:08.406Z</time>
      </trkpt>
      <trkpt lat="43.84641" lon="6.57493">
        <ele>1234</ele>
        <time>2021-08-13T20:15:17.153Z</time>
      </trkpt>
      <trkpt lat="43.84606" lon="6.57364">
        <ele>1221</ele>
        <time>2021-08-13T20:15:27.285Z</time>
      </trkpt>
      <trkpt lat="43.84554" lon="6.57259">
        <ele>1214</ele>
        <time>2021-08-13T20:15:36.649Z</time>
      </trkpt>
      <trkpt lat="43.84527" lon="6.57194">
        <ele>1209</ele>
        <time>2021-08-13T20:15:42.163Z</time>
      </trkpt>
      <trkpt lat="43.84493" lon="6.57098">
        <ele>1202</ele>
        <time>2021-08-13T20:15:50.026Z</time>
      </trkpt>
      <trkpt lat="43.84467" lon="6.57012">
        <ele>1194</ele>
        <time>2021-08-13T20:15:56.882Z</time>
      </trkpt>
      <trkpt lat="43.84425" lon="6.56903">
        <ele>1188</ele>
        <time>2021-08-13T20:16:05.967Z</time>
      </trkpt>
      <trkpt lat="43.84376" lon="6.56803">
        <ele>1184</ele>
        <time>2021-08-13T20:16:15.632Z</time>
      </trkpt>
      <trkpt lat="43.84353" lon="6.56746">
        <ele>1181</ele>
        <time>2021-08-13T20:16:20.133Z</time>
      </trkpt>
      <trkpt lat="43.84312" lon="6.56667">
        <ele>1181</ele>
        <time>2021-08-13T20:16:36.469Z</time>
      </trkpt>
      <trkpt lat="43.84297" lon="6.56638">
        <ele>1181</ele>
        <time>2021-08-13T20:16:42.458Z</time>
      </trkpt>
      <trkpt lat="43.8427" lon="6.56594">
        <ele>1181</ele>
        <time>2021-08-13T20:16:52.155Z</time>
      </trkpt>
      <trkpt lat="43.84209" lon="6.56461">
        <ele>1162</ele>
        <time>2021-08-13T20:17:03.743Z</time>
      </trkpt>
      <trkpt lat="43.84177" lon="6.5644">
        <ele>1163</ele>
        <time>2021-08-13T20:17:14.857Z</time>
      </trkpt>
      <trkpt lat="43.84152" lon="6.56416">
        <ele>1158</ele>
        <time>2021-08-13T20:17:17.957Z</time>
      </trkpt>
      <trkpt lat="43.84096" lon="6.56387">
        <ele>1152</ele>
        <time>2021-08-13T20:17:24.050Z</time>
      </trkpt>
      <trkpt lat="43.84068" lon="6.56387">
        <ele>1149</ele>
        <time>2021-08-13T20:17:26.904Z</time>
      </trkpt>
      <trkpt lat="43.84041" lon="6.56418">
        <ele>1147</ele>
        <time>2021-08-13T20:17:30.435Z</time>
      </trkpt>
      <trkpt lat="43.8401" lon="6.56437">
        <ele>1144</ele>
        <time>2021-08-13T20:17:33.890Z</time>
      </trkpt>
      <trkpt lat="43.83997" lon="6.56454">
        <ele>1146</ele>
        <time>2021-08-13T20:17:46.126Z</time>
      </trkpt>
      <trkpt lat="43.83986" lon="6.56457">
        <ele>1147</ele>
        <time>2021-08-13T20:17:52.264Z</time>
      </trkpt>
      <trkpt lat="43.83961" lon="6.56447">
        <ele>1146</ele>
        <time>2021-08-13T20:17:55.356Z</time>
      </trkpt>
      <trkpt lat="43.83941" lon="6.56426">
        <ele>1142</ele>
        <time>2021-08-13T20:17:57.913Z</time>
      </trkpt>
      <trkpt lat="43.83933" lon="6.56411">
        <ele>1139</ele>
        <time>2021-08-13T20:17:59.285Z</time>
      </trkpt>
      <trkpt lat="43.83927" lon="6.5641">
        <ele>1140</ele>
        <time>2021-08-13T20:18:04.709Z</time>
      </trkpt>
      <trkpt lat="43.83923" lon="6.56426">
        <ele>1143</ele>
        <time>2021-08-13T20:18:15.673Z</time>
      </trkpt>
      <trkpt lat="43.83918" lon="6.56429">
        <ele>1144</ele>
        <time>2021-08-13T20:18:20.563Z</time>
      </trkpt>
      <trkpt lat="43.83893" lon="6.56416">
        <ele>1146</ele>
        <time>2021-08-13T20:18:33.547Z</time>
      </trkpt>
      <trkpt lat="43.83873" lon="6.5643">
        <ele>1153</ele>
        <time>2021-08-13T20:18:53.657Z</time>
      </trkpt>
      <trkpt lat="43.83849" lon="6.5642">
        <ele>1156</ele>
        <time>2021-08-13T20:19:12.429Z</time>
      </trkpt>
      <trkpt lat="43.83844" lon="6.56394">
        <ele>1151</ele>
        <time>2021-08-13T20:19:14.407Z</time>
      </trkpt>
      <trkpt lat="43.83776" lon="6.56287">
        <ele>1134</ele>
        <time>2021-08-13T20:19:24.892Z</time>
      </trkpt>
      <trkpt lat="43.83742" lon="6.56253">
        <ele>1130</ele>
        <time>2021-08-13T20:19:29.166Z</time>
      </trkpt>
      <trkpt lat="43.83706" lon="6.56247">
        <ele>1124</ele>
        <time>2021-08-13T20:19:32.862Z</time>
      </trkpt>
      <trkpt lat="43.83684" lon="6.56236">
        <ele>1121</ele>
        <time>2021-08-13T20:19:35.246Z</time>
      </trkpt>
      <trkpt lat="43.83659" lon="6.56186">
        <ele>1116</ele>
        <time>2021-08-13T20:19:39.719Z</time>
      </trkpt>
      <trkpt lat="43.8365" lon="6.56132">
        <ele>1116</ele>
        <time>2021-08-13T20:19:49.022Z</time>
      </trkpt>
      <trkpt lat="43.83631" lon="6.56109">
        <ele>1112</ele>
        <time>2021-08-13T20:19:51.593Z</time>
      </trkpt>
      <trkpt lat="43.83617" lon="6.56086">
        <ele>1110</ele>
        <time>2021-08-13T20:19:53.806Z</time>
      </trkpt>
      <trkpt lat="43.83608" lon="6.56087">
        <ele>1107</ele>
        <time>2021-08-13T20:19:54.726Z</time>
      </trkpt>
      <trkpt lat="43.83583" lon="6.56039">
        <ele>1105</ele>
        <time>2021-08-13T20:19:59.420Z</time>
      </trkpt>
      <trkpt lat="43.83575" lon="6.56035">
        <ele>1102</ele>
        <time>2021-08-13T20:20:00.287Z</time>
      </trkpt>
      <trkpt lat="43.83563" lon="6.55991">
        <ele>1102</ele>
        <time>2021-08-13T20:20:08.183Z</time>
      </trkpt>
      <trkpt lat="43.83504" lon="6.55892">
        <ele>1081</ele>
        <time>2021-08-13T20:20:17.626Z</time>
      </trkpt>
      <trkpt lat="43.83493" lon="6.55919">
        <ele>1074</ele>
        <time>2021-08-13T20:20:19.906Z</time>
      </trkpt>
      <trkpt lat="43.83476" lon="6.55867">
        <ele>1062</ele>
        <time>2021-08-13T20:20:24.104Z</time>
      </trkpt>
      <trkpt lat="43.83467" lon="6.55812">
        <ele>1055</ele>
        <time>2021-08-13T20:20:28.250Z</time>
      </trkpt>
      <trkpt lat="43.83453" lon="6.55696">
        <ele>1047</ele>
        <time>2021-08-13T20:20:36.898Z</time>
      </trkpt>
      <trkpt lat="43.83441" lon="6.5565">
        <ele>1042</ele>
        <time>2021-08-13T20:20:40.495Z</time>
      </trkpt>
      <trkpt lat="43.83432" lon="6.55636">
        <ele>1039</ele>
        <time>2021-08-13T20:20:41.874Z</time>
      </trkpt>
      <trkpt lat="43.83419" lon="6.55626">
        <ele>1033</ele>
        <time>2021-08-13T20:20:43.390Z</time>
      </trkpt>
      <trkpt lat="43.83369" lon="6.55621">
        <ele>1018</ele>
        <time>2021-08-13T20:20:48.500Z</time>
      </trkpt>
      <trkpt lat="43.83348" lon="6.55676">
        <ele>1009</ele>
        <time>2021-08-13T20:20:53.075Z</time>
      </trkpt>
      <trkpt lat="43.83328" lon="6.55722">
        <ele>999</ele>
        <time>2021-08-13T20:20:57.025Z</time>
      </trkpt>
      <trkpt lat="43.83314" lon="6.55735">
        <ele>995</ele>
        <time>2021-08-13T20:20:58.742Z</time>
      </trkpt>
      <trkpt lat="43.83293" lon="6.55745">
        <ele>990</ele>
        <time>2021-08-13T20:21:01.006Z</time>
      </trkpt>
      <trkpt lat="43.83277" lon="6.5575">
        <ele>987</ele>
        <time>2021-08-13T20:21:02.678Z</time>
      </trkpt>
      <trkpt lat="43.8327" lon="6.55749">
        <ele>986</ele>
        <time>2021-08-13T20:21:03.395Z</time>
      </trkpt>
      <trkpt lat="43.83255" lon="6.55748">
        <ele>983</ele>
        <time>2021-08-13T20:21:04.926Z</time>
      </trkpt>
      <trkpt lat="43.83181" lon="6.55782">
        <ele>966</ele>
        <time>2021-08-13T20:21:12.872Z</time>
      </trkpt>
      <trkpt lat="43.83178" lon="6.55777">
        <ele>965</ele>
        <time>2021-08-13T20:21:13.351Z</time>
      </trkpt>
      <trkpt lat="43.83159" lon="6.55796">
        <ele>961</ele>
        <time>2021-08-13T20:21:15.739Z</time>
      </trkpt>
      <trkpt lat="43.83145" lon="6.55806">
        <ele>958</ele>
        <time>2021-08-13T20:21:17.344Z</time>
      </trkpt>
      <trkpt lat="43.83124" lon="6.55843">
        <ele>954</ele>
        <time>2021-08-13T20:21:20.806Z</time>
      </trkpt>
      <trkpt lat="43.83112" lon="6.55858">
        <ele>951</ele>
        <time>2021-08-13T20:21:22.453Z</time>
      </trkpt>
      <trkpt lat="43.83088" lon="6.55862">
        <ele>944</ele>
        <time>2021-08-13T20:21:24.917Z</time>
      </trkpt>
      <trkpt lat="43.83083" lon="6.55845">
        <ele>942</ele>
        <time>2021-08-13T20:21:26.267Z</time>
      </trkpt>
      <trkpt lat="43.83083" lon="6.55829">
        <ele>941</ele>
        <time>2021-08-13T20:21:27.444Z</time>
      </trkpt>
      <trkpt lat="43.83055" lon="6.55808">
        <ele>934</ele>
        <time>2021-08-13T20:21:30.689Z</time>
      </trkpt>
      <trkpt lat="43.83043" lon="6.55806">
        <ele>932</ele>
        <time>2021-08-13T20:21:31.921Z</time>
      </trkpt>
      <trkpt lat="43.8303" lon="6.55803">
        <ele>930</ele>
        <time>2021-08-13T20:21:33.264Z</time>
      </trkpt>
      <trkpt lat="43.83024" lon="6.55801">
        <ele>929</ele>
        <time>2021-08-13T20:21:33.893Z</time>
      </trkpt>
      <trkpt lat="43.83015" lon="6.558">
        <ele>927</ele>
        <time>2021-08-13T20:21:34.814Z</time>
      </trkpt>
      <trkpt lat="43.83014" lon="6.558">
        <ele>927</ele>
        <time>2021-08-13T20:21:35.046Z</time>
      </trkpt>
      <trkpt lat="43.83015" lon="6.5575">
        <ele>927</ele>
        <time>2021-08-13T20:21:43.443Z</time>
      </trkpt>
      <trkpt lat="43.83011" lon="6.55743">
        <ele>926</ele>
        <time>2021-08-13T20:21:44.100Z</time>
      </trkpt>
      <trkpt lat="43.83" lon="6.55735">
        <ele>924</ele>
        <time>2021-08-13T20:21:45.366Z</time>
      </trkpt>
      <trkpt lat="43.82959" lon="6.55701">
        <ele>921</ele>
        <time>2021-08-13T20:21:49.963Z</time>
      </trkpt>
      <trkpt lat="43.82954" lon="6.557">
        <ele>921</ele>
        <time>2021-08-13T20:21:51.138Z</time>
      </trkpt>
      <trkpt lat="43.82932" lon="6.55684">
        <ele>920</ele>
        <time>2021-08-13T20:21:54.039Z</time>
      </trkpt>
      <trkpt lat="43.82914" lon="6.55677">
        <ele>920</ele>
        <time>2021-08-13T20:21:58.390Z</time>
      </trkpt>
      <trkpt lat="43.82905" lon="6.55682">
        <ele>919</ele>
        <time>2021-08-13T20:21:59.378Z</time>
      </trkpt>
      <trkpt lat="43.82878" lon="6.55708">
        <ele>917</ele>
        <time>2021-08-13T20:22:02.590Z</time>
      </trkpt>
      <trkpt lat="43.82863" lon="6.55717">
        <ele>916</ele>
        <time>2021-08-13T20:22:04.183Z</time>
      </trkpt>
      <trkpt lat="43.82842" lon="6.55721">
        <ele>915</ele>
        <time>2021-08-13T20:22:06.505Z</time>
      </trkpt>
      <trkpt lat="43.82829" lon="6.55725">
        <ele>914</ele>
        <time>2021-08-13T20:22:07.863Z</time>
      </trkpt>
      <trkpt lat="43.82814" lon="6.55735">
        <ele>911</ele>
        <time>2021-08-13T20:22:09.559Z</time>
      </trkpt>
      <trkpt lat="43.82786" lon="6.55767">
        <ele>908</ele>
        <time>2021-08-13T20:22:13.258Z</time>
      </trkpt>
      <trkpt lat="43.82772" lon="6.55787">
        <ele>907</ele>
        <time>2021-08-13T20:22:15.412Z</time>
      </trkpt>
      <trkpt lat="43.82765" lon="6.558">
        <ele>907</ele>
        <time>2021-08-13T20:22:18.136Z</time>
      </trkpt>
      <trkpt lat="43.82756" lon="6.55801">
        <ele>907</ele>
        <time>2021-08-13T20:22:20.237Z</time>
      </trkpt>
      <trkpt lat="43.82715" lon="6.55821">
        <ele>908</ele>
        <time>2021-08-13T20:22:33.052Z</time>
      </trkpt>
      <trkpt lat="43.82679" lon="6.55836">
        <ele>909</ele>
        <time>2021-08-13T20:22:44.619Z</time>
      </trkpt>
      <trkpt lat="43.82666" lon="6.55845">
        <ele>912</ele>
        <time>2021-08-13T20:22:57.662Z</time>
      </trkpt>
      <trkpt lat="43.82646" lon="6.55855">
        <ele>911</ele>
        <time>2021-08-13T20:22:59.995Z</time>
      </trkpt>
      <trkpt lat="43.82634" lon="6.55867">
        <ele>912</ele>
        <time>2021-08-13T20:23:06.800Z</time>
      </trkpt>
      <trkpt lat="43.8263" lon="6.55875">
        <ele>913</ele>
        <time>2021-08-13T20:23:13.103Z</time>
      </trkpt>
      <trkpt lat="43.82629" lon="6.55881">
        <ele>914</ele>
        <time>2021-08-13T20:23:17.091Z</time>
      </trkpt>
      <trkpt lat="43.82625" lon="6.55888">
        <ele>914</ele>
        <time>2021-08-13T20:23:18.590Z</time>
      </trkpt>
      <trkpt lat="43.82602" lon="6.55932">
        <ele>915</ele>
        <time>2021-08-13T20:23:30.494Z</time>
      </trkpt>
      <trkpt lat="43.8254" lon="6.56029">
        <ele>915</ele>
        <time>2021-08-13T20:23:52.252Z</time>
      </trkpt>
      <trkpt lat="43.82534" lon="6.56047">
        <ele>914</ele>
        <time>2021-08-13T20:23:53.710Z</time>
      </trkpt>
      <trkpt lat="43.82537" lon="6.56063">
        <ele>914</ele>
        <time>2021-08-13T20:23:56.485Z</time>
      </trkpt>
      <trkpt lat="43.82539" lon="6.56079">
        <ele>914</ele>
        <time>2021-08-13T20:23:59.212Z</time>
      </trkpt>
      <trkpt lat="43.82538" lon="6.561">
        <ele>914</ele>
        <time>2021-08-13T20:24:02.745Z</time>
      </trkpt>
      <trkpt lat="43.82536" lon="6.56104">
        <ele>914</ele>
        <time>2021-08-13T20:24:03.562Z</time>
      </trkpt>
      <trkpt lat="43.82513" lon="6.56116">
        <ele>914</ele>
        <time>2021-08-13T20:24:09.281Z</time>
      </trkpt>
      <trkpt lat="43.82502" lon="6.56138">
        <ele>915</ele>
        <time>2021-08-13T20:24:17.232Z</time>
      </trkpt>
      <trkpt lat="43.82495" lon="6.56152">
        <ele>917</ele>
        <time>2021-08-13T20:24:28.263Z</time>
      </trkpt>
      <trkpt lat="43.82477" lon="6.56148">
        <ele>919</ele>
        <time>2021-08-13T20:24:40.448Z</time>
      </trkpt>
      <trkpt lat="43.82469" lon="6.5613">
        <ele>920</ele>
        <time>2021-08-13T20:24:47.359Z</time>
      </trkpt>
      <trkpt lat="43.82453" lon="6.56128">
        <ele>922</ele>
        <time>2021-08-13T20:25:00.130Z</time>
      </trkpt>
      <trkpt lat="43.82437" lon="6.56133">
        <ele>925</ele>
        <time>2021-08-13T20:25:14.852Z</time>
      </trkpt>
      <trkpt lat="43.82399" lon="6.5617">
        <ele>932</ele>
        <time>2021-08-13T20:25:56.536Z</time>
      </trkpt>
      <trkpt lat="43.82382" lon="6.56192">
        <ele>935</ele>
        <time>2021-08-13T20:26:16.152Z</time>
      </trkpt>
      <trkpt lat="43.82365" lon="6.56205">
        <ele>938</ele>
        <time>2021-08-13T20:26:33.580Z</time>
      </trkpt>
      <trkpt lat="43.8234" lon="6.56222">
        <ele>941</ele>
        <time>2021-08-13T20:26:51.806Z</time>
      </trkpt>
      <trkpt lat="43.82315" lon="6.56238">
        <ele>940</ele>
        <time>2021-08-13T20:26:55.145Z</time>
      </trkpt>
      <trkpt lat="43.82307" lon="6.56251">
        <ele>939</ele>
        <time>2021-08-13T20:26:56.402Z</time>
      </trkpt>
      <trkpt lat="43.82297" lon="6.56292">
        <ele>936</ele>
        <time>2021-08-13T20:26:59.585Z</time>
      </trkpt>
      <trkpt lat="43.82275" lon="6.56371">
        <ele>931</ele>
        <time>2021-08-13T20:27:05.813Z</time>
      </trkpt>
      <trkpt lat="43.82264" lon="6.56394">
        <ele>930</ele>
        <time>2021-08-13T20:27:07.936Z</time>
      </trkpt>
      <trkpt lat="43.82239" lon="6.5643">
        <ele>930</ele>
        <time>2021-08-13T20:27:16.326Z</time>
      </trkpt>
      <trkpt lat="43.82228" lon="6.56439">
        <ele>930</ele>
        <time>2021-08-13T20:27:19.298Z</time>
      </trkpt>
      <trkpt lat="43.82215" lon="6.56445">
        <ele>928</ele>
        <time>2021-08-13T20:27:20.695Z</time>
      </trkpt>
      <trkpt lat="43.82197" lon="6.56448">
        <ele>926</ele>
        <time>2021-08-13T20:27:22.543Z</time>
      </trkpt>
      <trkpt lat="43.82184" lon="6.56453">
        <ele>924</ele>
        <time>2021-08-13T20:27:23.918Z</time>
      </trkpt>
      <trkpt lat="43.82173" lon="6.56462">
        <ele>924</ele>
        <time>2021-08-13T20:27:26.891Z</time>
      </trkpt>
      <trkpt lat="43.82135" lon="6.56521">
        <ele>928</ele>
        <time>2021-08-13T20:27:53.632Z</time>
      </trkpt>
      <trkpt lat="43.82131" lon="6.56531">
        <ele>928</ele>
        <time>2021-08-13T20:27:55.552Z</time>
      </trkpt>
      <trkpt lat="43.82129" lon="6.56547">
        <ele>929</ele>
        <time>2021-08-13T20:28:01.756Z</time>
      </trkpt>
      <trkpt lat="43.82129" lon="6.56556">
        <ele>930</ele>
        <time>2021-08-13T20:28:07.585Z</time>
      </trkpt>
      <trkpt lat="43.82126" lon="6.56567">
        <ele>930</ele>
        <time>2021-08-13T20:28:09.559Z</time>
      </trkpt>
      <trkpt lat="43.82122" lon="6.56569">
        <ele>930</ele>
        <time>2021-08-13T20:28:10.549Z</time>
      </trkpt>
      <trkpt lat="43.82103" lon="6.56568">
        <ele>928</ele>
        <time>2021-08-13T20:28:12.487Z</time>
      </trkpt>
      <trkpt lat="43.82096" lon="6.5656">
        <ele>927</ele>
        <time>2021-08-13T20:28:13.412Z</time>
      </trkpt>
      <trkpt lat="43.8209" lon="6.56545">
        <ele>926</ele>
        <time>2021-08-13T20:28:14.673Z</time>
      </trkpt>
      <trkpt lat="43.82086" lon="6.56488">
        <ele>923</ele>
        <time>2021-08-13T20:28:18.885Z</time>
      </trkpt>
      <trkpt lat="43.82082" lon="6.56482">
        <ele>923</ele>
        <time>2021-08-13T20:28:20.257Z</time>
      </trkpt>
      <trkpt lat="43.82077" lon="6.56479">
        <ele>924</ele>
        <time>2021-08-13T20:28:25.148Z</time>
      </trkpt>
      <trkpt lat="43.82066" lon="6.56484">
        <ele>925</ele>
        <time>2021-08-13T20:28:31.333Z</time>
      </trkpt>
      <trkpt lat="43.82044" lon="6.56499">
        <ele>927</ele>
        <time>2021-08-13T20:28:43.911Z</time>
      </trkpt>
      <trkpt lat="43.82035" lon="6.56501">
        <ele>928</ele>
        <time>2021-08-13T20:28:50.004Z</time>
      </trkpt>
      <trkpt lat="43.81964" lon="6.56496">
        <ele>937</ele>
        <time>2021-08-13T20:29:48.078Z</time>
      </trkpt>
      <trkpt lat="43.81945" lon="6.56487">
        <ele>939</ele>
        <time>2021-08-13T20:30:00.183Z</time>
      </trkpt>
      <trkpt lat="43.81933" lon="6.56459">
        <ele>939</ele>
        <time>2021-08-13T20:30:05.652Z</time>
      </trkpt>
      <trkpt lat="43.81934" lon="6.56441">
        <ele>938</ele>
        <time>2021-08-13T20:30:06.979Z</time>
      </trkpt>
      <trkpt lat="43.8192" lon="6.56405">
        <ele>937</ele>
        <time>2021-08-13T20:30:10.646Z</time>
      </trkpt>
      <trkpt lat="43.81914" lon="6.56383">
        <ele>937</ele>
        <time>2021-08-13T20:30:14.595Z</time>
      </trkpt>
      <trkpt lat="43.81901" lon="6.56367">
        <ele>937</ele>
        <time>2021-08-13T20:30:18.641Z</time>
      </trkpt>
      <trkpt lat="43.81887" lon="6.56359">
        <ele>938</ele>
        <time>2021-08-13T20:30:25.526Z</time>
      </trkpt>
      <trkpt lat="43.81873" lon="6.56358">
        <ele>939</ele>
        <time>2021-08-13T20:30:32.158Z</time>
      </trkpt>
      <trkpt lat="43.8184" lon="6.56364">
        <ele>943</ele>
        <time>2021-08-13T20:30:57.230Z</time>
      </trkpt>
      <trkpt lat="43.8182" lon="6.56365">
        <ele>945</ele>
        <time>2021-08-13T20:31:09.334Z</time>
      </trkpt>
      <trkpt lat="43.81799" lon="6.56362">
        <ele>947</ele>
        <time>2021-08-13T20:31:21.487Z</time>
      </trkpt>
      <trkpt lat="43.81747" lon="6.56375">
        <ele>953</ele>
        <time>2021-08-13T20:31:58.329Z</time>
      </trkpt>
      <trkpt lat="43.81728" lon="6.56384">
        <ele>954</ele>
        <time>2021-08-13T20:32:06.489Z</time>
      </trkpt>
      <trkpt lat="43.81677" lon="6.56415">
        <ele>952</ele>
        <time>2021-08-13T20:32:13.270Z</time>
      </trkpt>
      <trkpt lat="43.81651" lon="6.56425">
        <ele>952</ele>
        <time>2021-08-13T20:32:19.549Z</time>
      </trkpt>
      <trkpt lat="43.81623" lon="6.56444">
        <ele>955</ele>
        <time>2021-08-13T20:32:37.747Z</time>
      </trkpt>
      <trkpt lat="43.81611" lon="6.56445">
        <ele>955</ele>
        <time>2021-08-13T20:32:40.545Z</time>
      </trkpt>
      <trkpt lat="43.81574" lon="6.56439">
        <ele>956</ele>
        <time>2021-08-13T20:32:52.041Z</time>
      </trkpt>
      <trkpt lat="43.81558" lon="6.56433">
        <ele>957</ele>
        <time>2021-08-13T20:32:59.275Z</time>
      </trkpt>
      <trkpt lat="43.81556" lon="6.56429">
        <ele>957</ele>
        <time>2021-08-13T20:33:00.092Z</time>
      </trkpt>
      <trkpt lat="43.81554" lon="6.56406">
        <ele>957</ele>
        <time>2021-08-13T20:33:03.982Z</time>
      </trkpt>
      <trkpt lat="43.8155" lon="6.56401">
        <ele>958</ele>
        <time>2021-08-13T20:33:08.818Z</time>
      </trkpt>
      <trkpt lat="43.81546" lon="6.56397">
        <ele>959</ele>
        <time>2021-08-13T20:33:13.245Z</time>
      </trkpt>
      <trkpt lat="43.81528" lon="6.56382">
        <ele>961</ele>
        <time>2021-08-13T20:33:25.390Z</time>
      </trkpt>
      <trkpt lat="43.81518" lon="6.56371">
        <ele>963</ele>
        <time>2021-08-13T20:33:36.850Z</time>
      </trkpt>
      <trkpt lat="43.81494" lon="6.56354">
        <ele>964</ele>
        <time>2021-08-13T20:33:46.352Z</time>
      </trkpt>
      <trkpt lat="43.81484" lon="6.5635">
        <ele>965</ele>
        <time>2021-08-13T20:33:52.419Z</time>
      </trkpt>
      <trkpt lat="43.81462" lon="6.56348">
        <ele>967</ele>
        <time>2021-08-13T20:34:04.654Z</time>
      </trkpt>
      <trkpt lat="43.81453" lon="6.56341">
        <ele>967</ele>
        <time>2021-08-13T20:34:07.056Z</time>
      </trkpt>
      <trkpt lat="43.81453" lon="6.56333">
        <ele>967</ele>
        <time>2021-08-13T20:34:08.399Z</time>
      </trkpt>
      <trkpt lat="43.81475" lon="6.56318">
        <ele>969</ele>
        <time>2021-08-13T20:34:20.978Z</time>
      </trkpt>
      <trkpt lat="43.8148" lon="6.56308">
        <ele>971</ele>
        <time>2021-08-13T20:34:28.858Z</time>
      </trkpt>
      <trkpt lat="43.81485" lon="6.56305">
        <ele>972</ele>
        <time>2021-08-13T20:34:33.749Z</time>
      </trkpt>
      <trkpt lat="43.81488" lon="6.56307">
        <ele>971</ele>
        <time>2021-08-13T20:34:34.088Z</time>
      </trkpt>
      <trkpt lat="43.81494" lon="6.56322">
        <ele>968</ele>
        <time>2021-08-13T20:34:35.350Z</time>
      </trkpt>
      <trkpt lat="43.81498" lon="6.56328">
        <ele>966</ele>
        <time>2021-08-13T20:34:35.950Z</time>
      </trkpt>
      <trkpt lat="43.81505" lon="6.56332">
        <ele>965</ele>
        <time>2021-08-13T20:34:36.722Z</time>
      </trkpt>
      <trkpt lat="43.81516" lon="6.56328">
        <ele>967</ele>
        <time>2021-08-13T20:34:46.930Z</time>
      </trkpt>
      <trkpt lat="43.81534" lon="6.56308">
        <ele>972</ele>
        <time>2021-08-13T20:35:07.639Z</time>
      </trkpt>
      <trkpt lat="43.81542" lon="6.56302">
        <ele>974</ele>
        <time>2021-08-13T20:35:15.804Z</time>
      </trkpt>
      <trkpt lat="43.81548" lon="6.56299">
        <ele>975</ele>
        <time>2021-08-13T20:35:21.530Z</time>
      </trkpt>
      <trkpt lat="43.81551" lon="6.56294">
        <ele>977</ele>
        <time>2021-08-13T20:35:25.741Z</time>
      </trkpt>
      <trkpt lat="43.8155" lon="6.56289">
        <ele>978</ele>
        <time>2021-08-13T20:35:29.102Z</time>
      </trkpt>
      <trkpt lat="43.81547" lon="6.56285">
        <ele>979</ele>
        <time>2021-08-13T20:35:32.839Z</time>
      </trkpt>
      <trkpt lat="43.81518" lon="6.56283">
        <ele>977</ele>
        <time>2021-08-13T20:35:35.798Z</time>
      </trkpt>
      <trkpt lat="43.81512" lon="6.56278">
        <ele>978</ele>
        <time>2021-08-13T20:35:42.083Z</time>
      </trkpt>
      <trkpt lat="43.81506" lon="6.56268">
        <ele>980</ele>
        <time>2021-08-13T20:35:50.506Z</time>
      </trkpt>
      <trkpt lat="43.81505" lon="6.56252">
        <ele>983</ele>
        <time>2021-08-13T20:36:00.908Z</time>
      </trkpt>
      <trkpt lat="43.81508" lon="6.56224">
        <ele>989</ele>
        <time>2021-08-13T20:36:19.243Z</time>
      </trkpt>
      <trkpt lat="43.81506" lon="6.56214">
        <ele>990</ele>
        <time>2021-08-13T20:36:25.964Z</time>
      </trkpt>
      <trkpt lat="43.81502" lon="6.5621">
        <ele>991</ele>
        <time>2021-08-13T20:36:30.391Z</time>
      </trkpt>
      <trkpt lat="43.81493" lon="6.56215">
        <ele>990</ele>
        <time>2021-08-13T20:36:31.380Z</time>
      </trkpt>
      <trkpt lat="43.81485" lon="6.56224">
        <ele>988</ele>
        <time>2021-08-13T20:36:32.430Z</time>
      </trkpt>
      <trkpt lat="43.81479" lon="6.56228">
        <ele>988</ele>
        <time>2021-08-13T20:36:33.980Z</time>
      </trkpt>
      <trkpt lat="43.81477" lon="6.5623">
        <ele>987</ele>
        <time>2021-08-13T20:36:34.231Z</time>
      </trkpt>
      <trkpt lat="43.81467" lon="6.56232">
        <ele>987</ele>
        <time>2021-08-13T20:36:36.582Z</time>
      </trkpt>
      <trkpt lat="43.81397" lon="6.56225">
        <ele>991</ele>
        <time>2021-08-13T20:37:06.512Z</time>
      </trkpt>
      <trkpt lat="43.81378" lon="6.56215">
        <ele>995</ele>
        <time>2021-08-13T20:37:24.755Z</time>
      </trkpt>
      <trkpt lat="43.81362" lon="6.56209">
        <ele>999</ele>
        <time>2021-08-13T20:37:39.634Z</time>
      </trkpt>
      <trkpt lat="43.81344" lon="6.56208">
        <ele>1001</ele>
        <time>2021-08-13T20:37:51.847Z</time>
      </trkpt>
      <trkpt lat="43.8131" lon="6.56214">
        <ele>1003</ele>
        <time>2021-08-13T20:38:06.602Z</time>
      </trkpt>
      <trkpt lat="43.8128" lon="6.56195">
        <ele>1011</ele>
        <time>2021-08-13T20:38:36.209Z</time>
      </trkpt>
      <trkpt lat="43.81273" lon="6.56196">
        <ele>1012</ele>
        <time>2021-08-13T20:38:42.525Z</time>
      </trkpt>
      <trkpt lat="43.81268" lon="6.562">
        <ele>1011</ele>
        <time>2021-08-13T20:38:43.114Z</time>
      </trkpt>
      <trkpt lat="43.81266" lon="6.56207">
        <ele>1010</ele>
        <time>2021-08-13T20:38:43.668Z</time>
      </trkpt>
      <trkpt lat="43.81266" lon="6.56217">
        <ele>1008</ele>
        <time>2021-08-13T20:38:44.403Z</time>
      </trkpt>
      <trkpt lat="43.81269" lon="6.5623">
        <ele>1004</ele>
        <time>2021-08-13T20:38:45.407Z</time>
      </trkpt>
      <trkpt lat="43.81268" lon="6.56236">
        <ele>1003</ele>
        <time>2021-08-13T20:38:45.860Z</time>
      </trkpt>
      <trkpt lat="43.81262" lon="6.56241">
        <ele>1003</ele>
        <time>2021-08-13T20:38:47.489Z</time>
      </trkpt>
      <trkpt lat="43.81253" lon="6.56243">
        <ele>1004</ele>
        <time>2021-08-13T20:38:53.582Z</time>
      </trkpt>
      <trkpt lat="43.81225" lon="6.56238">
        <ele>1010</ele>
        <time>2021-08-13T20:39:18.923Z</time>
      </trkpt>
      <trkpt lat="43.81216" lon="6.5624">
        <ele>1011</ele>
        <time>2021-08-13T20:39:25.016Z</time>
      </trkpt>
      <trkpt lat="43.8121" lon="6.56245">
        <ele>1010</ele>
        <time>2021-08-13T20:39:25.729Z</time>
      </trkpt>
      <trkpt lat="43.81205" lon="6.56252">
        <ele>1010</ele>
        <time>2021-08-13T20:39:27.383Z</time>
      </trkpt>
      <trkpt lat="43.81196" lon="6.56273">
        <ele>1007</ele>
        <time>2021-08-13T20:39:29.180Z</time>
      </trkpt>
      <trkpt lat="43.81192" lon="6.56277">
        <ele>1007</ele>
        <time>2021-08-13T20:39:30.328Z</time>
      </trkpt>
      <trkpt lat="43.81187" lon="6.56277">
        <ele>1008</ele>
        <time>2021-08-13T20:39:34.816Z</time>
      </trkpt>
      <trkpt lat="43.81181" lon="6.56271">
        <ele>1010</ele>
        <time>2021-08-13T20:39:41.457Z</time>
      </trkpt>
      <trkpt lat="43.81167" lon="6.56252">
        <ele>1016</ele>
        <time>2021-08-13T20:39:59.047Z</time>
      </trkpt>
      <trkpt lat="43.81129" lon="6.56219">
        <ele>1027</ele>
        <time>2021-08-13T20:40:39.300Z</time>
      </trkpt>
      <trkpt lat="43.81114" lon="6.56227">
        <ele>1026</ele>
        <time>2021-08-13T20:40:40.853Z</time>
      </trkpt>
      <trkpt lat="43.81111" lon="6.56226">
        <ele>1026</ele>
        <time>2021-08-13T20:40:41.572Z</time>
      </trkpt>
      <trkpt lat="43.8111" lon="6.5622">
        <ele>1028</ele>
        <time>2021-08-13T20:40:45.560Z</time>
      </trkpt>
      <trkpt lat="43.81112" lon="6.56216">
        <ele>1029</ele>
        <time>2021-08-13T20:40:48.712Z</time>
      </trkpt>
      <trkpt lat="43.81118" lon="6.56213">
        <ele>1030</ele>
        <time>2021-08-13T20:40:54.438Z</time>
      </trkpt>
      <trkpt lat="43.81152" lon="6.56204">
        <ele>1030</ele>
        <time>2021-08-13T20:41:02.493Z</time>
      </trkpt>
      <trkpt lat="43.81177" lon="6.56183">
        <ele>1032</ele>
        <time>2021-08-13T20:41:16.021Z</time>
      </trkpt>
      <trkpt lat="43.81178" lon="6.56176">
        <ele>1034</ele>
        <time>2021-08-13T20:41:20.643Z</time>
      </trkpt>
      <trkpt lat="43.81177" lon="6.56172">
        <ele>1035</ele>
        <time>2021-08-13T20:41:23.385Z</time>
      </trkpt>
      <trkpt lat="43.81174" lon="6.5617">
        <ele>1036</ele>
        <time>2021-08-13T20:41:26.374Z</time>
      </trkpt>
      <trkpt lat="43.81169" lon="6.5617">
        <ele>1038</ele>
        <time>2021-08-13T20:41:30.862Z</time>
      </trkpt>
      <trkpt lat="43.81159" lon="6.56174">
        <ele>1038</ele>
        <time>2021-08-13T20:41:33.284Z</time>
      </trkpt>
      <trkpt lat="43.81144" lon="6.56184">
        <ele>1036</ele>
        <time>2021-08-13T20:41:34.981Z</time>
      </trkpt>
      <trkpt lat="43.81139" lon="6.56186">
        <ele>1036</ele>
        <time>2021-08-13T20:41:36.192Z</time>
      </trkpt>
      <trkpt lat="43.81136" lon="6.56177">
        <ele>1039</ele>
        <time>2021-08-13T20:41:42.613Z</time>
      </trkpt>
      <trkpt lat="43.81139" lon="6.56172">
        <ele>1040</ele>
        <time>2021-08-13T20:41:46.825Z</time>
      </trkpt>
      <trkpt lat="43.81148" lon="6.56165">
        <ele>1041</ele>
        <time>2021-08-13T20:41:52.887Z</time>
      </trkpt>
      <trkpt lat="43.81159" lon="6.56149">
        <ele>1044</ele>
        <time>2021-08-13T20:42:07.202Z</time>
      </trkpt>
      <trkpt lat="43.81178" lon="6.56135">
        <ele>1044</ele>
        <time>2021-08-13T20:42:12.209Z</time>
      </trkpt>
      <trkpt lat="43.81181" lon="6.56129">
        <ele>1045</ele>
        <time>2021-08-13T20:42:16.938Z</time>
      </trkpt>
      <trkpt lat="43.81179" lon="6.56122">
        <ele>1047</ele>
        <time>2021-08-13T20:42:21.814Z</time>
      </trkpt>
      <trkpt lat="43.81174" lon="6.56117">
        <ele>1049</ele>
        <time>2021-08-13T20:42:27.349Z</time>
      </trkpt>
      <trkpt lat="43.81165" lon="6.56116">
        <ele>1051</ele>
        <time>2021-08-13T20:42:35.453Z</time>
      </trkpt>
      <trkpt lat="43.81153" lon="6.5612">
        <ele>1052</ele>
        <time>2021-08-13T20:42:41.757Z</time>
      </trkpt>
      <trkpt lat="43.81133" lon="6.56132">
        <ele>1052</ele>
        <time>2021-08-13T20:42:46.829Z</time>
      </trkpt>
      <trkpt lat="43.81109" lon="6.56157">
        <ele>1048</ele>
        <time>2021-08-13T20:42:49.889Z</time>
      </trkpt>
      <trkpt lat="43.81101" lon="6.56162">
        <ele>1048</ele>
        <time>2021-08-13T20:42:51.931Z</time>
      </trkpt>
      <trkpt lat="43.81093" lon="6.56162">
        <ele>1048</ele>
        <time>2021-08-13T20:42:53.793Z</time>
      </trkpt>
      <trkpt lat="43.81078" lon="6.56153">
        <ele>1053</ele>
        <time>2021-08-13T20:43:08.465Z</time>
      </trkpt>
      <trkpt lat="43.81071" lon="6.56151">
        <ele>1053</ele>
        <time>2021-08-13T20:43:10.128Z</time>
      </trkpt>
      <trkpt lat="43.8105" lon="6.56156">
        <ele>1051</ele>
        <time>2021-08-13T20:43:12.300Z</time>
      </trkpt>
      <trkpt lat="43.81042" lon="6.56155">
        <ele>1051</ele>
        <time>2021-08-13T20:43:14.170Z</time>
      </trkpt>
      <trkpt lat="43.81015" lon="6.56137">
        <ele>1056</ele>
        <time>2021-08-13T20:43:41.064Z</time>
      </trkpt>
      <trkpt lat="43.80985" lon="6.56112">
        <ele>1062</ele>
        <time>2021-08-13T20:44:12.487Z</time>
      </trkpt>
      <trkpt lat="43.80945" lon="6.56089">
        <ele>1066</ele>
        <time>2021-08-13T20:44:36.880Z</time>
      </trkpt>
      <trkpt lat="43.8091" lon="6.56096">
        <ele>1066</ele>
        <time>2021-08-13T20:44:45.109Z</time>
      </trkpt>
      <trkpt lat="43.80886" lon="6.56098">
        <ele>1070</ele>
        <time>2021-08-13T20:45:06.691Z</time>
      </trkpt>
      <trkpt lat="43.8087" lon="6.56098">
        <ele>1072</ele>
        <time>2021-08-13T20:45:19.492Z</time>
      </trkpt>
      <trkpt lat="43.80866" lon="6.56093">
        <ele>1073</ele>
        <time>2021-08-13T20:45:24.328Z</time>
      </trkpt>
      <trkpt lat="43.80866" lon="6.56088">
        <ele>1073</ele>
        <time>2021-08-13T20:45:25.167Z</time>
      </trkpt>
      <trkpt lat="43.80866" lon="6.56084">
        <ele>1073</ele>
        <time>2021-08-13T20:45:25.839Z</time>
      </trkpt>
      <trkpt lat="43.80869" lon="6.56081">
        <ele>1072</ele>
        <time>2021-08-13T20:45:26.216Z</time>
      </trkpt>
      <trkpt lat="43.80883" lon="6.56078">
        <ele>1070</ele>
        <time>2021-08-13T20:45:27.660Z</time>
      </trkpt>
      <trkpt lat="43.8089" lon="6.56073">
        <ele>1070</ele>
        <time>2021-08-13T20:45:29.493Z</time>
      </trkpt>
      <trkpt lat="43.80894" lon="6.56062">
        <ele>1070</ele>
        <time>2021-08-13T20:45:31.562Z</time>
      </trkpt>
      <trkpt lat="43.80899" lon="6.55997">
        <ele>1072</ele>
        <time>2021-08-13T20:45:49.509Z</time>
      </trkpt>
      <trkpt lat="43.80896" lon="6.55917">
        <ele>1070</ele>
        <time>2021-08-13T20:45:56.642Z</time>
      </trkpt>
      <trkpt lat="43.80899" lon="6.55864">
        <ele>1067</ele>
        <time>2021-08-13T20:46:00.552Z</time>
      </trkpt>
      <trkpt lat="43.80912" lon="6.55802">
        <ele>1065</ele>
        <time>2021-08-13T20:46:05.858Z</time>
      </trkpt>
      <trkpt lat="43.80918" lon="6.55787">
        <ele>1065</ele>
        <time>2021-08-13T20:46:08.738Z</time>
      </trkpt>
      <trkpt lat="43.8093" lon="6.55767">
        <ele>1066</ele>
        <time>2021-08-13T20:46:16.543Z</time>
      </trkpt>
      <trkpt lat="43.80939" lon="6.55733">
        <ele>1063</ele>
        <time>2021-08-13T20:46:19.207Z</time>
      </trkpt>
      <trkpt lat="43.80957" lon="6.55713">
        <ele>1064</ele>
        <time>2021-08-13T20:46:28.112Z</time>
      </trkpt>
      <trkpt lat="43.80969" lon="6.55703">
        <ele>1065</ele>
        <time>2021-08-13T20:46:34.740Z</time>
      </trkpt>
      <trkpt lat="43.81006" lon="6.55688">
        <ele>1071</ele>
        <time>2021-08-13T20:47:09.343Z</time>
      </trkpt>
      <trkpt lat="43.81035" lon="6.55696">
        <ele>1080</ele>
        <time>2021-08-13T20:47:35.885Z</time>
      </trkpt>
      <trkpt lat="43.81044" lon="6.5569">
        <ele>1080</ele>
        <time>2021-08-13T20:47:38.209Z</time>
      </trkpt>
      <trkpt lat="43.81051" lon="6.55675">
        <ele>1078</ele>
        <time>2021-08-13T20:47:39.523Z</time>
      </trkpt>
      <trkpt lat="43.81057" lon="6.55631">
        <ele>1074</ele>
        <time>2021-08-13T20:47:42.817Z</time>
      </trkpt>
      <trkpt lat="43.81063" lon="6.55609">
        <ele>1074</ele>
        <time>2021-08-13T20:47:46.767Z</time>
      </trkpt>
      <trkpt lat="43.81076" lon="6.5557">
        <ele>1075</ele>
        <time>2021-08-13T20:47:57.007Z</time>
      </trkpt>
      <trkpt lat="43.81078" lon="6.55554">
        <ele>1075</ele>
        <time>2021-08-13T20:47:59.734Z</time>
      </trkpt>
      <trkpt lat="43.8108" lon="6.55525">
        <ele>1074</ele>
        <time>2021-08-13T20:48:02.029Z</time>
      </trkpt>
      <trkpt lat="43.81079" lon="6.55458">
        <ele>1073</ele>
        <time>2021-08-13T20:48:08.961Z</time>
      </trkpt>
      <trkpt lat="43.8108" lon="6.55392">
        <ele>1074</ele>
        <time>2021-08-13T20:48:22.686Z</time>
      </trkpt>
      <trkpt lat="43.81079" lon="6.55375">
        <ele>1075</ele>
        <time>2021-08-13T20:48:28.984Z</time>
      </trkpt>
      <trkpt lat="43.81074" lon="6.55368">
        <ele>1073</ele>
        <time>2021-08-13T20:48:29.709Z</time>
      </trkpt>
      <trkpt lat="43.81062" lon="6.55353">
        <ele>1070</ele>
        <time>2021-08-13T20:48:31.356Z</time>
      </trkpt>
      <trkpt lat="43.81065" lon="6.55318">
        <ele>1071</ele>
        <time>2021-08-13T20:48:40.606Z</time>
      </trkpt>
      <trkpt lat="43.81066" lon="6.55316">
        <ele>1071</ele>
        <time>2021-08-13T20:48:41.015Z</time>
      </trkpt>
      <trkpt lat="43.8107" lon="6.55314">
        <ele>1072</ele>
        <time>2021-08-13T20:48:44.832Z</time>
      </trkpt>
      <trkpt lat="43.81075" lon="6.55288">
        <ele>1073</ele>
        <time>2021-08-13T20:48:52.812Z</time>
      </trkpt>
      <trkpt lat="43.81084" lon="6.55217">
        <ele>1073</ele>
        <time>2021-08-13T20:49:04.917Z</time>
      </trkpt>
      <trkpt lat="43.81085" lon="6.55198">
        <ele>1072</ele>
        <time>2021-08-13T20:49:06.319Z</time>
      </trkpt>
      <trkpt lat="43.81094" lon="6.5519">
        <ele>1074</ele>
        <time>2021-08-13T20:49:15.916Z</time>
      </trkpt>
      <trkpt lat="43.81098" lon="6.55188">
        <ele>1075</ele>
        <time>2021-08-13T20:49:19.733Z</time>
      </trkpt>
      <trkpt lat="43.81106" lon="6.55152">
        <ele>1075</ele>
        <time>2021-08-13T20:49:26.059Z</time>
      </trkpt>
      <trkpt lat="43.81104" lon="6.55146">
        <ele>1074</ele>
        <time>2021-08-13T20:49:26.545Z</time>
      </trkpt>
      <trkpt lat="43.81096" lon="6.55135">
        <ele>1071</ele>
        <time>2021-08-13T20:49:27.694Z</time>
      </trkpt>
      <trkpt lat="43.81081" lon="6.55109">
        <ele>1067</ele>
        <time>2021-08-13T20:49:30.143Z</time>
      </trkpt>
      <trkpt lat="43.8108" lon="6.55102">
        <ele>1066</ele>
        <time>2021-08-13T20:49:30.668Z</time>
      </trkpt>
      <trkpt lat="43.81093" lon="6.55059">
        <ele>1069</ele>
        <time>2021-08-13T20:49:49.084Z</time>
      </trkpt>
      <trkpt lat="43.81093" lon="6.55048">
        <ele>1069</ele>
        <time>2021-08-13T20:49:50.932Z</time>
      </trkpt>
      <trkpt lat="43.8109" lon="6.55042">
        <ele>1068</ele>
        <time>2021-08-13T20:49:51.469Z</time>
      </trkpt>
      <trkpt lat="43.81083" lon="6.55035">
        <ele>1067</ele>
        <time>2021-08-13T20:49:52.348Z</time>
      </trkpt>
      <trkpt lat="43.8107" lon="6.55029">
        <ele>1063</ele>
        <time>2021-08-13T20:49:53.745Z</time>
      </trkpt>
      <trkpt lat="43.81042" lon="6.55001">
        <ele>1056</ele>
        <time>2021-08-13T20:49:57.265Z</time>
      </trkpt>
      <trkpt lat="43.81016" lon="6.54961">
        <ele>1050</ele>
        <time>2021-08-13T20:50:01.225Z</time>
      </trkpt>
      <trkpt lat="43.81008" lon="6.54927">
        <ele>1048</ele>
        <time>2021-08-13T20:50:03.856Z</time>
      </trkpt>
      <trkpt lat="43.80991" lon="6.54881">
        <ele>1047</ele>
        <time>2021-08-13T20:50:08.846Z</time>
      </trkpt>
      <trkpt lat="43.80977" lon="6.5483">
        <ele>1049</ele>
        <time>2021-08-13T20:50:24.952Z</time>
      </trkpt>
      <trkpt lat="43.80976" lon="6.54814">
        <ele>1050</ele>
        <time>2021-08-13T20:50:31.139Z</time>
      </trkpt>
      <trkpt lat="43.80984" lon="6.54787">
        <ele>1053</ele>
        <time>2021-08-13T20:50:50.045Z</time>
      </trkpt>
      <trkpt lat="43.80984" lon="6.54774">
        <ele>1054</ele>
        <time>2021-08-13T20:50:56.112Z</time>
      </trkpt>
      <trkpt lat="43.80977" lon="6.54767">
        <ele>1055</ele>
        <time>2021-08-13T20:51:02.290Z</time>
      </trkpt>
      <trkpt lat="43.80949" lon="6.54778">
        <ele>1053</ele>
        <time>2021-08-13T20:51:05.257Z</time>
      </trkpt>
      <trkpt lat="43.8093" lon="6.54773">
        <ele>1054</ele>
        <time>2021-08-13T20:51:13.215Z</time>
      </trkpt>
      <trkpt lat="43.80912" lon="6.54776">
        <ele>1053</ele>
        <time>2021-08-13T20:51:15.070Z</time>
      </trkpt>
      <trkpt lat="43.809" lon="6.54789">
        <ele>1051</ele>
        <time>2021-08-13T20:51:16.623Z</time>
      </trkpt>
      <trkpt lat="43.80864" lon="6.54849">
        <ele>1042</ele>
        <time>2021-08-13T20:51:22.363Z</time>
      </trkpt>
      <trkpt lat="43.80847" lon="6.54869">
        <ele>1039</ele>
        <time>2021-08-13T20:51:24.636Z</time>
      </trkpt>
      <trkpt lat="43.80831" lon="6.5488">
        <ele>1038</ele>
        <time>2021-08-13T20:51:26.451Z</time>
      </trkpt>
      <trkpt lat="43.80808" lon="6.54891">
        <ele>1035</ele>
        <time>2021-08-13T20:51:28.931Z</time>
      </trkpt>
      <trkpt lat="43.8077" lon="6.54892">
        <ele>1034</ele>
        <time>2021-08-13T20:51:34.044Z</time>
      </trkpt>
      <trkpt lat="43.80747" lon="6.54885">
        <ele>1034</ele>
        <time>2021-08-13T20:51:39.524Z</time>
      </trkpt>
      <trkpt lat="43.80716" lon="6.54864">
        <ele>1032</ele>
        <time>2021-08-13T20:51:42.974Z</time>
      </trkpt>
      <trkpt lat="43.8068" lon="6.54865">
        <ele>1026</ele>
        <time>2021-08-13T20:51:46.644Z</time>
      </trkpt>
      <trkpt lat="43.80669" lon="6.54853">
        <ele>1026</ele>
        <time>2021-08-13T20:51:49.902Z</time>
      </trkpt>
      <trkpt lat="43.8066" lon="6.54833">
        <ele>1026</ele>
        <time>2021-08-13T20:51:53.861Z</time>
      </trkpt>
      <trkpt lat="43.80651" lon="6.54821">
        <ele>1028</ele>
        <time>2021-08-13T20:52:05.072Z</time>
      </trkpt>
      <trkpt lat="43.80634" lon="6.5482">
        <ele>1026</ele>
        <time>2021-08-13T20:52:06.806Z</time>
      </trkpt>
      <trkpt lat="43.80603" lon="6.54844">
        <ele>1019</ele>
        <time>2021-08-13T20:52:10.426Z</time>
      </trkpt>
      <trkpt lat="43.80579" lon="6.54854">
        <ele>1013</ele>
        <time>2021-08-13T20:52:12.981Z</time>
      </trkpt>
      <trkpt lat="43.80533" lon="6.54863">
        <ele>1003</ele>
        <time>2021-08-13T20:52:17.716Z</time>
      </trkpt>
      <trkpt lat="43.80527" lon="6.54863">
        <ele>1002</ele>
        <time>2021-08-13T20:52:18.328Z</time>
      </trkpt>
      <trkpt lat="43.80522" lon="6.5486">
        <ele>1002</ele>
        <time>2021-08-13T20:52:19.596Z</time>
      </trkpt>
      <trkpt lat="43.80514" lon="6.54849">
        <ele>1003</ele>
        <time>2021-08-13T20:52:25.741Z</time>
      </trkpt>
      <trkpt lat="43.80507" lon="6.54806">
        <ele>1006</ele>
        <time>2021-08-13T20:52:43.981Z</time>
      </trkpt>
      <trkpt lat="43.80494" lon="6.54757">
        <ele>1004</ele>
        <time>2021-08-13T20:52:47.903Z</time>
      </trkpt>
      <trkpt lat="43.80488" lon="6.54725">
        <ele>1004</ele>
        <time>2021-08-13T20:52:53.456Z</time>
      </trkpt>
      <trkpt lat="43.80482" lon="6.54666">
        <ele>1005</ele>
        <time>2021-08-13T20:53:06.171Z</time>
      </trkpt>
      <trkpt lat="43.80475" lon="6.54637">
        <ele>1004</ele>
        <time>2021-08-13T20:53:08.630Z</time>
      </trkpt>
      <trkpt lat="43.80464" lon="6.54607">
        <ele>1001</ele>
        <time>2021-08-13T20:53:11.106Z</time>
      </trkpt>
      <trkpt lat="43.80448" lon="6.54577">
        <ele>996</ele>
        <time>2021-08-13T20:53:13.850Z</time>
      </trkpt>
      <trkpt lat="43.80439" lon="6.54555">
        <ele>993</ele>
        <time>2021-08-13T20:53:15.710Z</time>
      </trkpt>
      <trkpt lat="43.80423" lon="6.54495">
        <ele>989</ele>
        <time>2021-08-13T20:53:20.416Z</time>
      </trkpt>
      <trkpt lat="43.80418" lon="6.54466">
        <ele>986</ele>
        <time>2021-08-13T20:53:22.610Z</time>
      </trkpt>
      <trkpt lat="43.80416" lon="6.54435">
        <ele>984</ele>
        <time>2021-08-13T20:53:24.899Z</time>
      </trkpt>
      <trkpt lat="43.80417" lon="6.54412">
        <ele>984</ele>
        <time>2021-08-13T20:53:28.769Z</time>
      </trkpt>
      <trkpt lat="43.80411" lon="6.5436">
        <ele>980</ele>
        <time>2021-08-13T20:53:32.643Z</time>
      </trkpt>
      <trkpt lat="43.80412" lon="6.54341">
        <ele>980</ele>
        <time>2021-08-13T20:53:35.843Z</time>
      </trkpt>
      <trkpt lat="43.80416" lon="6.54315">
        <ele>980</ele>
        <time>2021-08-13T20:53:40.308Z</time>
      </trkpt>
      <trkpt lat="43.80415" lon="6.54303">
        <ele>980</ele>
        <time>2021-08-13T20:53:42.336Z</time>
      </trkpt>
      <trkpt lat="43.8041" lon="6.54281">
        <ele>978</ele>
        <time>2021-08-13T20:53:44.033Z</time>
      </trkpt>
      <trkpt lat="43.804" lon="6.54254">
        <ele>975</ele>
        <time>2021-08-13T20:53:46.266Z</time>
      </trkpt>
      <trkpt lat="43.80389" lon="6.54203">
        <ele>971</ele>
        <time>2021-08-13T20:53:50.182Z</time>
      </trkpt>
      <trkpt lat="43.80384" lon="6.54197">
        <ele>970</ele>
        <time>2021-08-13T20:53:50.856Z</time>
      </trkpt>
      <trkpt lat="43.80379" lon="6.54194">
        <ele>969</ele>
        <time>2021-08-13T20:53:51.411Z</time>
      </trkpt>
      <trkpt lat="43.80371" lon="6.54193">
        <ele>967</ele>
        <time>2021-08-13T20:53:52.230Z</time>
      </trkpt>
      <trkpt lat="43.80362" lon="6.54198">
        <ele>965</ele>
        <time>2021-08-13T20:53:53.219Z</time>
      </trkpt>
      <trkpt lat="43.80352" lon="6.54214">
        <ele>964</ele>
        <time>2021-08-13T20:53:54.658Z</time>
      </trkpt>
      <trkpt lat="43.80347" lon="6.54236">
        <ele>963</ele>
        <time>2021-08-13T20:53:56.295Z</time>
      </trkpt>
      <trkpt lat="43.80346" lon="6.54256">
        <ele>964</ele>
        <time>2021-08-13T20:54:03.025Z</time>
      </trkpt>
      <trkpt lat="43.80348" lon="6.54307">
        <ele>963</ele>
        <time>2021-08-13T20:54:07.940Z</time>
      </trkpt>
      <trkpt lat="43.80335" lon="6.54346">
        <ele>958</ele>
        <time>2021-08-13T20:54:11.101Z</time>
      </trkpt>
      <trkpt lat="43.80335" lon="6.54356">
        <ele>958</ele>
        <time>2021-08-13T20:54:12.780Z</time>
      </trkpt>
      <trkpt lat="43.80341" lon="6.54406">
        <ele>958</ele>
        <time>2021-08-13T20:54:21.293Z</time>
      </trkpt>
      <trkpt lat="43.80333" lon="6.5446">
        <ele>956</ele>
        <time>2021-08-13T20:54:25.536Z</time>
      </trkpt>
      <trkpt lat="43.80328" lon="6.54477">
        <ele>955</ele>
        <time>2021-08-13T20:54:26.886Z</time>
      </trkpt>
      <trkpt lat="43.80307" lon="6.54533">
        <ele>952</ele>
        <time>2021-08-13T20:54:31.166Z</time>
      </trkpt>
      <trkpt lat="43.80303" lon="6.54555">
        <ele>952</ele>
        <time>2021-08-13T20:54:34.976Z</time>
      </trkpt>
      <trkpt lat="43.80305" lon="6.54573">
        <ele>953</ele>
        <time>2021-08-13T20:54:41.427Z</time>
      </trkpt>
      <trkpt lat="43.80298" lon="6.54608">
        <ele>953</ele>
        <time>2021-08-13T20:54:47.527Z</time>
      </trkpt>
      <trkpt lat="43.8027" lon="6.54662">
        <ele>949</ele>
        <time>2021-08-13T20:54:52.419Z</time>
      </trkpt>
      <trkpt lat="43.8026" lon="6.54678">
        <ele>948</ele>
        <time>2021-08-13T20:54:53.858Z</time>
      </trkpt>
      <trkpt lat="43.80229" lon="6.54704">
        <ele>945</ele>
        <time>2021-08-13T20:54:57.552Z</time>
      </trkpt>
      <trkpt lat="43.80204" lon="6.54714">
        <ele>941</ele>
        <time>2021-08-13T20:55:00.204Z</time>
      </trkpt>
      <trkpt lat="43.80147" lon="6.54746">
        <ele>934</ele>
        <time>2021-08-13T20:55:06.473Z</time>
      </trkpt>
      <trkpt lat="43.80138" lon="6.54749">
        <ele>933</ele>
        <time>2021-08-13T20:55:07.417Z</time>
      </trkpt>
      <trkpt lat="43.80106" lon="6.54743">
        <ele>927</ele>
        <time>2021-08-13T20:55:10.709Z</time>
      </trkpt>
      <trkpt lat="43.80095" lon="6.54744">
        <ele>925</ele>
        <time>2021-08-13T20:55:11.832Z</time>
      </trkpt>
      <trkpt lat="43.80076" lon="6.54756">
        <ele>922</ele>
        <time>2021-08-13T20:55:13.961Z</time>
      </trkpt>
      <trkpt lat="43.80054" lon="6.54787">
        <ele>920</ele>
        <time>2021-08-13T20:55:16.958Z</time>
      </trkpt>
      <trkpt lat="43.80038" lon="6.54817">
        <ele>917</ele>
        <time>2021-08-13T20:55:19.702Z</time>
      </trkpt>
      <trkpt lat="43.80026" lon="6.54822">
        <ele>916</ele>
        <time>2021-08-13T20:55:20.979Z</time>
      </trkpt>
      <trkpt lat="43.80005" lon="6.54813">
        <ele>915</ele>
        <time>2021-08-13T20:55:23.424Z</time>
      </trkpt>
      <trkpt lat="43.79998" lon="6.54805">
        <ele>915</ele>
        <time>2021-08-13T20:55:25.536Z</time>
      </trkpt>
      <trkpt lat="43.79987" lon="6.54782">
        <ele>914</ele>
        <time>2021-08-13T20:55:27.661Z</time>
      </trkpt>
      <trkpt lat="43.79972" lon="6.54729">
        <ele>910</ele>
        <time>2021-08-13T20:55:31.849Z</time>
      </trkpt>
      <trkpt lat="43.79967" lon="6.54704">
        <ele>908</ele>
        <time>2021-08-13T20:55:33.758Z</time>
      </trkpt>
      <trkpt lat="43.79963" lon="6.54657">
        <ele>907</ele>
        <time>2021-08-13T20:55:38.209Z</time>
      </trkpt>
      <trkpt lat="43.79959" lon="6.54645">
        <ele>907</ele>
        <time>2021-08-13T20:55:40.429Z</time>
      </trkpt>
      <trkpt lat="43.79935" lon="6.54602">
        <ele>906</ele>
        <time>2021-08-13T20:55:45.755Z</time>
      </trkpt>
      <trkpt lat="43.79928" lon="6.54594">
        <ele>906</ele>
        <time>2021-08-13T20:55:47.867Z</time>
      </trkpt>
      <trkpt lat="43.79916" lon="6.54593">
        <ele>905</ele>
        <time>2021-08-13T20:55:49.092Z</time>
      </trkpt>
      <trkpt lat="43.79903" lon="6.54589">
        <ele>904</ele>
        <time>2021-08-13T20:55:50.450Z</time>
      </trkpt>
      <trkpt lat="43.79888" lon="6.54575">
        <ele>903</ele>
        <time>2021-08-13T20:55:52.298Z</time>
      </trkpt>
      <trkpt lat="43.79819" lon="6.54549">
        <ele>900</ele>
        <time>2021-08-13T20:56:00.514Z</time>
      </trkpt>
      <trkpt lat="43.79795" lon="6.54541">
        <ele>901</ele>
        <time>2021-08-13T20:56:09.648Z</time>
      </trkpt>
      <trkpt lat="43.79773" lon="6.54545">
        <ele>900</ele>
        <time>2021-08-13T20:56:12.126Z</time>
      </trkpt>
      <trkpt lat="43.79728" lon="6.54566">
        <ele>897</ele>
        <time>2021-08-13T20:56:16.680Z</time>
      </trkpt>
      <trkpt lat="43.79703" lon="6.5457">
        <ele>896</ele>
        <time>2021-08-13T20:56:19.633Z</time>
      </trkpt>
      <trkpt lat="43.79682" lon="6.54571">
        <ele>895</ele>
        <time>2021-08-13T20:56:21.927Z</time>
      </trkpt>
      <trkpt lat="43.79638" lon="6.54565">
        <ele>894</ele>
        <time>2021-08-13T20:56:28.125Z</time>
      </trkpt>
      <trkpt lat="43.79633" lon="6.54565">
        <ele>894</ele>
        <time>2021-08-13T20:56:29.289Z</time>
      </trkpt>
      <trkpt lat="43.79619" lon="6.54564">
        <ele>894</ele>
        <time>2021-08-13T20:56:32.551Z</time>
      </trkpt>
      <trkpt lat="43.79568" lon="6.54563">
        <ele>894</ele>
        <time>2021-08-13T20:56:44.421Z</time>
      </trkpt>
      <trkpt lat="43.7954" lon="6.54569">
        <ele>895</ele>
        <time>2021-08-13T20:56:54.164Z</time>
      </trkpt>
      <trkpt lat="43.79494" lon="6.54588">
        <ele>895</ele>
        <time>2021-08-13T20:57:05.335Z</time>
      </trkpt>
      <trkpt lat="43.79439" lon="6.54615">
        <ele>892</ele>
        <time>2021-08-13T20:57:11.496Z</time>
      </trkpt>
      <trkpt lat="43.79421" lon="6.54615">
        <ele>892</ele>
        <time>2021-08-13T20:57:15.685Z</time>
      </trkpt>
      <trkpt lat="43.7941" lon="6.54613">
        <ele>892</ele>
        <time>2021-08-13T20:57:18.266Z</time>
      </trkpt>
      <trkpt lat="43.79382" lon="6.54597">
        <ele>893</ele>
        <time>2021-08-13T20:57:28.371Z</time>
      </trkpt>
      <trkpt lat="43.79366" lon="6.5458">
        <ele>895</ele>
        <time>2021-08-13T20:57:40.477Z</time>
      </trkpt>
      <trkpt lat="43.7935" lon="6.54559">
        <ele>897</ele>
        <time>2021-08-13T20:57:52.712Z</time>
      </trkpt>
      <trkpt lat="43.79336" lon="6.54547">
        <ele>898</ele>
        <time>2021-08-13T20:57:59.918Z</time>
      </trkpt>
      <trkpt lat="43.79329" lon="6.54543">
        <ele>899</ele>
        <time>2021-08-13T20:58:06.583Z</time>
      </trkpt>
      <trkpt lat="43.79318" lon="6.54547">
        <ele>900</ele>
        <time>2021-08-13T20:58:12.741Z</time>
      </trkpt>
      <trkpt lat="43.79305" lon="6.5456">
        <ele>900</ele>
        <time>2021-08-13T20:58:16.472Z</time>
      </trkpt>
      <trkpt lat="43.79284" lon="6.54571">
        <ele>901</ele>
        <time>2021-08-13T20:58:25.293Z</time>
      </trkpt>
      <trkpt lat="43.79251" lon="6.5457">
        <ele>905</ele>
        <time>2021-08-13T20:58:50.464Z</time>
      </trkpt>
      <trkpt lat="43.79236" lon="6.54556">
        <ele>908</ele>
        <time>2021-08-13T20:59:06.699Z</time>
      </trkpt>
      <trkpt lat="43.79221" lon="6.54535">
        <ele>911</ele>
        <time>2021-08-13T20:59:25.841Z</time>
      </trkpt>
      <trkpt lat="43.79186" lon="6.54504">
        <ele>916</ele>
        <time>2021-08-13T20:59:57.204Z</time>
      </trkpt>
      <trkpt lat="43.79159" lon="6.54484">
        <ele>920</ele>
        <time>2021-08-13T21:00:23.621Z</time>
      </trkpt>
      <trkpt lat="43.79097" lon="6.54457">
        <ele>920</ele>
        <time>2021-08-13T21:00:38.746Z</time>
      </trkpt>
      <trkpt lat="43.79061" lon="6.54416">
        <ele>922</ele>
        <time>2021-08-13T21:00:56.615Z</time>
      </trkpt>
      <trkpt lat="43.79048" lon="6.54395">
        <ele>922</ele>
        <time>2021-08-13T21:01:01.263Z</time>
      </trkpt>
      <trkpt lat="43.79025" lon="6.54365">
        <ele>922</ele>
        <time>2021-08-13T21:01:08.614Z</time>
      </trkpt>
      <trkpt lat="43.78993" lon="6.54307">
        <ele>919</ele>
        <time>2021-08-13T21:01:13.928Z</time>
      </trkpt>
      <trkpt lat="43.78983" lon="6.54288">
        <ele>917</ele>
        <time>2021-08-13T21:01:15.658Z</time>
      </trkpt>
      <trkpt lat="43.78974" lon="6.54273">
        <ele>915</ele>
        <time>2021-08-13T21:01:17.093Z</time>
      </trkpt>
      <trkpt lat="43.78968" lon="6.54249">
        <ele>914</ele>
        <time>2021-08-13T21:01:18.979Z</time>
      </trkpt>
      <trkpt lat="43.78963" lon="6.54218">
        <ele>914</ele>
        <time>2021-08-13T21:01:24.315Z</time>
      </trkpt>
      <trkpt lat="43.78963" lon="6.54213">
        <ele>914</ele>
        <time>2021-08-13T21:01:25.155Z</time>
      </trkpt>
      <trkpt lat="43.78956" lon="6.54148">
        <ele>915</ele>
        <time>2021-08-13T21:01:38.837Z</time>
      </trkpt>
      <trkpt lat="43.78948" lon="6.54122">
        <ele>913</ele>
        <time>2021-08-13T21:01:40.917Z</time>
      </trkpt>
      <trkpt lat="43.78938" lon="6.54094">
        <ele>911</ele>
        <time>2021-08-13T21:01:43.215Z</time>
      </trkpt>
      <trkpt lat="43.78926" lon="6.54038">
        <ele>907</ele>
        <time>2021-08-13T21:01:47.514Z</time>
      </trkpt>
      <trkpt lat="43.78921" lon="6.54009">
        <ele>905</ele>
        <time>2021-08-13T21:01:49.708Z</time>
      </trkpt>
      <trkpt lat="43.78923" lon="6.53986">
        <ele>902</ele>
        <time>2021-08-13T21:01:51.412Z</time>
      </trkpt>
      <trkpt lat="43.78936" lon="6.53953">
        <ele>901</ele>
        <time>2021-08-13T21:01:54.687Z</time>
      </trkpt>
      <trkpt lat="43.78954" lon="6.53918">
        <ele>899</ele>
        <time>2021-08-13T21:01:57.633Z</time>
      </trkpt>
      <trkpt lat="43.78972" lon="6.53893">
        <ele>900</ele>
        <time>2021-08-13T21:02:06.892Z</time>
      </trkpt>
      <trkpt lat="43.78979" lon="6.53883">
        <ele>900</ele>
        <time>2021-08-13T21:02:09.232Z</time>
      </trkpt>
      <trkpt lat="43.79009" lon="6.53851">
        <ele>898</ele>
        <time>2021-08-13T21:02:13.182Z</time>
      </trkpt>
      <trkpt lat="43.79014" lon="6.53836">
        <ele>896</ele>
        <time>2021-08-13T21:02:14.398Z</time>
      </trkpt>
      <trkpt lat="43.79012" lon="6.53822">
        <ele>896</ele>
        <time>2021-08-13T21:02:16.795Z</time>
      </trkpt>
      <trkpt lat="43.78997" lon="6.53799">
        <ele>897</ele>
        <time>2021-08-13T21:02:25.594Z</time>
      </trkpt>
      <trkpt lat="43.78988" lon="6.5378">
        <ele>898</ele>
        <time>2021-08-13T21:02:32.786Z</time>
      </trkpt>
      <trkpt lat="43.78976" lon="6.53763">
        <ele>898</ele>
        <time>2021-08-13T21:02:36.780Z</time>
      </trkpt>
      <trkpt lat="43.78959" lon="6.53763">
        <ele>897</ele>
        <time>2021-08-13T21:02:38.468Z</time>
      </trkpt>
      <trkpt lat="43.78943" lon="6.53768">
        <ele>895</ele>
        <time>2021-08-13T21:02:40.140Z</time>
      </trkpt>
      <trkpt lat="43.78933" lon="6.53763">
        <ele>895</ele>
        <time>2021-08-13T21:02:42.614Z</time>
      </trkpt>
      <trkpt lat="43.7892" lon="6.5375">
        <ele>895</ele>
        <time>2021-08-13T21:02:46.345Z</time>
      </trkpt>
      <trkpt lat="43.78911" lon="6.53737">
        <ele>897</ele>
        <time>2021-08-13T21:02:58.017Z</time>
      </trkpt>
      <trkpt lat="43.78913" lon="6.53728">
        <ele>898</ele>
        <time>2021-08-13T21:03:04.119Z</time>
      </trkpt>
      <trkpt lat="43.78931" lon="6.53718">
        <ele>900</ele>
        <time>2021-08-13T21:03:16.224Z</time>
      </trkpt>
      <trkpt lat="43.78944" lon="6.53705">
        <ele>903</ele>
        <time>2021-08-13T21:03:30.616Z</time>
      </trkpt>
      <trkpt lat="43.78948" lon="6.53692">
        <ele>905</ele>
        <time>2021-08-13T21:03:39.773Z</time>
      </trkpt>
      <trkpt lat="43.78946" lon="6.53678">
        <ele>907</ele>
        <time>2021-08-13T21:03:49.020Z</time>
      </trkpt>
      <trkpt lat="43.78931" lon="6.53656">
        <ele>909</ele>
        <time>2021-08-13T21:04:01.235Z</time>
      </trkpt>
      <trkpt lat="43.78931" lon="6.53645">
        <ele>910</ele>
        <time>2021-08-13T21:04:07.666Z</time>
      </trkpt>
      <trkpt lat="43.78939" lon="6.53637">
        <ele>912</ele>
        <time>2021-08-13T21:04:16.522Z</time>
      </trkpt>
      <trkpt lat="43.78952" lon="6.53631">
        <ele>913</ele>
        <time>2021-08-13T21:04:23.086Z</time>
      </trkpt>
      <trkpt lat="43.78956" lon="6.53624">
        <ele>915</ele>
        <time>2021-08-13T21:04:28.871Z</time>
      </trkpt>
      <trkpt lat="43.78955" lon="6.53615">
        <ele>916</ele>
        <time>2021-08-13T21:04:34.772Z</time>
      </trkpt>
      <trkpt lat="43.78938" lon="6.53605">
        <ele>916</ele>
        <time>2021-08-13T21:04:39.070Z</time>
      </trkpt>
      <trkpt lat="43.78932" lon="6.53596">
        <ele>916</ele>
        <time>2021-08-13T21:04:41.128Z</time>
      </trkpt>
      <trkpt lat="43.78927" lon="6.53578">
        <ele>919</ele>
        <time>2021-08-13T21:04:53.625Z</time>
      </trkpt>
      <trkpt lat="43.78914" lon="6.53546">
        <ele>924</ele>
        <time>2021-08-13T21:05:17.418Z</time>
      </trkpt>
      <trkpt lat="43.78915" lon="6.53537">
        <ele>925</ele>
        <time>2021-08-13T21:05:23.319Z</time>
      </trkpt>
      <trkpt lat="43.78919" lon="6.53533">
        <ele>926</ele>
        <time>2021-08-13T21:05:27.747Z</time>
      </trkpt>
      <trkpt lat="43.78933" lon="6.53535">
        <ele>927</ele>
        <time>2021-08-13T21:05:34.390Z</time>
      </trkpt>
      <trkpt lat="43.78939" lon="6.53526">
        <ele>929</ele>
        <time>2021-08-13T21:05:42.329Z</time>
      </trkpt>
      <trkpt lat="43.78937" lon="6.53511">
        <ele>932</ele>
        <time>2021-08-13T21:05:52.213Z</time>
      </trkpt>
      <trkpt lat="43.78921" lon="6.53445">
        <ele>944</ele>
        <time>2021-08-13T21:06:37.326Z</time>
      </trkpt>
      <trkpt lat="43.78912" lon="6.53429">
        <ele>946</ele>
        <time>2021-08-13T21:06:50.470Z</time>
      </trkpt>
      <trkpt lat="43.78858" lon="6.53363">
        <ele>954</ele>
        <time>2021-08-13T21:07:39.331Z</time>
      </trkpt>
      <trkpt lat="43.78839" lon="6.53337">
        <ele>958</ele>
        <time>2021-08-13T21:08:03.304Z</time>
      </trkpt>
      <trkpt lat="43.78825" lon="6.53316">
        <ele>959</ele>
        <time>2021-08-13T21:08:11.617Z</time>
      </trkpt>
      <trkpt lat="43.78821" lon="6.53312">
        <ele>959</ele>
        <time>2021-08-13T21:08:12.765Z</time>
      </trkpt>
      <trkpt lat="43.78815" lon="6.53306">
        <ele>960</ele>
        <time>2021-08-13T21:08:19.407Z</time>
      </trkpt>
      <trkpt lat="43.78801" lon="6.53293">
        <ele>960</ele>
        <time>2021-08-13T21:08:23.329Z</time>
      </trkpt>
      <trkpt lat="43.78805" lon="6.53278">
        <ele>960</ele>
        <time>2021-08-13T21:08:26.016Z</time>
      </trkpt>
      <trkpt lat="43.7881" lon="6.53264">
        <ele>961</ele>
        <time>2021-08-13T21:08:32.162Z</time>
      </trkpt>
      <trkpt lat="43.78817" lon="6.5326">
        <ele>962</ele>
        <time>2021-08-13T21:08:38.827Z</time>
      </trkpt>
      <trkpt lat="43.78823" lon="6.53254">
        <ele>963</ele>
        <time>2021-08-13T21:08:45.469Z</time>
      </trkpt>
      <trkpt lat="43.78837" lon="6.53249">
        <ele>964</ele>
        <time>2021-08-13T21:08:52.197Z</time>
      </trkpt>
      <trkpt lat="43.78845" lon="6.5325">
        <ele>965</ele>
        <time>2021-08-13T21:08:58.582Z</time>
      </trkpt>
      <trkpt lat="43.78871" lon="6.53262">
        <ele>967</ele>
        <time>2021-08-13T21:09:11.710Z</time>
      </trkpt>
      <trkpt lat="43.7888" lon="6.53264">
        <ele>968</ele>
        <time>2021-08-13T21:09:17.803Z</time>
      </trkpt>
      <trkpt lat="43.78896" lon="6.53263">
        <ele>970</ele>
        <time>2021-08-13T21:09:30.596Z</time>
      </trkpt>
      <trkpt lat="43.78907" lon="6.53253">
        <ele>972</ele>
        <time>2021-08-13T21:09:42.406Z</time>
      </trkpt>
      <trkpt lat="43.78919" lon="6.53247">
        <ele>974</ele>
        <time>2021-08-13T21:09:53.858Z</time>
      </trkpt>
      <trkpt lat="43.7894" lon="6.53235">
        <ele>978</ele>
        <time>2021-08-13T21:10:14.249Z</time>
      </trkpt>
      <trkpt lat="43.78953" lon="6.53218">
        <ele>980</ele>
        <time>2021-08-13T21:10:26.483Z</time>
      </trkpt>
      <trkpt lat="43.7898" lon="6.53174">
        <ele>987</ele>
        <time>2021-08-13T21:11:03.903Z</time>
      </trkpt>
      <trkpt lat="43.78985" lon="6.53158">
        <ele>989</ele>
        <time>2021-08-13T21:11:15.200Z</time>
      </trkpt>
      <trkpt lat="43.79004" lon="6.53111">
        <ele>995</ele>
        <time>2021-08-13T21:11:50.105Z</time>
      </trkpt>
      <trkpt lat="43.79013" lon="6.53098">
        <ele>996</ele>
        <time>2021-08-13T21:11:56.528Z</time>
      </trkpt>
      <trkpt lat="43.79022" lon="6.53093">
        <ele>997</ele>
        <time>2021-08-13T21:12:02.581Z</time>
      </trkpt>
      <trkpt lat="43.79038" lon="6.53089">
        <ele>997</ele>
        <time>2021-08-13T21:12:06.365Z</time>
      </trkpt>
      <trkpt lat="43.79064" lon="6.53074">
        <ele>999</ele>
        <time>2021-08-13T21:12:19.655Z</time>
      </trkpt>
      <trkpt lat="43.79082" lon="6.53053">
        <ele>1001</ele>
        <time>2021-08-13T21:12:32.079Z</time>
      </trkpt>
      <trkpt lat="43.79095" lon="6.53035">
        <ele>1002</ele>
        <time>2021-08-13T21:12:39.780Z</time>
      </trkpt>
      <trkpt lat="43.79108" lon="6.53002">
        <ele>1005</ele>
        <time>2021-08-13T21:12:58.085Z</time>
      </trkpt>
      <trkpt lat="43.79125" lon="6.52988">
        <ele>1005</ele>
        <time>2021-08-13T21:13:02.687Z</time>
      </trkpt>
      <trkpt lat="43.79137" lon="6.52986">
        <ele>1005</ele>
        <time>2021-08-13T21:13:05.500Z</time>
      </trkpt>
      <trkpt lat="43.79149" lon="6.52979">
        <ele>1006</ele>
        <time>2021-08-13T21:13:11.927Z</time>
      </trkpt>
      <trkpt lat="43.79174" lon="6.52939">
        <ele>1005</ele>
        <time>2021-08-13T21:13:17.072Z</time>
      </trkpt>
      <trkpt lat="43.79225" lon="6.52896">
        <ele>1005</ele>
        <time>2021-08-13T21:13:30.966Z</time>
      </trkpt>
      <trkpt lat="43.79268" lon="6.52873">
        <ele>1006</ele>
        <time>2021-08-13T21:13:44.353Z</time>
      </trkpt>
      <trkpt lat="43.79329" lon="6.52832">
        <ele>1010</ele>
        <time>2021-08-13T21:14:13.670Z</time>
      </trkpt>
      <trkpt lat="43.7934" lon="6.52818">
        <ele>1010</ele>
        <time>2021-08-13T21:14:17.146Z</time>
      </trkpt>
      <trkpt lat="43.79349" lon="6.52802">
        <ele>1010</ele>
        <time>2021-08-13T21:14:20.554Z</time>
      </trkpt>
      <trkpt lat="43.79373" lon="6.52776">
        <ele>1011</ele>
        <time>2021-08-13T21:14:30.692Z</time>
      </trkpt>
      <trkpt lat="43.79376" lon="6.52769">
        <ele>1011</ele>
        <time>2021-08-13T21:14:32.059Z</time>
      </trkpt>
      <trkpt lat="43.79387" lon="6.52751">
        <ele>1012</ele>
        <time>2021-08-13T21:14:39.407Z</time>
      </trkpt>
      <trkpt lat="43.79419" lon="6.52718">
        <ele>1015</ele>
        <time>2021-08-13T21:14:58.851Z</time>
      </trkpt>
      <trkpt lat="43.7944" lon="6.52691">
        <ele>1018</ele>
        <time>2021-08-13T21:15:17.023Z</time>
      </trkpt>
      <trkpt lat="43.79451" lon="6.52683">
        <ele>1020</ele>
        <time>2021-08-13T21:15:28.175Z</time>
      </trkpt>
      <trkpt lat="43.79477" lon="6.52684">
        <ele>1022</ele>
        <time>2021-08-13T21:15:41.023Z</time>
      </trkpt>
      <trkpt lat="43.7949" lon="6.52682">
        <ele>1023</ele>
        <time>2021-08-13T21:15:47.461Z</time>
      </trkpt>
      <trkpt lat="43.7951" lon="6.5267">
        <ele>1025</ele>
        <time>2021-08-13T21:15:59.671Z</time>
      </trkpt>
      <trkpt lat="43.79597" lon="6.52665">
        <ele>1024</ele>
        <time>2021-08-13T21:16:13.648Z</time>
      </trkpt>
      <trkpt lat="43.79628" lon="6.52655">
        <ele>1025</ele>
        <time>2021-08-13T21:16:24.048Z</time>
      </trkpt>
      <trkpt lat="43.79674" lon="6.52651">
        <ele>1026</ele>
        <time>2021-08-13T21:16:37.435Z</time>
      </trkpt>
      <trkpt lat="43.79688" lon="6.52646">
        <ele>1027</ele>
        <time>2021-08-13T21:16:44.163Z</time>
      </trkpt>
      <trkpt lat="43.79726" lon="6.52626">
        <ele>1030</ele>
        <time>2021-08-13T21:17:03.760Z</time>
      </trkpt>
      <trkpt lat="43.79749" lon="6.52621">
        <ele>1031</ele>
        <time>2021-08-13T21:17:12.692Z</time>
      </trkpt>
      <trkpt lat="43.79763" lon="6.5261">
        <ele>1033</ele>
        <time>2021-08-13T21:17:25.448Z</time>
      </trkpt>
      <trkpt lat="43.79775" lon="6.52607">
        <ele>1034</ele>
        <time>2021-08-13T21:17:31.727Z</time>
      </trkpt>
      <trkpt lat="43.79794" lon="6.5261">
        <ele>1035</ele>
        <time>2021-08-13T21:17:39.627Z</time>
      </trkpt>
      <trkpt lat="43.79848" lon="6.5261">
        <ele>1038</ele>
        <time>2021-08-13T21:18:02.430Z</time>
      </trkpt>
      <trkpt lat="43.79857" lon="6.52606">
        <ele>1038</ele>
        <time>2021-08-13T21:18:04.630Z</time>
      </trkpt>
      <trkpt lat="43.79908" lon="6.52569">
        <ele>1042</ele>
        <time>2021-08-13T21:18:31.483Z</time>
      </trkpt>
      <trkpt lat="43.79941" lon="6.52553">
        <ele>1044</ele>
        <time>2021-08-13T21:18:46.415Z</time>
      </trkpt>
      <trkpt lat="43.8" lon="6.52519">
        <ele>1046</ele>
        <time>2021-08-13T21:19:07.262Z</time>
      </trkpt>
      <trkpt lat="43.80009" lon="6.52493">
        <ele>1048</ele>
        <time>2021-08-13T21:19:19.396Z</time>
      </trkpt>
      <trkpt lat="43.80052" lon="6.52437">
        <ele>1051</ele>
        <time>2021-08-13T21:19:43.541Z</time>
      </trkpt>
      <trkpt lat="43.80111" lon="6.52409">
        <ele>1054</ele>
        <time>2021-08-13T21:20:08.607Z</time>
      </trkpt>
      <trkpt lat="43.80185" lon="6.52362">
        <ele>1057</ele>
        <time>2021-08-13T21:20:37.205Z</time>
      </trkpt>
      <trkpt lat="43.80292" lon="6.52221">
        <ele>1046</ele>
        <time>2021-08-13T21:20:52.257Z</time>
      </trkpt>
      <trkpt lat="43.80319" lon="6.52195">
        <ele>1041</ele>
        <time>2021-08-13T21:20:55.609Z</time>
      </trkpt>
      <trkpt lat="43.80348" lon="6.52197">
        <ele>1041</ele>
        <time>2021-08-13T21:21:02.366Z</time>
      </trkpt>
      <trkpt lat="43.80416" lon="6.52191">
        <ele>1035</ele>
        <time>2021-08-13T21:21:09.311Z</time>
      </trkpt>
      <trkpt lat="43.80456" lon="6.52192">
        <ele>1044</ele>
        <time>2021-08-13T21:21:45.222Z</time>
      </trkpt>
      <trkpt lat="43.80498" lon="6.52205">
        <ele>1055</ele>
        <time>2021-08-13T21:22:23.851Z</time>
      </trkpt>
      <trkpt lat="43.80543" lon="6.52225">
        <ele>1076</ele>
        <time>2021-08-13T21:23:06.270Z</time>
      </trkpt>
      <trkpt lat="43.80612" lon="6.52245">
        <ele>1110</ele>
        <time>2021-08-13T21:24:09.546Z</time>
      </trkpt>
      <trkpt lat="43.80612" lon="6.52237">
        <ele>1109</ele>
        <time>2021-08-13T21:24:10.135Z</time>
      </trkpt>
      <trkpt lat="43.80614" lon="6.52228">
        <ele>1108</ele>
        <time>2021-08-13T21:24:10.827Z</time>
      </trkpt>
      <trkpt lat="43.80628" lon="6.52211">
        <ele>1112</ele>
        <time>2021-08-13T21:24:27.536Z</time>
      </trkpt>
      <trkpt lat="43.80641" lon="6.52187">
        <ele>1113</ele>
        <time>2021-08-13T21:24:36.133Z</time>
      </trkpt>
      <trkpt lat="43.80655" lon="6.52155">
        <ele>1113</ele>
        <time>2021-08-13T21:24:42.418Z</time>
      </trkpt>
      <trkpt lat="43.80666" lon="6.52124">
        <ele>1111</ele>
        <time>2021-08-13T21:24:44.959Z</time>
      </trkpt>
      <trkpt lat="43.80689" lon="6.52067">
        <ele>1110</ele>
        <time>2021-08-13T21:24:51.673Z</time>
      </trkpt>
      <trkpt lat="43.80711" lon="6.51981">
        <ele>1106</ele>
        <time>2021-08-13T21:24:58.111Z</time>
      </trkpt>
      <trkpt lat="43.80725" lon="6.51935">
        <ele>1103</ele>
        <time>2021-08-13T21:25:01.783Z</time>
      </trkpt>
      <trkpt lat="43.80732" lon="6.51926">
        <ele>1104</ele>
        <time>2021-08-13T21:25:07.841Z</time>
      </trkpt>
      <trkpt lat="43.80762" lon="6.51893">
        <ele>1106</ele>
        <time>2021-08-13T21:25:23.657Z</time>
      </trkpt>
      <trkpt lat="43.80793" lon="6.5185">
        <ele>1103</ele>
        <time>2021-08-13T21:25:28.128Z</time>
      </trkpt>
      <trkpt lat="43.80805" lon="6.51836">
        <ele>1102</ele>
        <time>2021-08-13T21:25:29.626Z</time>
      </trkpt>
      <trkpt lat="43.80848" lon="6.51801">
        <ele>1106</ele>
        <time>2021-08-13T21:25:54.926Z</time>
      </trkpt>
      <trkpt lat="43.80854" lon="6.51791">
        <ele>1105</ele>
        <time>2021-08-13T21:25:55.883Z</time>
      </trkpt>
      <trkpt lat="43.80862" lon="6.51757">
        <ele>1103</ele>
        <time>2021-08-13T21:25:58.514Z</time>
      </trkpt>
      <trkpt lat="43.80869" lon="6.5174">
        <ele>1104</ele>
        <time>2021-08-13T21:26:05.168Z</time>
      </trkpt>
      <trkpt lat="43.80873" lon="6.51734">
        <ele>1105</ele>
        <time>2021-08-13T21:26:10.459Z</time>
      </trkpt>
      <trkpt lat="43.80887" lon="6.51721">
        <ele>1107</ele>
        <time>2021-08-13T21:26:22.927Z</time>
      </trkpt>
      <trkpt lat="43.80899" lon="6.51706">
        <ele>1108</ele>
        <time>2021-08-13T21:26:30.058Z</time>
      </trkpt>
      <trkpt lat="43.80937" lon="6.51685">
        <ele>1106</ele>
        <time>2021-08-13T21:26:34.473Z</time>
      </trkpt>
      <trkpt lat="43.80962" lon="6.51662">
        <ele>1104</ele>
        <time>2021-08-13T21:26:37.276Z</time>
      </trkpt>
      <trkpt lat="43.80969" lon="6.51659">
        <ele>1103</ele>
        <time>2021-08-13T21:26:38.023Z</time>
      </trkpt>
      <trkpt lat="43.80977" lon="6.51661">
        <ele>1102</ele>
        <time>2021-08-13T21:26:38.852Z</time>
      </trkpt>
      <trkpt lat="43.80985" lon="6.51666">
        <ele>1101</ele>
        <time>2021-08-13T21:26:39.746Z</time>
      </trkpt>
      <trkpt lat="43.81006" lon="6.51681">
        <ele>1099</ele>
        <time>2021-08-13T21:26:42.154Z</time>
      </trkpt>
      <trkpt lat="43.81043" lon="6.51703">
        <ele>1091</ele>
        <time>2021-08-13T21:26:46.259Z</time>
      </trkpt>
      <trkpt lat="43.81059" lon="6.51702">
        <ele>1089</ele>
        <time>2021-08-13T21:26:47.891Z</time>
      </trkpt>
      <trkpt lat="43.8109" lon="6.51708">
        <ele>1082</ele>
        <time>2021-08-13T21:26:51.082Z</time>
      </trkpt>
      <trkpt lat="43.81127" lon="6.51709">
        <ele>1073</ele>
        <time>2021-08-13T21:26:54.854Z</time>
      </trkpt>
      <trkpt lat="43.81143" lon="6.51699">
        <ele>1070</ele>
        <time>2021-08-13T21:26:56.643Z</time>
      </trkpt>
      <trkpt lat="43.81152" lon="6.51679">
        <ele>1069</ele>
        <time>2021-08-13T21:26:58.332Z</time>
      </trkpt>
      <trkpt lat="43.81154" lon="6.51662">
        <ele>1070</ele>
        <time>2021-08-13T21:27:04.651Z</time>
      </trkpt>
      <trkpt lat="43.81153" lon="6.51505">
        <ele>1071</ele>
        <time>2021-08-13T21:27:33.336Z</time>
      </trkpt>
      <trkpt lat="43.81156" lon="6.51488">
        <ele>1069</ele>
        <time>2021-08-13T21:27:34.624Z</time>
      </trkpt>
      <trkpt lat="43.81159" lon="6.51442">
        <ele>1065</ele>
        <time>2021-08-13T21:27:38.021Z</time>
      </trkpt>
      <trkpt lat="43.81155" lon="6.51427">
        <ele>1064</ele>
        <time>2021-08-13T21:27:39.197Z</time>
      </trkpt>
      <trkpt lat="43.81149" lon="6.51422">
        <ele>1065</ele>
        <time>2021-08-13T21:27:45.482Z</time>
      </trkpt>
      <trkpt lat="43.81119" lon="6.51413">
        <ele>1068</ele>
        <time>2021-08-13T21:28:03.657Z</time>
      </trkpt>
      <trkpt lat="43.8111" lon="6.51403">
        <ele>1067</ele>
        <time>2021-08-13T21:28:04.833Z</time>
      </trkpt>
      <trkpt lat="43.81094" lon="6.51371">
        <ele>1063</ele>
        <time>2021-08-13T21:28:07.696Z</time>
      </trkpt>
      <trkpt lat="43.81072" lon="6.51318">
        <ele>1056</ele>
        <time>2021-08-13T21:28:12.194Z</time>
      </trkpt>
      <trkpt lat="43.8106" lon="6.51279">
        <ele>1052</ele>
        <time>2021-08-13T21:28:15.313Z</time>
      </trkpt>
      <trkpt lat="43.81049" lon="6.51251">
        <ele>1049</ele>
        <time>2021-08-13T21:28:17.658Z</time>
      </trkpt>
      <trkpt lat="43.81036" lon="6.51232">
        <ele>1046</ele>
        <time>2021-08-13T21:28:19.584Z</time>
      </trkpt>
      <trkpt lat="43.81032" lon="6.51224">
        <ele>1045</ele>
        <time>2021-08-13T21:28:20.300Z</time>
      </trkpt>
      <trkpt lat="43.81056" lon="6.51217">
        <ele>1043</ele>
        <time>2021-08-13T21:28:22.800Z</time>
      </trkpt>
      <trkpt lat="43.81072" lon="6.51206">
        <ele>1042</ele>
        <time>2021-08-13T21:28:24.614Z</time>
      </trkpt>
      <trkpt lat="43.81087" lon="6.51202">
        <ele>1041</ele>
        <time>2021-08-13T21:28:26.054Z</time>
      </trkpt>
      <trkpt lat="43.81124" lon="6.51203">
        <ele>1042</ele>
        <time>2021-08-13T21:28:37.499Z</time>
      </trkpt>
      <trkpt lat="43.8114" lon="6.51199">
        <ele>1042</ele>
        <time>2021-08-13T21:28:41.282Z</time>
      </trkpt>
      <trkpt lat="43.81149" lon="6.51194">
        <ele>1042</ele>
        <time>2021-08-13T21:28:43.539Z</time>
      </trkpt>
      <trkpt lat="43.81165" lon="6.51179">
        <ele>1043</ele>
        <time>2021-08-13T21:28:51.491Z</time>
      </trkpt>
      <trkpt lat="43.81173" lon="6.51168">
        <ele>1044</ele>
        <time>2021-08-13T21:28:57.637Z</time>
      </trkpt>
      <trkpt lat="43.8119" lon="6.51133">
        <ele>1043</ele>
        <time>2021-08-13T21:29:01.460Z</time>
      </trkpt>
      <trkpt lat="43.81199" lon="6.51119">
        <ele>1043</ele>
        <time>2021-08-13T21:29:04.609Z</time>
      </trkpt>
      <trkpt lat="43.81217" lon="6.51098">
        <ele>1043</ele>
        <time>2021-08-13T21:29:10.084Z</time>
      </trkpt>
      <trkpt lat="43.81249" lon="6.51068">
        <ele>1045</ele>
        <time>2021-08-13T21:29:25.989Z</time>
      </trkpt>
      <trkpt lat="43.81296" lon="6.51037">
        <ele>1043</ele>
        <time>2021-08-13T21:29:32.174Z</time>
      </trkpt>
      <trkpt lat="43.8131" lon="6.51021">
        <ele>1042</ele>
        <time>2021-08-13T21:29:34.031Z</time>
      </trkpt>
      <trkpt lat="43.81324" lon="6.51">
        <ele>1040</ele>
        <time>2021-08-13T21:29:36.134Z</time>
      </trkpt>
      <trkpt lat="43.81344" lon="6.50989">
        <ele>1040</ele>
        <time>2021-08-13T21:29:41.142Z</time>
      </trkpt>
      <trkpt lat="43.81357" lon="6.50987">
        <ele>1039</ele>
        <time>2021-08-13T21:29:42.475Z</time>
      </trkpt>
      <trkpt lat="43.8138" lon="6.50994">
        <ele>1036</ele>
        <time>2021-08-13T21:29:44.876Z</time>
      </trkpt>
      <trkpt lat="43.81398" lon="6.50993">
        <ele>1035</ele>
        <time>2021-08-13T21:29:46.713Z</time>
      </trkpt>
      <trkpt lat="43.81417" lon="6.50982">
        <ele>1033</ele>
        <time>2021-08-13T21:29:48.812Z</time>
      </trkpt>
      <trkpt lat="43.8143" lon="6.50967">
        <ele>1032</ele>
        <time>2021-08-13T21:29:50.488Z</time>
      </trkpt>
      <trkpt lat="43.81434" lon="6.50955">
        <ele>1031</ele>
        <time>2021-08-13T21:29:51.460Z</time>
      </trkpt>
      <trkpt lat="43.81435" lon="6.50942">
        <ele>1032</ele>
        <time>2021-08-13T21:29:57.524Z</time>
      </trkpt>
      <trkpt lat="43.81435" lon="6.50928">
        <ele>1032</ele>
        <time>2021-08-13T21:29:59.875Z</time>
      </trkpt>
      <trkpt lat="43.81433" lon="6.50912">
        <ele>1032</ele>
        <time>2021-08-13T21:30:02.601Z</time>
      </trkpt>
      <trkpt lat="43.81421" lon="6.50861">
        <ele>1031</ele>
        <time>2021-08-13T21:30:07.836Z</time>
      </trkpt>
      <trkpt lat="43.81417" lon="6.50824">
        <ele>1030</ele>
        <time>2021-08-13T21:30:11.087Z</time>
      </trkpt>
      <trkpt lat="43.81416" lon="6.5072">
        <ele>1028</ele>
        <time>2021-08-13T21:30:21.147Z</time>
      </trkpt>
      <trkpt lat="43.81432" lon="6.5063">
        <ele>1024</ele>
        <time>2021-08-13T21:30:27.736Z</time>
      </trkpt>
      <trkpt lat="43.81444" lon="6.50509">
        <ele>1021</ele>
        <time>2021-08-13T21:30:38.670Z</time>
      </trkpt>
      <trkpt lat="43.81452" lon="6.50458">
        <ele>1018</ele>
        <time>2021-08-13T21:30:42.509Z</time>
      </trkpt>
      <trkpt lat="43.81459" lon="6.5043">
        <ele>1016</ele>
        <time>2021-08-13T21:30:44.688Z</time>
      </trkpt>
      <trkpt lat="43.8148" lon="6.50376">
        <ele>1011</ele>
        <time>2021-08-13T21:30:49.200Z</time>
      </trkpt>
      <trkpt lat="43.8149" lon="6.50356">
        <ele>1009</ele>
        <time>2021-08-13T21:30:50.990Z</time>
      </trkpt>
      <trkpt lat="43.815" lon="6.50343">
        <ele>1007</ele>
        <time>2021-08-13T21:30:52.388Z</time>
      </trkpt>
      <trkpt lat="43.81504" lon="6.50343">
        <ele>1007</ele>
        <time>2021-08-13T21:30:53.318Z</time>
      </trkpt>
      <trkpt lat="43.81508" lon="6.50347">
        <ele>1006</ele>
        <time>2021-08-13T21:30:53.821Z</time>
      </trkpt>
      <trkpt lat="43.81508" lon="6.50354">
        <ele>1005</ele>
        <time>2021-08-13T21:30:54.336Z</time>
      </trkpt>
      <trkpt lat="43.81506" lon="6.50361">
        <ele>1005</ele>
        <time>2021-08-13T21:30:55.600Z</time>
      </trkpt>
      <trkpt lat="43.81493" lon="6.50383">
        <ele>1006</ele>
        <time>2021-08-13T21:31:03.881Z</time>
      </trkpt>
      <trkpt lat="43.8149" lon="6.50393">
        <ele>1006</ele>
        <time>2021-08-13T21:31:05.700Z</time>
      </trkpt>
      <trkpt lat="43.81486" lon="6.50419">
        <ele>1005</ele>
        <time>2021-08-13T21:31:07.713Z</time>
      </trkpt>
      <trkpt lat="43.81486" lon="6.50431">
        <ele>1006</ele>
        <time>2021-08-13T21:31:13.884Z</time>
      </trkpt>
      <trkpt lat="43.81492" lon="6.50453">
        <ele>1005</ele>
        <time>2021-08-13T21:31:15.568Z</time>
      </trkpt>
      <trkpt lat="43.81502" lon="6.50475">
        <ele>1003</ele>
        <time>2021-08-13T21:31:17.480Z</time>
      </trkpt>
      <trkpt lat="43.81517" lon="6.50497">
        <ele>1002</ele>
        <time>2021-08-13T21:31:19.903Z</time>
      </trkpt>
      <trkpt lat="43.81544" lon="6.50527">
        <ele>996</ele>
        <time>2021-08-13T21:31:23.431Z</time>
      </trkpt>
      <trkpt lat="43.8155" lon="6.50548">
        <ele>994</ele>
        <time>2021-08-13T21:31:25.092Z</time>
      </trkpt>
      <trkpt lat="43.81551" lon="6.50569">
        <ele>993</ele>
        <time>2021-08-13T21:31:26.519Z</time>
      </trkpt>
      <trkpt lat="43.81551" lon="6.50633">
        <ele>990</ele>
        <time>2021-08-13T21:31:30.888Z</time>
      </trkpt>
      <trkpt lat="43.81548" lon="6.5066">
        <ele>989</ele>
        <time>2021-08-13T21:31:32.982Z</time>
      </trkpt>
      <trkpt lat="43.81536" lon="6.50706">
        <ele>992</ele>
        <time>2021-08-13T21:31:51.617Z</time>
      </trkpt>
      <trkpt lat="43.81536" lon="6.50716">
        <ele>991</ele>
        <time>2021-08-13T21:31:52.353Z</time>
      </trkpt>
      <trkpt lat="43.81539" lon="6.50724">
        <ele>990</ele>
        <time>2021-08-13T21:31:53.016Z</time>
      </trkpt>
      <trkpt lat="43.81574" lon="6.50758">
        <ele>979</ele>
        <time>2021-08-13T21:31:57.373Z</time>
      </trkpt>
      <trkpt lat="43.81595" lon="6.5079">
        <ele>979</ele>
        <time>2021-08-13T21:32:04.636Z</time>
      </trkpt>
      <trkpt lat="43.81645" lon="6.50895">
        <ele>969</ele>
        <time>2021-08-13T21:32:13.889Z</time>
      </trkpt>
      <trkpt lat="43.81648" lon="6.50903">
        <ele>968</ele>
        <time>2021-08-13T21:32:14.552Z</time>
      </trkpt>
      <trkpt lat="43.81654" lon="6.50932">
        <ele>964</ele>
        <time>2021-08-13T21:32:16.771Z</time>
      </trkpt>
      <trkpt lat="43.8166" lon="6.50938">
        <ele>960</ele>
        <time>2021-08-13T21:32:17.525Z</time>
      </trkpt>
      <trkpt lat="43.81663" lon="6.50937">
        <ele>959</ele>
        <time>2021-08-13T21:32:17.840Z</time>
      </trkpt>
      <trkpt lat="43.81667" lon="6.50931">
        <ele>958</ele>
        <time>2021-08-13T21:32:18.441Z</time>
      </trkpt>
      <trkpt lat="43.81667" lon="6.50922">
        <ele>958</ele>
        <time>2021-08-13T21:32:19.952Z</time>
      </trkpt>
      <trkpt lat="43.81664" lon="6.50906">
        <ele>960</ele>
        <time>2021-08-13T21:32:30.659Z</time>
      </trkpt>
      <trkpt lat="43.8165" lon="6.5086">
        <ele>965</ele>
        <time>2021-08-13T21:33:02.994Z</time>
      </trkpt>
      <trkpt lat="43.81643" lon="6.50829">
        <ele>967</ele>
        <time>2021-08-13T21:33:15.405Z</time>
      </trkpt>
      <trkpt lat="43.81637" lon="6.50796">
        <ele>969</ele>
        <time>2021-08-13T21:33:27.990Z</time>
      </trkpt>
      <trkpt lat="43.81621" lon="6.50754">
        <ele>972</ele>
        <time>2021-08-13T21:33:46.484Z</time>
      </trkpt>
      <trkpt lat="43.81622" lon="6.50745">
        <ele>972</ele>
        <time>2021-08-13T21:33:48.013Z</time>
      </trkpt>
      <trkpt lat="43.81624" lon="6.50739">
        <ele>972</ele>
        <time>2021-08-13T21:33:49.123Z</time>
      </trkpt>
      <trkpt lat="43.81628" lon="6.50737">
        <ele>972</ele>
        <time>2021-08-13T21:33:50.112Z</time>
      </trkpt>
      <trkpt lat="43.81636" lon="6.50739">
        <ele>971</ele>
        <time>2021-08-13T21:33:50.941Z</time>
      </trkpt>
      <trkpt lat="43.81641" lon="6.50744">
        <ele>970</ele>
        <time>2021-08-13T21:33:51.569Z</time>
      </trkpt>
      <trkpt lat="43.81663" lon="6.5077">
        <ele>965</ele>
        <time>2021-08-13T21:33:54.516Z</time>
      </trkpt>
      <trkpt lat="43.81681" lon="6.50796">
        <ele>961</ele>
        <time>2021-08-13T21:33:57.167Z</time>
      </trkpt>
      <trkpt lat="43.81705" lon="6.5084">
        <ele>955</ele>
        <time>2021-08-13T21:34:01.224Z</time>
      </trkpt>
      <trkpt lat="43.81724" lon="6.50893">
        <ele>946</ele>
        <time>2021-08-13T21:34:05.576Z</time>
      </trkpt>
      <trkpt lat="43.8173" lon="6.50903">
        <ele>944</ele>
        <time>2021-08-13T21:34:06.533Z</time>
      </trkpt>
      <trkpt lat="43.81737" lon="6.5091">
        <ele>941</ele>
        <time>2021-08-13T21:34:07.413Z</time>
      </trkpt>
      <trkpt lat="43.81744" lon="6.50912">
        <ele>939</ele>
        <time>2021-08-13T21:34:08.141Z</time>
      </trkpt>
      <trkpt lat="43.81751" lon="6.5091">
        <ele>937</ele>
        <time>2021-08-13T21:34:08.870Z</time>
      </trkpt>
      <trkpt lat="43.81766" lon="6.50897">
        <ele>938</ele>
        <time>2021-08-13T21:34:16.390Z</time>
      </trkpt>
      <trkpt lat="43.81785" lon="6.50871">
        <ele>940</ele>
        <time>2021-08-13T21:34:29.374Z</time>
      </trkpt>
      <trkpt lat="43.81807" lon="6.50887">
        <ele>934</ele>
        <time>2021-08-13T21:34:31.907Z</time>
      </trkpt>
      <trkpt lat="43.8182" lon="6.50878">
        <ele>934</ele>
        <time>2021-08-13T21:34:35.288Z</time>
      </trkpt>
      <trkpt lat="43.81883" lon="6.50888">
        <ele>929</ele>
        <time>2021-08-13T21:34:41.752Z</time>
      </trkpt>
      <trkpt lat="43.81907" lon="6.50907">
        <ele>925</ele>
        <time>2021-08-13T21:34:44.570Z</time>
      </trkpt>
      <trkpt lat="43.81937" lon="6.50914">
        <ele>924</ele>
        <time>2021-08-13T21:34:48.389Z</time>
      </trkpt>
      <trkpt lat="43.81963" lon="6.50912">
        <ele>924</ele>
        <time>2021-08-13T21:34:54.449Z</time>
      </trkpt>
      <trkpt lat="43.8198" lon="6.50909">
        <ele>925</ele>
        <time>2021-08-13T21:35:01.826Z</time>
      </trkpt>
      <trkpt lat="43.8199" lon="6.50914">
        <ele>924</ele>
        <time>2021-08-13T21:35:02.909Z</time>
      </trkpt>
      <trkpt lat="43.81997" lon="6.50913">
        <ele>924</ele>
        <time>2021-08-13T21:35:04.547Z</time>
      </trkpt>
      <trkpt lat="43.82024" lon="6.50893">
        <ele>924</ele>
        <time>2021-08-13T21:35:11.671Z</time>
      </trkpt>
      <trkpt lat="43.82038" lon="6.50886">
        <ele>923</ele>
        <time>2021-08-13T21:35:13.189Z</time>
      </trkpt>
      <trkpt lat="43.82081" lon="6.5089">
        <ele>920</ele>
        <time>2021-08-13T21:35:17.582Z</time>
      </trkpt>
      <trkpt lat="43.82121" lon="6.50899">
        <ele>919</ele>
        <time>2021-08-13T21:35:23.132Z</time>
      </trkpt>
      <trkpt lat="43.82128" lon="6.50899">
        <ele>918</ele>
        <time>2021-08-13T21:35:23.846Z</time>
      </trkpt>
      <trkpt lat="43.82137" lon="6.50889">
        <ele>917</ele>
        <time>2021-08-13T21:35:25.022Z</time>
      </trkpt>
      <trkpt lat="43.82143" lon="6.50889">
        <ele>917</ele>
        <time>2021-08-13T21:35:26.418Z</time>
      </trkpt>
      <trkpt lat="43.82162" lon="6.50858">
        <ele>915</ele>
        <time>2021-08-13T21:35:29.410Z</time>
      </trkpt>
      <trkpt lat="43.82185" lon="6.50831">
        <ele>919</ele>
        <time>2021-08-13T21:35:56.184Z</time>
      </trkpt>
      <trkpt lat="43.82187" lon="6.50841">
        <ele>920</ele>
        <time>2021-08-13T21:36:02.905Z</time>
      </trkpt>
      <trkpt lat="43.8218" lon="6.5087">
        <ele>920</ele>
        <time>2021-08-13T21:36:08.039Z</time>
      </trkpt>
      <trkpt lat="43.82186" lon="6.50874">
        <ele>922</ele>
        <time>2021-08-13T21:36:14.015Z</time>
      </trkpt>
      <trkpt lat="43.82239" lon="6.5082">
        <ele>935</ele>
        <time>2021-08-13T21:37:13.060Z</time>
      </trkpt>
      <trkpt lat="43.82243" lon="6.5082">
        <ele>936</ele>
        <time>2021-08-13T21:37:16.650Z</time>
      </trkpt>
      <trkpt lat="43.82248" lon="6.50805">
        <ele>936</ele>
        <time>2021-08-13T21:37:19.425Z</time>
      </trkpt>
      <trkpt lat="43.82248" lon="6.50753">
        <ele>929</ele>
        <time>2021-08-13T21:37:23.249Z</time>
      </trkpt>
      <trkpt lat="43.82255" lon="6.50752">
        <ele>929</ele>
        <time>2021-08-13T21:37:24.887Z</time>
      </trkpt>
      <trkpt lat="43.82273" lon="6.50768">
        <ele>931</ele>
        <time>2021-08-13T21:37:37.060Z</time>
      </trkpt>
      <trkpt lat="43.82316" lon="6.5081">
        <ele>940</ele>
        <time>2021-08-13T21:38:24.278Z</time>
      </trkpt>
      <trkpt lat="43.82369" lon="6.50878">
        <ele>954</ele>
        <time>2021-08-13T21:39:29.105Z</time>
      </trkpt>
      <trkpt lat="43.8242" lon="6.50926">
        <ele>962</ele>
        <time>2021-08-13T21:40:21.659Z</time>
      </trkpt>
      <trkpt lat="43.82438" lon="6.50936">
        <ele>965</ele>
        <time>2021-08-13T21:40:39.065Z</time>
      </trkpt>
      <trkpt lat="43.82461" lon="6.50936">
        <ele>966</ele>
        <time>2021-08-13T21:40:47.960Z</time>
      </trkpt>
      <trkpt lat="43.82554" lon="6.50929">
        <ele>972</ele>
        <time>2021-08-13T21:41:29.813Z</time>
      </trkpt>
      <trkpt lat="43.82666" lon="6.50908">
        <ele>988</ele>
        <time>2021-08-13T21:43:11.262Z</time>
      </trkpt>
      <trkpt lat="43.82678" lon="6.50912">
        <ele>987</ele>
        <time>2021-08-13T21:43:12.520Z</time>
      </trkpt>
      <trkpt lat="43.827" lon="6.50923">
        <ele>986</ele>
        <time>2021-08-13T21:43:15.187Z</time>
      </trkpt>
      <trkpt lat="43.82716" lon="6.50936">
        <ele>987</ele>
        <time>2021-08-13T21:43:22.933Z</time>
      </trkpt>
      <trkpt lat="43.8273" lon="6.50942">
        <ele>987</ele>
        <time>2021-08-13T21:43:26.343Z</time>
      </trkpt>
      <trkpt lat="43.82768" lon="6.50952">
        <ele>981</ele>
        <time>2021-08-13T21:43:30.286Z</time>
      </trkpt>
      <trkpt lat="43.82808" lon="6.50965">
        <ele>973</ele>
        <time>2021-08-13T21:43:34.474Z</time>
      </trkpt>
      <trkpt lat="43.82837" lon="6.50981">
        <ele>967</ele>
        <time>2021-08-13T21:43:37.655Z</time>
      </trkpt>
      <trkpt lat="43.82975" lon="6.51088">
        <ele>928</ele>
        <time>2021-08-13T21:43:53.773Z</time>
      </trkpt>
      <trkpt lat="43.8299" lon="6.51091">
        <ele>922</ele>
        <time>2021-08-13T21:43:55.318Z</time>
      </trkpt>
      <trkpt lat="43.83018" lon="6.51079">
        <ele>914</ele>
        <time>2021-08-13T21:43:58.306Z</time>
      </trkpt>
      <trkpt lat="43.83037" lon="6.51073">
        <ele>910</ele>
        <time>2021-08-13T21:44:00.292Z</time>
      </trkpt>
      <trkpt lat="43.83084" lon="6.50915">
        <ele>914</ele>
        <time>2021-08-13T21:44:41.115Z</time>
      </trkpt>
      <trkpt lat="43.83096" lon="6.50879">
        <ele>916</ele>
        <time>2021-08-13T21:44:54.503Z</time>
      </trkpt>
      <trkpt lat="43.83189" lon="6.50805">
        <ele>905</ele>
        <time>2021-08-13T21:45:05.433Z</time>
      </trkpt>
      <trkpt lat="43.83284" lon="6.50685">
        <ele>901</ele>
        <time>2021-08-13T21:45:21.861Z</time>
      </trkpt>
      <trkpt lat="43.83322" lon="6.50668">
        <ele>896</ele>
        <time>2021-08-13T21:45:25.931Z</time>
      </trkpt>
      <trkpt lat="43.83334" lon="6.50645">
        <ele>890</ele>
        <time>2021-08-13T21:45:28.018Z</time>
      </trkpt>
      <trkpt lat="43.83355" lon="6.50619">
        <ele>880</ele>
        <time>2021-08-13T21:45:30.888Z</time>
      </trkpt>
      <trkpt lat="43.83434" lon="6.50563">
        <ele>858</ele>
        <time>2021-08-13T21:45:39.933Z</time>
      </trkpt>
      <trkpt lat="43.83454" lon="6.50537">
        <ele>849</ele>
        <time>2021-08-13T21:45:42.728Z</time>
      </trkpt>
      <trkpt lat="43.83468" lon="6.50524">
        <ele>844</ele>
        <time>2021-08-13T21:45:44.445Z</time>
      </trkpt>
      <trkpt lat="43.83485" lon="6.50498">
        <ele>839</ele>
        <time>2021-08-13T21:45:47.026Z</time>
      </trkpt>
      <trkpt lat="43.83506" lon="6.50473">
        <ele>831</ele>
        <time>2021-08-13T21:45:49.847Z</time>
      </trkpt>
      <trkpt lat="43.83513" lon="6.50476">
        <ele>830</ele>
        <time>2021-08-13T21:45:50.594Z</time>
      </trkpt>
      <trkpt lat="43.83517" lon="6.50485">
        <ele>830</ele>
        <time>2021-08-13T21:45:52.369Z</time>
      </trkpt>
      <trkpt lat="43.83526" lon="6.50494">
        <ele>829</ele>
        <time>2021-08-13T21:45:53.500Z</time>
      </trkpt>
      <trkpt lat="43.83569" lon="6.50502">
        <ele>819</ele>
        <time>2021-08-13T21:45:57.922Z</time>
      </trkpt>
      <trkpt lat="43.83619" lon="6.50498">
        <ele>807</ele>
        <time>2021-08-13T21:46:03.027Z</time>
      </trkpt>
      <trkpt lat="43.83639" lon="6.50479">
        <ele>803</ele>
        <time>2021-08-13T21:46:05.499Z</time>
      </trkpt>
      <trkpt lat="43.83673" lon="6.5041">
        <ele>798</ele>
        <time>2021-08-13T21:46:11.643Z</time>
      </trkpt>
      <trkpt lat="43.83686" lon="6.50355">
        <ele>792</ele>
        <time>2021-08-13T21:46:15.899Z</time>
      </trkpt>
      <trkpt lat="43.83706" lon="6.50319">
        <ele>786</ele>
        <time>2021-08-13T21:46:19.240Z</time>
      </trkpt>
      <trkpt lat="43.83716" lon="6.50295">
        <ele>783</ele>
        <time>2021-08-13T21:46:21.278Z</time>
      </trkpt>
      <trkpt lat="43.83729" lon="6.50281">
        <ele>781</ele>
        <time>2021-08-13T21:46:22.956Z</time>
      </trkpt>
      <trkpt lat="43.83747" lon="6.50221">
        <ele>773</ele>
        <time>2021-08-13T21:46:27.733Z</time>
      </trkpt>
      <trkpt lat="43.83753" lon="6.50194">
        <ele>769</ele>
        <time>2021-08-13T21:46:29.811Z</time>
      </trkpt>
      <trkpt lat="43.83763" lon="6.5018">
        <ele>766</ele>
        <time>2021-08-13T21:46:31.259Z</time>
      </trkpt>
      <trkpt lat="43.8379" lon="6.5016">
        <ele>762</ele>
        <time>2021-08-13T21:46:34.380Z</time>
      </trkpt>
      <trkpt lat="43.83824" lon="6.50154">
        <ele>760</ele>
        <time>2021-08-13T21:46:37.796Z</time>
      </trkpt>
      <trkpt lat="43.83862" lon="6.50159">
        <ele>751</ele>
        <time>2021-08-13T21:46:41.687Z</time>
      </trkpt>
      <trkpt lat="43.83865" lon="6.50148">
        <ele>748</ele>
        <time>2021-08-13T21:46:42.551Z</time>
      </trkpt>
      <trkpt lat="43.83857" lon="6.50137">
        <ele>749</ele>
        <time>2021-08-13T21:46:48.696Z</time>
      </trkpt>
      <trkpt lat="43.83849" lon="6.5013">
        <ele>750</ele>
        <time>2021-08-13T21:46:54.759Z</time>
      </trkpt>
      <trkpt lat="43.83836" lon="6.50128">
        <ele>754</ele>
        <time>2021-08-13T21:47:06.499Z</time>
      </trkpt>
      <trkpt lat="43.83827" lon="6.50124">
        <ele>754</ele>
        <time>2021-08-13T21:47:08.699Z</time>
      </trkpt>
      <trkpt lat="43.83823" lon="6.50116">
        <ele>753</ele>
        <time>2021-08-13T21:47:09.414Z</time>
      </trkpt>
      <trkpt lat="43.83825" lon="6.50111">
        <ele>752</ele>
        <time>2021-08-13T21:47:09.835Z</time>
      </trkpt>
      <trkpt lat="43.8383" lon="6.50107">
        <ele>751</ele>
        <time>2021-08-13T21:47:10.423Z</time>
      </trkpt>
      <trkpt lat="43.83842" lon="6.50108">
        <ele>748</ele>
        <time>2021-08-13T21:47:11.649Z</time>
      </trkpt>
      <trkpt lat="43.83853" lon="6.50113">
        <ele>746</ele>
        <time>2021-08-13T21:47:12.829Z</time>
      </trkpt>
      <trkpt lat="43.83861" lon="6.50109">
        <ele>743</ele>
        <time>2021-08-13T21:47:13.695Z</time>
      </trkpt>
      <trkpt lat="43.83862" lon="6.50097">
        <ele>741</ele>
        <time>2021-08-13T21:47:14.584Z</time>
      </trkpt>
      <trkpt lat="43.83856" lon="6.50086">
        <ele>741</ele>
        <time>2021-08-13T21:47:16.899Z</time>
      </trkpt>
      <trkpt lat="43.83845" lon="6.5008">
        <ele>742</ele>
        <time>2021-08-13T21:47:23.119Z</time>
      </trkpt>
      <trkpt lat="43.83798" lon="6.50081">
        <ele>749</ele>
        <time>2021-08-13T21:48:05.311Z</time>
      </trkpt>
      <trkpt lat="43.83788" lon="6.50077">
        <ele>749</ele>
        <time>2021-08-13T21:48:07.733Z</time>
      </trkpt>
      <trkpt lat="43.83787" lon="6.50069">
        <ele>747</ele>
        <time>2021-08-13T21:48:08.330Z</time>
      </trkpt>
      <trkpt lat="43.83823" lon="6.50061">
        <ele>742</ele>
        <time>2021-08-13T21:48:12.047Z</time>
      </trkpt>
      <trkpt lat="43.83832" lon="6.50057">
        <ele>740</ele>
        <time>2021-08-13T21:48:13.010Z</time>
      </trkpt>
      <trkpt lat="43.83861" lon="6.50038">
        <ele>730</ele>
        <time>2021-08-13T21:48:16.280Z</time>
      </trkpt>
      <trkpt lat="43.83871" lon="6.50041">
        <ele>729</ele>
        <time>2021-08-13T21:48:17.323Z</time>
      </trkpt>
      <trkpt lat="43.83879" lon="6.50049">
        <ele>729</ele>
        <time>2021-08-13T21:48:19.618Z</time>
      </trkpt>
      <trkpt lat="43.83913" lon="6.50121">
        <ele>731</ele>
        <time>2021-08-13T21:48:40.112Z</time>
      </trkpt>
      <trkpt lat="43.83918" lon="6.50141">
        <ele>731</ele>
        <time>2021-08-13T21:48:43.665Z</time>
      </trkpt>
      <trkpt lat="43.83917" lon="6.50155">
        <ele>733</ele>
        <time>2021-08-13T21:48:52.773Z</time>
      </trkpt>
      <trkpt lat="43.83902" lon="6.50185">
        <ele>739</ele>
        <time>2021-08-13T21:49:16.407Z</time>
      </trkpt>
      <trkpt lat="43.83896" lon="6.50208">
        <ele>742</ele>
        <time>2021-08-13T21:49:32.242Z</time>
      </trkpt>
      <trkpt lat="43.83888" lon="6.50255">
        <ele>747</ele>
        <time>2021-08-13T21:50:03.507Z</time>
      </trkpt>
      <trkpt lat="43.83888" lon="6.50263">
        <ele>747</ele>
        <time>2021-08-13T21:50:04.850Z</time>
      </trkpt>
      <trkpt lat="43.83891" lon="6.5027">
        <ele>747</ele>
        <time>2021-08-13T21:50:06.217Z</time>
      </trkpt>
      <trkpt lat="43.83896" lon="6.50275">
        <ele>747</ele>
        <time>2021-08-13T21:50:07.651Z</time>
      </trkpt>
      <trkpt lat="43.83901" lon="6.50278">
        <ele>746</ele>
        <time>2021-08-13T21:50:08.207Z</time>
      </trkpt>
      <trkpt lat="43.83905" lon="6.50277">
        <ele>745</ele>
        <time>2021-08-13T21:50:08.621Z</time>
      </trkpt>
      <trkpt lat="43.83914" lon="6.50269">
        <ele>741</ele>
        <time>2021-08-13T21:50:09.711Z</time>
      </trkpt>
      <trkpt lat="43.83933" lon="6.50239">
        <ele>734</ele>
        <time>2021-08-13T21:50:12.646Z</time>
      </trkpt>
      <trkpt lat="43.83937" lon="6.50237">
        <ele>733</ele>
        <time>2021-08-13T21:50:13.080Z</time>
      </trkpt>
      <trkpt lat="43.83948" lon="6.5024">
        <ele>732</ele>
        <time>2021-08-13T21:50:14.222Z</time>
      </trkpt>
      <trkpt lat="43.83981" lon="6.50264">
        <ele>732</ele>
        <time>2021-08-13T21:50:22.895Z</time>
      </trkpt>
      <trkpt lat="43.84041" lon="6.50339">
        <ele>732</ele>
        <time>2021-08-13T21:50:41.695Z</time>
      </trkpt>
      <trkpt lat="43.84048" lon="6.50351">
        <ele>731</ele>
        <time>2021-08-13T21:50:42.829Z</time>
      </trkpt>
      <trkpt lat="43.84067" lon="6.5041">
        <ele>733</ele>
        <time>2021-08-13T21:51:00.699Z</time>
      </trkpt>
      <trkpt lat="43.841" lon="6.50496">
        <ele>729</ele>
        <time>2021-08-13T21:51:07.783Z</time>
      </trkpt>
      <trkpt lat="43.84103" lon="6.50517">
        <ele>728</ele>
        <time>2021-08-13T21:51:09.246Z</time>
      </trkpt>
      <trkpt lat="43.84102" lon="6.50526">
        <ele>729</ele>
        <time>2021-08-13T21:51:15.141Z</time>
      </trkpt>
      <trkpt lat="43.84093" lon="6.50547">
        <ele>730</ele>
        <time>2021-08-13T21:51:22.643Z</time>
      </trkpt>
      <trkpt lat="43.84091" lon="6.50555">
        <ele>730</ele>
        <time>2021-08-13T21:51:24.064Z</time>
      </trkpt>
      <trkpt lat="43.84092" lon="6.50564">
        <ele>730</ele>
        <time>2021-08-13T21:51:25.593Z</time>
      </trkpt>
      <trkpt lat="43.84094" lon="6.50574">
        <ele>730</ele>
        <time>2021-08-13T21:51:27.334Z</time>
      </trkpt>
      <trkpt lat="43.84099" lon="6.50585">
        <ele>729</ele>
        <time>2021-08-13T21:51:28.290Z</time>
      </trkpt>
      <trkpt lat="43.84106" lon="6.50595">
        <ele>729</ele>
        <time>2021-08-13T21:51:30.629Z</time>
      </trkpt>
      <trkpt lat="43.84128" lon="6.50617">
        <ele>728</ele>
        <time>2021-08-13T21:51:33.901Z</time>
      </trkpt>
      <trkpt lat="43.84132" lon="6.50626">
        <ele>729</ele>
        <time>2021-08-13T21:51:40.527Z</time>
      </trkpt>
      <trkpt lat="43.8415" lon="6.50678">
        <ele>730</ele>
        <time>2021-08-13T21:51:52.942Z</time>
      </trkpt>
      <trkpt lat="43.84168" lon="6.50719">
        <ele>729</ele>
        <time>2021-08-13T21:51:57.472Z</time>
      </trkpt>
      <trkpt lat="43.84179" lon="6.50765">
        <ele>732</ele>
        <time>2021-08-13T21:52:16.058Z</time>
      </trkpt>
      <trkpt lat="43.8419" lon="6.50798">
        <ele>734</ele>
        <time>2021-08-13T21:52:28.946Z</time>
      </trkpt>
      <trkpt lat="43.84212" lon="6.50844">
        <ele>736</ele>
        <time>2021-08-13T21:52:45.171Z</time>
      </trkpt>
      <trkpt lat="43.84229" lon="6.50868">
        <ele>738</ele>
        <time>2021-08-13T21:52:57.707Z</time>
      </trkpt>
      <trkpt lat="43.84249" lon="6.50883">
        <ele>737</ele>
        <time>2021-08-13T21:53:00.272Z</time>
      </trkpt>
      <trkpt lat="43.84302" lon="6.50909">
        <ele>735</ele>
        <time>2021-08-13T21:53:07.140Z</time>
      </trkpt>
      <trkpt lat="43.84328" lon="6.50925">
        <ele>733</ele>
        <time>2021-08-13T21:53:10.040Z</time>
      </trkpt>
      <trkpt lat="43.84341" lon="6.50941">
        <ele>735</ele>
        <time>2021-08-13T21:53:22.368Z</time>
      </trkpt>
      <trkpt lat="43.84384" lon="6.51027">
        <ele>741</ele>
        <time>2021-08-13T21:54:00.437Z</time>
      </trkpt>
      <trkpt lat="43.84391" lon="6.51043">
        <ele>741</ele>
        <time>2021-08-13T21:54:03.578Z</time>
      </trkpt>
      <trkpt lat="43.84405" lon="6.5109">
        <ele>740</ele>
        <time>2021-08-13T21:54:08.461Z</time>
      </trkpt>
      <trkpt lat="43.84429" lon="6.51226">
        <ele>741</ele>
        <time>2021-08-13T21:54:34.305Z</time>
      </trkpt>
      <trkpt lat="43.8444" lon="6.51272">
        <ele>741</ele>
        <time>2021-08-13T21:54:42.439Z</time>
      </trkpt>
      <trkpt lat="43.84447" lon="6.51312">
        <ele>741</ele>
        <time>2021-08-13T21:54:49.348Z</time>
      </trkpt>
      <trkpt lat="43.84467" lon="6.51383">
        <ele>738</ele>
        <time>2021-08-13T21:54:54.999Z</time>
      </trkpt>
      <trkpt lat="43.84493" lon="6.51467">
        <ele>734</ele>
        <time>2021-08-13T21:55:01.448Z</time>
      </trkpt>
      <trkpt lat="43.845" lon="6.51476">
        <ele>732</ele>
        <time>2021-08-13T21:55:02.422Z</time>
      </trkpt>
      <trkpt lat="43.84514" lon="6.51487">
        <ele>731</ele>
        <time>2021-08-13T21:55:03.978Z</time>
      </trkpt>
      <trkpt lat="43.84517" lon="6.51477">
        <ele>730</ele>
        <time>2021-08-13T21:55:04.774Z</time>
      </trkpt>
      <trkpt lat="43.84529" lon="6.51458">
        <ele>728</ele>
        <time>2021-08-13T21:55:06.630Z</time>
      </trkpt>
      <trkpt lat="43.84536" lon="6.5145">
        <ele>728</ele>
        <time>2021-08-13T21:55:08.742Z</time>
      </trkpt>
      <trkpt lat="43.84541" lon="6.51445">
        <ele>727</ele>
        <time>2021-08-13T21:55:09.370Z</time>
      </trkpt>
      <trkpt lat="43.84571" lon="6.5141">
        <ele>725</ele>
        <time>2021-08-13T21:55:13.524Z</time>
      </trkpt>
      <trkpt lat="43.84574" lon="6.51406">
        <ele>724</ele>
        <time>2021-08-13T21:55:13.948Z</time>
      </trkpt>
      <trkpt lat="43.84575" lon="6.51403">
        <ele>724</ele>
        <time>2021-08-13T21:55:14.503Z</time>
      </trkpt>
      <trkpt lat="43.84577" lon="6.51397">
        <ele>724</ele>
        <time>2021-08-13T21:55:15.612Z</time>
      </trkpt>
      <trkpt lat="43.84579" lon="6.51389">
        <ele>724</ele>
        <time>2021-08-13T21:55:17.033Z</time>
      </trkpt>
      <trkpt lat="43.8458" lon="6.51379">
        <ele>724</ele>
        <time>2021-08-13T21:55:18.728Z</time>
      </trkpt>
      <trkpt lat="43.84585" lon="6.51357">
        <ele>723</ele>
        <time>2021-08-13T21:55:20.363Z</time>
      </trkpt>
      <trkpt lat="43.84587" lon="6.51341">
        <ele>723</ele>
        <time>2021-08-13T21:55:23.088Z</time>
      </trkpt>
      <trkpt lat="43.8459" lon="6.51325">
        <ele>724</ele>
        <time>2021-08-13T21:55:29.323Z</time>
      </trkpt>
      <trkpt lat="43.84604" lon="6.51327">
        <ele>724</ele>
        <time>2021-08-13T21:55:32.599Z</time>
      </trkpt>
      <trkpt lat="43.84611" lon="6.51279">
        <ele>725</ele>
        <time>2021-08-13T21:55:43.696Z</time>
      </trkpt>
      <trkpt lat="43.84613" lon="6.51274">
        <ele>725</ele>
        <time>2021-08-13T21:55:44.655Z</time>
      </trkpt>
      <trkpt lat="43.84617" lon="6.51271">
        <ele>726</ele>
        <time>2021-08-13T21:55:48.737Z</time>
      </trkpt>
      <trkpt lat="43.84641" lon="6.51275">
        <ele>726</ele>
        <time>2021-08-13T21:55:54.363Z</time>
      </trkpt>
      <trkpt lat="43.84642" lon="6.51262">
        <ele>726</ele>
        <time>2021-08-13T21:55:56.557Z</time>
      </trkpt>
      <trkpt lat="43.84642" lon="6.51254">
        <ele>726</ele>
        <time>2021-08-13T21:55:57.900Z</time>
      </trkpt>
      <trkpt lat="43.84661" lon="6.51256">
        <ele>727</ele>
        <time>2021-08-13T21:56:05.781Z</time>
      </trkpt>
      <trkpt lat="43.84671" lon="6.51251">
        <ele>727</ele>
        <time>2021-08-13T21:56:08.255Z</time>
      </trkpt>
      <trkpt lat="43.84697" lon="6.51222">
        <ele>728</ele>
        <time>2021-08-13T21:56:18.959Z</time>
      </trkpt>
      <trkpt lat="43.84717" lon="6.51207">
        <ele>729</ele>
        <time>2021-08-13T21:56:27.820Z</time>
      </trkpt>
      <trkpt lat="43.84726" lon="6.51204">
        <ele>729</ele>
        <time>2021-08-13T21:56:29.974Z</time>
      </trkpt>
      <trkpt lat="43.8477" lon="6.51197">
        <ele>734</ele>
        <time>2021-08-13T21:57:00.628Z</time>
      </trkpt>
      <trkpt lat="43.84801" lon="6.51096">
        <ele>732</ele>
        <time>2021-08-13T21:57:11.401Z</time>
      </trkpt>
      <trkpt lat="43.84882" lon="6.50937">
        <ele>736</ele>
        <time>2021-08-13T21:57:55.610Z</time>
      </trkpt>
      <trkpt lat="43.84894" lon="6.50923">
        <ele>737</ele>
        <time>2021-08-13T21:58:02.624Z</time>
      </trkpt>
      <trkpt lat="43.84907" lon="6.50912">
        <ele>737</ele>
        <time>2021-08-13T21:58:06.168Z</time>
      </trkpt>
      <trkpt lat="43.84938" lon="6.50894">
        <ele>740</ele>
        <time>2021-08-13T21:58:24.580Z</time>
      </trkpt>
      <trkpt lat="43.8494" lon="6.50899">
        <ele>740</ele>
        <time>2021-08-13T21:58:25.540Z</time>
      </trkpt>
      <trkpt lat="43.84949" lon="6.50898">
        <ele>741</ele>
        <time>2021-08-13T21:58:31.643Z</time>
      </trkpt>
      <trkpt lat="43.84952" lon="6.50905">
        <ele>742</ele>
        <time>2021-08-13T21:58:36.914Z</time>
      </trkpt>
      <trkpt lat="43.84978" lon="6.5089">
        <ele>744</ele>
        <time>2021-08-13T21:58:50.204Z</time>
      </trkpt>
      <trkpt lat="43.84983" lon="6.50891">
        <ele>744</ele>
        <time>2021-08-13T21:58:51.379Z</time>
      </trkpt>
      <trkpt lat="43.85012" lon="6.50871">
        <ele>746</ele>
        <time>2021-08-13T21:59:05.658Z</time>
      </trkpt>
      <trkpt lat="43.85018" lon="6.5086">
        <ele>745</ele>
        <time>2021-08-13T21:59:06.672Z</time>
      </trkpt>
      <trkpt lat="43.85019" lon="6.50852">
        <ele>744</ele>
        <time>2021-08-13T21:59:07.269Z</time>
      </trkpt>
      <trkpt lat="43.85115" lon="6.50803">
        <ele>746</ele>
        <time>2021-08-13T21:59:36.268Z</time>
      </trkpt>
      <trkpt lat="43.85117" lon="6.50808">
        <ele>746</ele>
        <time>2021-08-13T21:59:37.228Z</time>
      </trkpt>
      <trkpt lat="43.85139" lon="6.5082">
        <ele>747</ele>
        <time>2021-08-13T21:59:46.209Z</time>
      </trkpt>
      <trkpt lat="43.85147" lon="6.50826">
        <ele>747</ele>
        <time>2021-08-13T21:59:48.326Z</time>
      </trkpt>
      <trkpt lat="43.85152" lon="6.5082">
        <ele>747</ele>
        <time>2021-08-13T21:59:49.864Z</time>
      </trkpt>
      <trkpt lat="43.85166" lon="6.50815">
        <ele>747</ele>
        <time>2021-08-13T21:59:53.229Z</time>
      </trkpt>
      <trkpt lat="43.85171" lon="6.50817">
        <ele>747</ele>
        <time>2021-08-13T21:59:54.440Z</time>
      </trkpt>
      <trkpt lat="43.85172" lon="6.50812">
        <ele>747</ele>
        <time>2021-08-13T21:59:55.311Z</time>
      </trkpt>
      <trkpt lat="43.85191" lon="6.50828">
        <ele>747</ele>
        <time>2021-08-13T22:00:00.484Z</time>
      </trkpt>
      <trkpt lat="43.85196" lon="6.50828">
        <ele>747</ele>
        <time>2021-08-13T22:00:01.647Z</time>
      </trkpt>
    </trkseg>
  </trk>
</gpx>